<?xml version="1.0" encoding="UTF-8" standalone="no" ?>
<gpx xmlns="http://www.topografix.com/GPX/1/1" xmlns:xsi="http://www.w3.org/2001/XMLSchema-instance" xsi:schemaLocation="http://www.topografix.com/GPX/1/1 http://www.topografix.com/GPX/1/1/gpx.xsd" version="1.1" creator="VisuGPX - https://www.visugpx.com">
  <metadata>
    <name>AUPS CHATEAU CORMEIL</name>
    <desc><![CDATA[Départ parking sur La D60 entre Aups et Amphoux au niveau de la première citerne qui se trouve sur la gauche. Nous empruntons un sentier qui nous mène à proximité du château de Fabrèges, puis nous dirigeons vers le château de Cormeil, l'Engentière, les hautes Games, Peiroste, traversons la D60 vers Boquis. A la côte 466, nous tournons à droite jusqu'à la côte 444 puis tournons à nouveau à droite jusqu'à la côte 468. Nous tournons à gauche sur le D60 et regagnons le parking. Attention, la partie entre la côte 445 et le château de Fabre a été privatisée, il faut passer ailleurs.]]></desc>
  </metadata>
  <trk>
    <name><![CDATA[Activité actuelle: 23 OCT 2020 17:04]]></name>
    <trkseg>
      <trkpt lat="43.61908" lon="6.1615">
        <ele>428.05</ele>
        <time>2020-10-27T08:16:34Z</time>
      </trkpt>
      <trkpt lat="43.61908" lon="6.1615">
        <ele>428.05</ele>
        <time>2020-10-27T08:16:35Z</time>
      </trkpt>
      <trkpt lat="43.61875" lon="6.16154">
        <ele>428.05</ele>
        <time>2020-10-27T08:17:13Z</time>
      </trkpt>
      <trkpt lat="43.61856" lon="6.16155">
        <ele>428.05</ele>
        <time>2020-10-27T08:17:37Z</time>
      </trkpt>
      <trkpt lat="43.61856" lon="6.16156">
        <ele>428.05</ele>
        <time>2020-10-27T08:18:00Z</time>
      </trkpt>
      <trkpt lat="43.61855" lon="6.16155">
        <ele>428.05</ele>
        <time>2020-10-27T08:18:29Z</time>
      </trkpt>
      <trkpt lat="43.61856" lon="6.16157">
        <ele>428.05</ele>
        <time>2020-10-27T08:18:47Z</time>
      </trkpt>
      <trkpt lat="43.61855" lon="6.16156">
        <ele>428.05</ele>
        <time>2020-10-27T08:19:07Z</time>
      </trkpt>
      <trkpt lat="43.61855" lon="6.16155">
        <ele>428.05</ele>
        <time>2020-10-27T08:19:25Z</time>
      </trkpt>
      <trkpt lat="43.61855" lon="6.16157">
        <ele>428.05</ele>
        <time>2020-10-27T08:19:36Z</time>
      </trkpt>
      <trkpt lat="43.61856" lon="6.16157">
        <ele>428.05</ele>
        <time>2020-10-27T08:19:53Z</time>
      </trkpt>
      <trkpt lat="43.61856" lon="6.16156">
        <ele>428.05</ele>
        <time>2020-10-27T08:20:09Z</time>
      </trkpt>
      <trkpt lat="43.61858" lon="6.16156">
        <ele>428.05</ele>
        <time>2020-10-27T08:20:30Z</time>
      </trkpt>
      <trkpt lat="43.61857" lon="6.16162">
        <ele>428.05</ele>
        <time>2020-10-27T08:20:52Z</time>
      </trkpt>
      <trkpt lat="43.61853" lon="6.16163">
        <ele>428.05</ele>
        <time>2020-10-27T08:21:10Z</time>
      </trkpt>
      <trkpt lat="43.61854" lon="6.16163">
        <ele>428.05</ele>
        <time>2020-10-27T08:21:33Z</time>
      </trkpt>
      <trkpt lat="43.61855" lon="6.16163">
        <ele>428.05</ele>
        <time>2020-10-27T08:21:53Z</time>
      </trkpt>
      <trkpt lat="43.61855" lon="6.16163">
        <ele>428.05</ele>
        <time>2020-10-27T08:22:13Z</time>
      </trkpt>
      <trkpt lat="43.61853" lon="6.16164">
        <ele>428.05</ele>
        <time>2020-10-27T08:22:34Z</time>
      </trkpt>
      <trkpt lat="43.61847" lon="6.16164">
        <ele>428.05</ele>
        <time>2020-10-27T08:22:44Z</time>
      </trkpt>
      <trkpt lat="43.61841" lon="6.16164">
        <ele>428.05</ele>
        <time>2020-10-27T08:22:48Z</time>
      </trkpt>
      <trkpt lat="43.6183" lon="6.16168">
        <ele>427.39</ele>
        <time>2020-10-27T08:23:01Z</time>
      </trkpt>
      <trkpt lat="43.61824" lon="6.16172">
        <ele>427.1</ele>
        <time>2020-10-27T08:23:13Z</time>
      </trkpt>
      <trkpt lat="43.61821" lon="6.16177">
        <ele>426.95</ele>
        <time>2020-10-27T08:23:28Z</time>
      </trkpt>
      <trkpt lat="43.61822" lon="6.16175">
        <ele>426.98</ele>
        <time>2020-10-27T08:23:50Z</time>
      </trkpt>
      <trkpt lat="43.61821" lon="6.16175">
        <ele>426.98</ele>
        <time>2020-10-27T08:23:52Z</time>
      </trkpt>
      <trkpt lat="43.61815" lon="6.16174">
        <ele>426.98</ele>
        <time>2020-10-27T08:23:57Z</time>
      </trkpt>
      <trkpt lat="43.61811" lon="6.16175">
        <ele>426.98</ele>
        <time>2020-10-27T08:24:00Z</time>
      </trkpt>
      <trkpt lat="43.61798" lon="6.16186">
        <ele>426.72</ele>
        <time>2020-10-27T08:24:13Z</time>
      </trkpt>
      <trkpt lat="43.61784" lon="6.16196">
        <ele>426.52</ele>
        <time>2020-10-27T08:24:26Z</time>
      </trkpt>
      <trkpt lat="43.61777" lon="6.16195">
        <ele>426.52</ele>
        <time>2020-10-27T08:24:34Z</time>
      </trkpt>
      <trkpt lat="43.61764" lon="6.16207">
        <ele>426.81</ele>
        <time>2020-10-27T08:24:48Z</time>
      </trkpt>
      <trkpt lat="43.61751" lon="6.16215">
        <ele>426.98</ele>
        <time>2020-10-27T08:25:01Z</time>
      </trkpt>
      <trkpt lat="43.61739" lon="6.16225">
        <ele>427.29</ele>
        <time>2020-10-27T08:25:14Z</time>
      </trkpt>
      <trkpt lat="43.6173" lon="6.1624">
        <ele>428.41</ele>
        <time>2020-10-27T08:25:27Z</time>
      </trkpt>
      <trkpt lat="43.61725" lon="6.16255">
        <ele>428.91</ele>
        <time>2020-10-27T08:25:38Z</time>
      </trkpt>
      <trkpt lat="43.61721" lon="6.16272">
        <ele>429.38</ele>
        <time>2020-10-27T08:25:49Z</time>
      </trkpt>
      <trkpt lat="43.6172" lon="6.16277">
        <ele>429.36</ele>
        <time>2020-10-27T08:25:52Z</time>
      </trkpt>
      <trkpt lat="43.6172" lon="6.16289">
        <ele>429.15</ele>
        <time>2020-10-27T08:26:00Z</time>
      </trkpt>
      <trkpt lat="43.61718" lon="6.16305">
        <ele>429.11</ele>
        <time>2020-10-27T08:26:12Z</time>
      </trkpt>
      <trkpt lat="43.61713" lon="6.1632">
        <ele>429.19</ele>
        <time>2020-10-27T08:26:23Z</time>
      </trkpt>
      <trkpt lat="43.61703" lon="6.16333">
        <ele>430.24</ele>
        <time>2020-10-27T08:26:35Z</time>
      </trkpt>
      <trkpt lat="43.61703" lon="6.16334">
        <ele>430.31</ele>
        <time>2020-10-27T08:26:36Z</time>
      </trkpt>
      <trkpt lat="43.61697" lon="6.16348">
        <ele>430.63</ele>
        <time>2020-10-27T08:26:49Z</time>
      </trkpt>
      <trkpt lat="43.61692" lon="6.16358">
        <ele>430.41</ele>
        <time>2020-10-27T08:26:59Z</time>
      </trkpt>
      <trkpt lat="43.61686" lon="6.16372">
        <ele>430.73</ele>
        <time>2020-10-27T08:27:12Z</time>
      </trkpt>
      <trkpt lat="43.61681" lon="6.16389">
        <ele>430.8</ele>
        <time>2020-10-27T08:27:25Z</time>
      </trkpt>
      <trkpt lat="43.61679" lon="6.16401">
        <ele>430.59</ele>
        <time>2020-10-27T08:27:33Z</time>
      </trkpt>
      <trkpt lat="43.61678" lon="6.16406">
        <ele>430.28</ele>
        <time>2020-10-27T08:27:37Z</time>
      </trkpt>
      <trkpt lat="43.61677" lon="6.16415">
        <ele>430.11</ele>
        <time>2020-10-27T08:27:43Z</time>
      </trkpt>
      <trkpt lat="43.6167" lon="6.16432">
        <ele>430.07</ele>
        <time>2020-10-27T08:27:57Z</time>
      </trkpt>
      <trkpt lat="43.61667" lon="6.16449">
        <ele>430.21</ele>
        <time>2020-10-27T08:28:11Z</time>
      </trkpt>
      <trkpt lat="43.61664" lon="6.16468">
        <ele>430.18</ele>
        <time>2020-10-27T08:28:22Z</time>
      </trkpt>
      <trkpt lat="43.61664" lon="6.16472">
        <ele>430.22</ele>
        <time>2020-10-27T08:28:25Z</time>
      </trkpt>
      <trkpt lat="43.61662" lon="6.16478">
        <ele>430.38</ele>
        <time>2020-10-27T08:28:29Z</time>
      </trkpt>
      <trkpt lat="43.6166" lon="6.16482">
        <ele>430.52</ele>
        <time>2020-10-27T08:28:32Z</time>
      </trkpt>
      <trkpt lat="43.61658" lon="6.16489">
        <ele>430.92</ele>
        <time>2020-10-27T08:28:37Z</time>
      </trkpt>
      <trkpt lat="43.61648" lon="6.16504">
        <ele>431.35</ele>
        <time>2020-10-27T08:28:51Z</time>
      </trkpt>
      <trkpt lat="43.61643" lon="6.1651">
        <ele>431.93</ele>
        <time>2020-10-27T08:28:59Z</time>
      </trkpt>
      <trkpt lat="43.6164" lon="6.16514">
        <ele>432.23</ele>
        <time>2020-10-27T08:29:02Z</time>
      </trkpt>
      <trkpt lat="43.61637" lon="6.16522">
        <ele>432.58</ele>
        <time>2020-10-27T08:29:08Z</time>
      </trkpt>
      <trkpt lat="43.61633" lon="6.1653">
        <ele>432.8</ele>
        <time>2020-10-27T08:29:14Z</time>
      </trkpt>
      <trkpt lat="43.61626" lon="6.16545">
        <ele>433.42</ele>
        <time>2020-10-27T08:29:26Z</time>
      </trkpt>
      <trkpt lat="43.6162" lon="6.16554">
        <ele>433.76</ele>
        <time>2020-10-27T08:29:34Z</time>
      </trkpt>
      <trkpt lat="43.61621" lon="6.16568">
        <ele>434.25</ele>
        <time>2020-10-27T08:29:44Z</time>
      </trkpt>
      <trkpt lat="43.61627" lon="6.16583">
        <ele>434.32</ele>
        <time>2020-10-27T08:29:55Z</time>
      </trkpt>
      <trkpt lat="43.61632" lon="6.16586">
        <ele>434.33</ele>
        <time>2020-10-27T08:30:02Z</time>
      </trkpt>
      <trkpt lat="43.61636" lon="6.16589">
        <ele>434.34</ele>
        <time>2020-10-27T08:30:06Z</time>
      </trkpt>
      <trkpt lat="43.61632" lon="6.16601">
        <ele>434.68</ele>
        <time>2020-10-27T08:30:16Z</time>
      </trkpt>
      <trkpt lat="43.6163" lon="6.16605">
        <ele>434.68</ele>
        <time>2020-10-27T08:30:19Z</time>
      </trkpt>
      <trkpt lat="43.61621" lon="6.16618">
        <ele>435.06</ele>
        <time>2020-10-27T08:30:31Z</time>
      </trkpt>
      <trkpt lat="43.61616" lon="6.16633">
        <ele>435.31</ele>
        <time>2020-10-27T08:30:43Z</time>
      </trkpt>
      <trkpt lat="43.61616" lon="6.16635">
        <ele>435.3</ele>
        <time>2020-10-27T08:30:44Z</time>
      </trkpt>
      <trkpt lat="43.61617" lon="6.16658">
        <ele>435.86</ele>
        <time>2020-10-27T08:30:59Z</time>
      </trkpt>
      <trkpt lat="43.61618" lon="6.16663">
        <ele>436.07</ele>
        <time>2020-10-27T08:31:03Z</time>
      </trkpt>
      <trkpt lat="43.61618" lon="6.16668">
        <ele>436.38</ele>
        <time>2020-10-27T08:31:07Z</time>
      </trkpt>
      <trkpt lat="43.61614" lon="6.16691">
        <ele>437.78</ele>
        <time>2020-10-27T08:31:23Z</time>
      </trkpt>
      <trkpt lat="43.61614" lon="6.16694">
        <ele>437.76</ele>
        <time>2020-10-27T08:31:25Z</time>
      </trkpt>
      <trkpt lat="43.61612" lon="6.16701">
        <ele>437.67</ele>
        <time>2020-10-27T08:31:29Z</time>
      </trkpt>
      <trkpt lat="43.61603" lon="6.16716">
        <ele>437.44</ele>
        <time>2020-10-27T08:31:41Z</time>
      </trkpt>
      <trkpt lat="43.61599" lon="6.16727">
        <ele>437.31</ele>
        <time>2020-10-27T08:31:49Z</time>
      </trkpt>
      <trkpt lat="43.61591" lon="6.16745">
        <ele>436.39</ele>
        <time>2020-10-27T08:32:02Z</time>
      </trkpt>
      <trkpt lat="43.6159" lon="6.16749">
        <ele>436.08</ele>
        <time>2020-10-27T08:32:05Z</time>
      </trkpt>
      <trkpt lat="43.61582" lon="6.16763">
        <ele>434.68</ele>
        <time>2020-10-27T08:32:17Z</time>
      </trkpt>
      <trkpt lat="43.61574" lon="6.16778">
        <ele>433.17</ele>
        <time>2020-10-27T08:32:29Z</time>
      </trkpt>
      <trkpt lat="43.61567" lon="6.16792">
        <ele>431.8</ele>
        <time>2020-10-27T08:32:39Z</time>
      </trkpt>
      <trkpt lat="43.61565" lon="6.16795">
        <ele>431.46</ele>
        <time>2020-10-27T08:32:42Z</time>
      </trkpt>
      <trkpt lat="43.61558" lon="6.1681">
        <ele>430.15</ele>
        <time>2020-10-27T08:32:53Z</time>
      </trkpt>
      <trkpt lat="43.61554" lon="6.16817">
        <ele>429.79</ele>
        <time>2020-10-27T08:32:58Z</time>
      </trkpt>
      <trkpt lat="43.61549" lon="6.1683">
        <ele>429.31</ele>
        <time>2020-10-27T08:33:08Z</time>
      </trkpt>
      <trkpt lat="43.61545" lon="6.16835">
        <ele>429.19</ele>
        <time>2020-10-27T08:33:12Z</time>
      </trkpt>
      <trkpt lat="43.61543" lon="6.16839">
        <ele>429.11</ele>
        <time>2020-10-27T08:33:15Z</time>
      </trkpt>
      <trkpt lat="43.61533" lon="6.16849">
        <ele>428.47</ele>
        <time>2020-10-27T08:33:27Z</time>
      </trkpt>
      <trkpt lat="43.61528" lon="6.16862">
        <ele>427.85</ele>
        <time>2020-10-27T08:33:36Z</time>
      </trkpt>
      <trkpt lat="43.61518" lon="6.16875">
        <ele>427.61</ele>
        <time>2020-10-27T08:33:48Z</time>
      </trkpt>
      <trkpt lat="43.61507" lon="6.16891">
        <ele>427.07</ele>
        <time>2020-10-27T08:34:00Z</time>
      </trkpt>
      <trkpt lat="43.615" lon="6.16906">
        <ele>426.57</ele>
        <time>2020-10-27T08:34:12Z</time>
      </trkpt>
      <trkpt lat="43.615" lon="6.16904">
        <ele>426.46</ele>
        <time>2020-10-27T08:34:20Z</time>
      </trkpt>
      <trkpt lat="43.61507" lon="6.16894">
        <ele>426.51</ele>
        <time>2020-10-27T08:34:32Z</time>
      </trkpt>
      <trkpt lat="43.61507" lon="6.16895">
        <ele>427.01</ele>
        <time>2020-10-27T08:34:49Z</time>
      </trkpt>
      <trkpt lat="43.61507" lon="6.16895">
        <ele>426.79</ele>
        <time>2020-10-27T08:35:18Z</time>
      </trkpt>
      <trkpt lat="43.61507" lon="6.16895">
        <ele>426.79</ele>
        <time>2020-10-27T08:35:37Z</time>
      </trkpt>
      <trkpt lat="43.61507" lon="6.16894">
        <ele>426.79</ele>
        <time>2020-10-27T08:36:06Z</time>
      </trkpt>
      <trkpt lat="43.61506" lon="6.16894">
        <ele>426.79</ele>
        <time>2020-10-27T08:36:32Z</time>
      </trkpt>
      <trkpt lat="43.61506" lon="6.16892">
        <ele>426.79</ele>
        <time>2020-10-27T08:37:09Z</time>
      </trkpt>
      <trkpt lat="43.61507" lon="6.16892">
        <ele>426.79</ele>
        <time>2020-10-27T08:37:38Z</time>
      </trkpt>
      <trkpt lat="43.61503" lon="6.16897">
        <ele>426.79</ele>
        <time>2020-10-27T08:38:05Z</time>
      </trkpt>
      <trkpt lat="43.61502" lon="6.169">
        <ele>426.79</ele>
        <time>2020-10-27T08:38:07Z</time>
      </trkpt>
      <trkpt lat="43.61497" lon="6.16912">
        <ele>426.83</ele>
        <time>2020-10-27T08:38:17Z</time>
      </trkpt>
      <trkpt lat="43.61495" lon="6.16915">
        <ele>426.79</ele>
        <time>2020-10-27T08:38:20Z</time>
      </trkpt>
      <trkpt lat="43.61488" lon="6.16928">
        <ele>426.33</ele>
        <time>2020-10-27T08:38:31Z</time>
      </trkpt>
      <trkpt lat="43.6148" lon="6.16944">
        <ele>425.83</ele>
        <time>2020-10-27T08:38:43Z</time>
      </trkpt>
      <trkpt lat="43.61475" lon="6.16966">
        <ele>424.66</ele>
        <time>2020-10-27T08:38:59Z</time>
      </trkpt>
      <trkpt lat="43.61459" lon="6.16979">
        <ele>423.01</ele>
        <time>2020-10-27T08:39:16Z</time>
      </trkpt>
      <trkpt lat="43.61448" lon="6.16994">
        <ele>421.48</ele>
        <time>2020-10-27T08:39:31Z</time>
      </trkpt>
      <trkpt lat="43.61447" lon="6.16997">
        <ele>420.96</ele>
        <time>2020-10-27T08:39:34Z</time>
      </trkpt>
      <trkpt lat="43.61438" lon="6.17007">
        <ele>419.33</ele>
        <time>2020-10-27T08:39:45Z</time>
      </trkpt>
      <trkpt lat="43.61427" lon="6.17017">
        <ele>418.33</ele>
        <time>2020-10-27T08:39:56Z</time>
      </trkpt>
      <trkpt lat="43.61413" lon="6.17027">
        <ele>417.06</ele>
        <time>2020-10-27T08:40:09Z</time>
      </trkpt>
      <trkpt lat="43.61404" lon="6.17037">
        <ele>416.33</ele>
        <time>2020-10-27T08:40:21Z</time>
      </trkpt>
      <trkpt lat="43.61394" lon="6.17047">
        <ele>415.99</ele>
        <time>2020-10-27T08:40:33Z</time>
      </trkpt>
      <trkpt lat="43.61381" lon="6.17058">
        <ele>416.11</ele>
        <time>2020-10-27T08:40:45Z</time>
      </trkpt>
      <trkpt lat="43.61367" lon="6.17065">
        <ele>416.47</ele>
        <time>2020-10-27T08:40:57Z</time>
      </trkpt>
      <trkpt lat="43.61363" lon="6.17066">
        <ele>416.5</ele>
        <time>2020-10-27T08:41:01Z</time>
      </trkpt>
      <trkpt lat="43.61351" lon="6.17073">
        <ele>416.96</ele>
        <time>2020-10-27T08:41:13Z</time>
      </trkpt>
      <trkpt lat="43.61343" lon="6.17085">
        <ele>416.99</ele>
        <time>2020-10-27T08:41:25Z</time>
      </trkpt>
      <trkpt lat="43.61337" lon="6.17101">
        <ele>416.54</ele>
        <time>2020-10-27T08:41:38Z</time>
      </trkpt>
      <trkpt lat="43.61333" lon="6.17115">
        <ele>416.25</ele>
        <time>2020-10-27T08:41:48Z</time>
      </trkpt>
      <trkpt lat="43.61325" lon="6.1712">
        <ele>416.04</ele>
        <time>2020-10-27T08:41:59Z</time>
      </trkpt>
      <trkpt lat="43.6132" lon="6.17116">
        <ele>416.1</ele>
        <time>2020-10-27T08:42:04Z</time>
      </trkpt>
      <trkpt lat="43.61316" lon="6.17114">
        <ele>416.27</ele>
        <time>2020-10-27T08:42:08Z</time>
      </trkpt>
      <trkpt lat="43.613" lon="6.1712">
        <ele>416.49</ele>
        <time>2020-10-27T08:42:22Z</time>
      </trkpt>
      <trkpt lat="43.61287" lon="6.17126">
        <ele>416.47</ele>
        <time>2020-10-27T08:42:35Z</time>
      </trkpt>
      <trkpt lat="43.61278" lon="6.17134">
        <ele>416.01</ele>
        <time>2020-10-27T08:42:46Z</time>
      </trkpt>
      <trkpt lat="43.61269" lon="6.17137">
        <ele>416.18</ele>
        <time>2020-10-27T08:42:54Z</time>
      </trkpt>
      <trkpt lat="43.61266" lon="6.17138">
        <ele>416.4</ele>
        <time>2020-10-27T08:42:56Z</time>
      </trkpt>
      <trkpt lat="43.61258" lon="6.17145">
        <ele>417.24</ele>
        <time>2020-10-27T08:43:04Z</time>
      </trkpt>
      <trkpt lat="43.61254" lon="6.17147">
        <ele>417.55</ele>
        <time>2020-10-27T08:43:08Z</time>
      </trkpt>
      <trkpt lat="43.61241" lon="6.17156">
        <ele>417.58</ele>
        <time>2020-10-27T08:43:22Z</time>
      </trkpt>
      <trkpt lat="43.61233" lon="6.17162">
        <ele>417.77</ele>
        <time>2020-10-27T08:43:30Z</time>
      </trkpt>
      <trkpt lat="43.61223" lon="6.1717">
        <ele>417.29</ele>
        <time>2020-10-27T08:43:40Z</time>
      </trkpt>
      <trkpt lat="43.61208" lon="6.17175">
        <ele>416.76</ele>
        <time>2020-10-27T08:43:52Z</time>
      </trkpt>
      <trkpt lat="43.61194" lon="6.17183">
        <ele>416.49</ele>
        <time>2020-10-27T08:44:07Z</time>
      </trkpt>
      <trkpt lat="43.61193" lon="6.17183">
        <ele>416.46</ele>
        <time>2020-10-27T08:44:08Z</time>
      </trkpt>
      <trkpt lat="43.61178" lon="6.17187">
        <ele>416.11</ele>
        <time>2020-10-27T08:44:19Z</time>
      </trkpt>
      <trkpt lat="43.61166" lon="6.17187">
        <ele>415.4</ele>
        <time>2020-10-27T08:44:29Z</time>
      </trkpt>
      <trkpt lat="43.61152" lon="6.17184">
        <ele>415.04</ele>
        <time>2020-10-27T08:44:41Z</time>
      </trkpt>
      <trkpt lat="43.61137" lon="6.1718">
        <ele>415.06</ele>
        <time>2020-10-27T08:44:52Z</time>
      </trkpt>
      <trkpt lat="43.61122" lon="6.17176">
        <ele>415.34</ele>
        <time>2020-10-27T08:45:03Z</time>
      </trkpt>
      <trkpt lat="43.61108" lon="6.17169">
        <ele>415.82</ele>
        <time>2020-10-27T08:45:16Z</time>
      </trkpt>
      <trkpt lat="43.61093" lon="6.17165">
        <ele>415.95</ele>
        <time>2020-10-27T08:45:29Z</time>
      </trkpt>
      <trkpt lat="43.61079" lon="6.17165">
        <ele>415.92</ele>
        <time>2020-10-27T08:45:40Z</time>
      </trkpt>
      <trkpt lat="43.61066" lon="6.17164">
        <ele>415.62</ele>
        <time>2020-10-27T08:45:51Z</time>
      </trkpt>
      <trkpt lat="43.61054" lon="6.17161">
        <ele>415.05</ele>
        <time>2020-10-27T08:46:01Z</time>
      </trkpt>
      <trkpt lat="43.6104" lon="6.17157">
        <ele>414.67</ele>
        <time>2020-10-27T08:46:13Z</time>
      </trkpt>
      <trkpt lat="43.61025" lon="6.1715">
        <ele>414.47</ele>
        <time>2020-10-27T08:46:26Z</time>
      </trkpt>
      <trkpt lat="43.61011" lon="6.17142">
        <ele>414.15</ele>
        <time>2020-10-27T08:46:38Z</time>
      </trkpt>
      <trkpt lat="43.61001" lon="6.17133">
        <ele>413.7</ele>
        <time>2020-10-27T08:46:49Z</time>
      </trkpt>
      <trkpt lat="43.60987" lon="6.17123">
        <ele>413.83</ele>
        <time>2020-10-27T08:47:02Z</time>
      </trkpt>
      <trkpt lat="43.60974" lon="6.1712">
        <ele>413.6</ele>
        <time>2020-10-27T08:47:13Z</time>
      </trkpt>
      <trkpt lat="43.6096" lon="6.17117">
        <ele>413.12</ele>
        <time>2020-10-27T08:47:24Z</time>
      </trkpt>
      <trkpt lat="43.60948" lon="6.17114">
        <ele>413.06</ele>
        <time>2020-10-27T08:47:35Z</time>
      </trkpt>
      <trkpt lat="43.60932" lon="6.17123">
        <ele>413.01</ele>
        <time>2020-10-27T08:47:50Z</time>
      </trkpt>
      <trkpt lat="43.60931" lon="6.17124">
        <ele>413.04</ele>
        <time>2020-10-27T08:47:51Z</time>
      </trkpt>
      <trkpt lat="43.60922" lon="6.17128">
        <ele>413.2</ele>
        <time>2020-10-27T08:47:58Z</time>
      </trkpt>
      <trkpt lat="43.60909" lon="6.17117">
        <ele>413.47</ele>
        <time>2020-10-27T08:48:11Z</time>
      </trkpt>
      <trkpt lat="43.60908" lon="6.17116">
        <ele>413.51</ele>
        <time>2020-10-27T08:48:12Z</time>
      </trkpt>
      <trkpt lat="43.60895" lon="6.17122">
        <ele>414</ele>
        <time>2020-10-27T08:48:24Z</time>
      </trkpt>
      <trkpt lat="43.60881" lon="6.17127">
        <ele>413.82</ele>
        <time>2020-10-27T08:48:36Z</time>
      </trkpt>
      <trkpt lat="43.60876" lon="6.17131">
        <ele>413.86</ele>
        <time>2020-10-27T08:48:40Z</time>
      </trkpt>
      <trkpt lat="43.60866" lon="6.17139">
        <ele>413.78</ele>
        <time>2020-10-27T08:48:52Z</time>
      </trkpt>
      <trkpt lat="43.6085" lon="6.17148">
        <ele>413.45</ele>
        <time>2020-10-27T08:49:08Z</time>
      </trkpt>
      <trkpt lat="43.60849" lon="6.1715">
        <ele>413.44</ele>
        <time>2020-10-27T08:49:10Z</time>
      </trkpt>
      <trkpt lat="43.60834" lon="6.17156">
        <ele>413.53</ele>
        <time>2020-10-27T08:49:24Z</time>
      </trkpt>
      <trkpt lat="43.60819" lon="6.17161">
        <ele>413.63</ele>
        <time>2020-10-27T08:49:37Z</time>
      </trkpt>
      <trkpt lat="43.60817" lon="6.17162">
        <ele>413.65</ele>
        <time>2020-10-27T08:49:39Z</time>
      </trkpt>
      <trkpt lat="43.60811" lon="6.17168">
        <ele>413.7</ele>
        <time>2020-10-27T08:49:45Z</time>
      </trkpt>
      <trkpt lat="43.60798" lon="6.17178">
        <ele>414.09</ele>
        <time>2020-10-27T08:49:58Z</time>
      </trkpt>
      <trkpt lat="43.60785" lon="6.17183">
        <ele>414.16</ele>
        <time>2020-10-27T08:50:10Z</time>
      </trkpt>
      <trkpt lat="43.60779" lon="6.17199">
        <ele>413.26</ele>
        <time>2020-10-27T08:50:24Z</time>
      </trkpt>
      <trkpt lat="43.60776" lon="6.17216">
        <ele>411.77</ele>
        <time>2020-10-27T08:50:37Z</time>
      </trkpt>
      <trkpt lat="43.60776" lon="6.1723">
        <ele>410.59</ele>
        <time>2020-10-27T08:50:46Z</time>
      </trkpt>
      <trkpt lat="43.60768" lon="6.17244">
        <ele>410.55</ele>
        <time>2020-10-27T08:50:58Z</time>
      </trkpt>
      <trkpt lat="43.60763" lon="6.17256">
        <ele>410.88</ele>
        <time>2020-10-27T08:51:06Z</time>
      </trkpt>
      <trkpt lat="43.60753" lon="6.17271">
        <ele>410.85</ele>
        <time>2020-10-27T08:51:18Z</time>
      </trkpt>
      <trkpt lat="43.60746" lon="6.17285">
        <ele>410.95</ele>
        <time>2020-10-27T08:51:29Z</time>
      </trkpt>
      <trkpt lat="43.60736" lon="6.17297">
        <ele>411.5</ele>
        <time>2020-10-27T08:51:40Z</time>
      </trkpt>
      <trkpt lat="43.60732" lon="6.173">
        <ele>411.64</ele>
        <time>2020-10-27T08:51:43Z</time>
      </trkpt>
      <trkpt lat="43.60726" lon="6.17305">
        <ele>412.03</ele>
        <time>2020-10-27T08:51:49Z</time>
      </trkpt>
      <trkpt lat="43.60717" lon="6.17317">
        <ele>412.67</ele>
        <time>2020-10-27T08:52:00Z</time>
      </trkpt>
      <trkpt lat="43.60709" lon="6.17312">
        <ele>413.91</ele>
        <time>2020-10-27T08:52:08Z</time>
      </trkpt>
      <trkpt lat="43.60705" lon="6.17303">
        <ele>415.43</ele>
        <time>2020-10-27T08:52:17Z</time>
      </trkpt>
      <trkpt lat="43.60698" lon="6.17293">
        <ele>416.38</ele>
        <time>2020-10-27T08:52:29Z</time>
      </trkpt>
      <trkpt lat="43.60692" lon="6.17299">
        <ele>417.08</ele>
        <time>2020-10-27T08:52:42Z</time>
      </trkpt>
      <trkpt lat="43.60693" lon="6.17299">
        <ele>416.94</ele>
        <time>2020-10-27T08:53:02Z</time>
      </trkpt>
      <trkpt lat="43.60693" lon="6.17298">
        <ele>416.94</ele>
        <time>2020-10-27T08:53:22Z</time>
      </trkpt>
      <trkpt lat="43.60693" lon="6.17298">
        <ele>416.57</ele>
        <time>2020-10-27T08:53:40Z</time>
      </trkpt>
      <trkpt lat="43.60692" lon="6.17294">
        <ele>416.84</ele>
        <time>2020-10-27T08:53:58Z</time>
      </trkpt>
      <trkpt lat="43.60691" lon="6.17291">
        <ele>416.84</ele>
        <time>2020-10-27T08:54:21Z</time>
      </trkpt>
      <trkpt lat="43.60692" lon="6.17298">
        <ele>416.84</ele>
        <time>2020-10-27T08:54:33Z</time>
      </trkpt>
      <trkpt lat="43.60689" lon="6.17311">
        <ele>416.84</ele>
        <time>2020-10-27T08:54:42Z</time>
      </trkpt>
      <trkpt lat="43.60688" lon="6.17313">
        <ele>416.84</ele>
        <time>2020-10-27T08:54:43Z</time>
      </trkpt>
      <trkpt lat="43.60683" lon="6.17327">
        <ele>416.5</ele>
        <time>2020-10-27T08:54:55Z</time>
      </trkpt>
      <trkpt lat="43.60682" lon="6.17333">
        <ele>416.58</ele>
        <time>2020-10-27T08:54:59Z</time>
      </trkpt>
      <trkpt lat="43.60677" lon="6.17352">
        <ele>416.35</ele>
        <time>2020-10-27T08:55:11Z</time>
      </trkpt>
      <trkpt lat="43.60673" lon="6.17366">
        <ele>417.15</ele>
        <time>2020-10-27T08:55:21Z</time>
      </trkpt>
      <trkpt lat="43.60667" lon="6.17386">
        <ele>418.08</ele>
        <time>2020-10-27T08:55:35Z</time>
      </trkpt>
      <trkpt lat="43.60662" lon="6.17405">
        <ele>419.07</ele>
        <time>2020-10-27T08:55:47Z</time>
      </trkpt>
      <trkpt lat="43.60661" lon="6.17409">
        <ele>419.47</ele>
        <time>2020-10-27T08:55:50Z</time>
      </trkpt>
      <trkpt lat="43.60656" lon="6.17422">
        <ele>420.64</ele>
        <time>2020-10-27T08:56:03Z</time>
      </trkpt>
      <trkpt lat="43.60649" lon="6.17433">
        <ele>423.11</ele>
        <time>2020-10-27T08:56:17Z</time>
      </trkpt>
      <trkpt lat="43.60635" lon="6.17437">
        <ele>425.23</ele>
        <time>2020-10-27T08:56:34Z</time>
      </trkpt>
      <trkpt lat="43.60626" lon="6.17437">
        <ele>428.21</ele>
        <time>2020-10-27T08:56:51Z</time>
      </trkpt>
      <trkpt lat="43.60619" lon="6.17439">
        <ele>430.53</ele>
        <time>2020-10-27T08:57:06Z</time>
      </trkpt>
      <trkpt lat="43.6061" lon="6.17443">
        <ele>432.72</ele>
        <time>2020-10-27T08:57:21Z</time>
      </trkpt>
      <trkpt lat="43.60608" lon="6.17453">
        <ele>433.72</ele>
        <time>2020-10-27T08:57:36Z</time>
      </trkpt>
      <trkpt lat="43.60607" lon="6.17459">
        <ele>433.6</ele>
        <time>2020-10-27T08:57:42Z</time>
      </trkpt>
      <trkpt lat="43.60603" lon="6.1747">
        <ele>433.12</ele>
        <time>2020-10-27T08:57:53Z</time>
      </trkpt>
      <trkpt lat="43.60603" lon="6.17481">
        <ele>433.06</ele>
        <time>2020-10-27T08:58:04Z</time>
      </trkpt>
      <trkpt lat="43.60603" lon="6.17485">
        <ele>432.91</ele>
        <time>2020-10-27T08:58:07Z</time>
      </trkpt>
      <trkpt lat="43.60603" lon="6.17503">
        <ele>432.39</ele>
        <time>2020-10-27T08:58:20Z</time>
      </trkpt>
      <trkpt lat="43.60604" lon="6.17514">
        <ele>432.04</ele>
        <time>2020-10-27T08:58:27Z</time>
      </trkpt>
      <trkpt lat="43.60602" lon="6.17529">
        <ele>431.33</ele>
        <time>2020-10-27T08:58:39Z</time>
      </trkpt>
      <trkpt lat="43.60605" lon="6.17536">
        <ele>430.85</ele>
        <time>2020-10-27T08:58:48Z</time>
      </trkpt>
      <trkpt lat="43.60608" lon="6.17538">
        <ele>430.15</ele>
        <time>2020-10-27T08:58:53Z</time>
      </trkpt>
      <trkpt lat="43.6061" lon="6.17547">
        <ele>428.97</ele>
        <time>2020-10-27T08:59:01Z</time>
      </trkpt>
      <trkpt lat="43.6061" lon="6.1755">
        <ele>428.78</ele>
        <time>2020-10-27T08:59:03Z</time>
      </trkpt>
      <trkpt lat="43.6061" lon="6.17553">
        <ele>427.88</ele>
        <time>2020-10-27T08:59:15Z</time>
      </trkpt>
      <trkpt lat="43.60608" lon="6.17554">
        <ele>428.34</ele>
        <time>2020-10-27T08:59:36Z</time>
      </trkpt>
      <trkpt lat="43.60606" lon="6.17551">
        <ele>428.04</ele>
        <time>2020-10-27T08:59:56Z</time>
      </trkpt>
      <trkpt lat="43.60606" lon="6.17552">
        <ele>428.35</ele>
        <time>2020-10-27T09:00:16Z</time>
      </trkpt>
      <trkpt lat="43.60605" lon="6.17551">
        <ele>428.35</ele>
        <time>2020-10-27T09:00:37Z</time>
      </trkpt>
      <trkpt lat="43.60607" lon="6.17553">
        <ele>428.35</ele>
        <time>2020-10-27T09:01:03Z</time>
      </trkpt>
      <trkpt lat="43.60606" lon="6.17554">
        <ele>428.35</ele>
        <time>2020-10-27T09:01:26Z</time>
      </trkpt>
      <trkpt lat="43.60608" lon="6.17556">
        <ele>428.35</ele>
        <time>2020-10-27T09:01:48Z</time>
      </trkpt>
      <trkpt lat="43.60608" lon="6.17552">
        <ele>428.35</ele>
        <time>2020-10-27T09:02:09Z</time>
      </trkpt>
      <trkpt lat="43.6061" lon="6.17555">
        <ele>428.35</ele>
        <time>2020-10-27T09:02:32Z</time>
      </trkpt>
      <trkpt lat="43.60609" lon="6.17553">
        <ele>428.35</ele>
        <time>2020-10-27T09:02:55Z</time>
      </trkpt>
      <trkpt lat="43.60607" lon="6.17554">
        <ele>428.35</ele>
        <time>2020-10-27T09:03:17Z</time>
      </trkpt>
      <trkpt lat="43.60605" lon="6.1755">
        <ele>428.35</ele>
        <time>2020-10-27T09:03:42Z</time>
      </trkpt>
      <trkpt lat="43.60606" lon="6.17551">
        <ele>428.35</ele>
        <time>2020-10-27T09:04:07Z</time>
      </trkpt>
      <trkpt lat="43.60605" lon="6.17556">
        <ele>428.35</ele>
        <time>2020-10-27T09:04:25Z</time>
      </trkpt>
      <trkpt lat="43.60604" lon="6.17558">
        <ele>428.35</ele>
        <time>2020-10-27T09:04:43Z</time>
      </trkpt>
      <trkpt lat="43.60606" lon="6.17559">
        <ele>428.35</ele>
        <time>2020-10-27T09:05:06Z</time>
      </trkpt>
      <trkpt lat="43.60606" lon="6.17561">
        <ele>428.35</ele>
        <time>2020-10-27T09:05:33Z</time>
      </trkpt>
      <trkpt lat="43.60607" lon="6.1756">
        <ele>428.35</ele>
        <time>2020-10-27T09:05:57Z</time>
      </trkpt>
      <trkpt lat="43.60606" lon="6.17559">
        <ele>428.35</ele>
        <time>2020-10-27T09:06:24Z</time>
      </trkpt>
      <trkpt lat="43.60606" lon="6.17559">
        <ele>428.35</ele>
        <time>2020-10-27T09:06:48Z</time>
      </trkpt>
      <trkpt lat="43.60606" lon="6.17559">
        <ele>428.35</ele>
        <time>2020-10-27T09:07:22Z</time>
      </trkpt>
      <trkpt lat="43.60606" lon="6.17557">
        <ele>428.35</ele>
        <time>2020-10-27T09:07:44Z</time>
      </trkpt>
      <trkpt lat="43.60608" lon="6.1756">
        <ele>428.35</ele>
        <time>2020-10-27T09:08:06Z</time>
      </trkpt>
      <trkpt lat="43.60608" lon="6.17561">
        <ele>428.35</ele>
        <time>2020-10-27T09:08:32Z</time>
      </trkpt>
      <trkpt lat="43.60609" lon="6.17562">
        <ele>428.35</ele>
        <time>2020-10-27T09:08:56Z</time>
      </trkpt>
      <trkpt lat="43.60606" lon="6.17565">
        <ele>428.35</ele>
        <time>2020-10-27T09:09:17Z</time>
      </trkpt>
      <trkpt lat="43.60602" lon="6.1756">
        <ele>428.35</ele>
        <time>2020-10-27T09:09:41Z</time>
      </trkpt>
      <trkpt lat="43.60602" lon="6.17561">
        <ele>428.35</ele>
        <time>2020-10-27T09:10:11Z</time>
      </trkpt>
      <trkpt lat="43.60604" lon="6.1756">
        <ele>428.35</ele>
        <time>2020-10-27T09:10:34Z</time>
      </trkpt>
      <trkpt lat="43.60607" lon="6.17563">
        <ele>428.35</ele>
        <time>2020-10-27T09:10:55Z</time>
      </trkpt>
      <trkpt lat="43.60601" lon="6.17566">
        <ele>428.35</ele>
        <time>2020-10-27T09:11:02Z</time>
      </trkpt>
      <trkpt lat="43.60595" lon="6.17567">
        <ele>429.65</ele>
        <time>2020-10-27T09:11:08Z</time>
      </trkpt>
      <trkpt lat="43.60585" lon="6.17571">
        <ele>429.87</ele>
        <time>2020-10-27T09:11:20Z</time>
      </trkpt>
      <trkpt lat="43.6058" lon="6.17563">
        <ele>430.81</ele>
        <time>2020-10-27T09:11:29Z</time>
      </trkpt>
      <trkpt lat="43.60577" lon="6.17556">
        <ele>431.32</ele>
        <time>2020-10-27T09:11:36Z</time>
      </trkpt>
      <trkpt lat="43.60574" lon="6.17546">
        <ele>432.3</ele>
        <time>2020-10-27T09:11:45Z</time>
      </trkpt>
      <trkpt lat="43.60573" lon="6.17535">
        <ele>433.99</ele>
        <time>2020-10-27T09:11:56Z</time>
      </trkpt>
      <trkpt lat="43.60572" lon="6.17526">
        <ele>435.12</ele>
        <time>2020-10-27T09:12:06Z</time>
      </trkpt>
      <trkpt lat="43.6057" lon="6.17518">
        <ele>436.02</ele>
        <time>2020-10-27T09:12:14Z</time>
      </trkpt>
      <trkpt lat="43.60564" lon="6.17506">
        <ele>437.23</ele>
        <time>2020-10-27T09:12:25Z</time>
      </trkpt>
      <trkpt lat="43.60561" lon="6.17497">
        <ele>438.5</ele>
        <time>2020-10-27T09:12:34Z</time>
      </trkpt>
      <trkpt lat="43.60561" lon="6.1749">
        <ele>439.68</ele>
        <time>2020-10-27T09:12:43Z</time>
      </trkpt>
      <trkpt lat="43.60558" lon="6.17479">
        <ele>441.06</ele>
        <time>2020-10-27T09:12:52Z</time>
      </trkpt>
      <trkpt lat="43.60555" lon="6.17466">
        <ele>442.19</ele>
        <time>2020-10-27T09:13:02Z</time>
      </trkpt>
      <trkpt lat="43.60551" lon="6.17458">
        <ele>443.15</ele>
        <time>2020-10-27T09:13:09Z</time>
      </trkpt>
      <trkpt lat="43.60548" lon="6.17448">
        <ele>444.49</ele>
        <time>2020-10-27T09:13:19Z</time>
      </trkpt>
      <trkpt lat="43.60542" lon="6.17431">
        <ele>445.52</ele>
        <time>2020-10-27T09:13:34Z</time>
      </trkpt>
      <trkpt lat="43.60533" lon="6.17415">
        <ele>446.45</ele>
        <time>2020-10-27T09:13:51Z</time>
      </trkpt>
      <trkpt lat="43.60522" lon="6.17406">
        <ele>448.28</ele>
        <time>2020-10-27T09:14:08Z</time>
      </trkpt>
      <trkpt lat="43.6051" lon="6.17396">
        <ele>449.94</ele>
        <time>2020-10-27T09:14:26Z</time>
      </trkpt>
      <trkpt lat="43.60497" lon="6.17387">
        <ele>451.48</ele>
        <time>2020-10-27T09:14:44Z</time>
      </trkpt>
      <trkpt lat="43.60487" lon="6.17381">
        <ele>451.98</ele>
        <time>2020-10-27T09:15:01Z</time>
      </trkpt>
      <trkpt lat="43.60473" lon="6.17367">
        <ele>452.65</ele>
        <time>2020-10-27T09:15:16Z</time>
      </trkpt>
      <trkpt lat="43.60463" lon="6.17352">
        <ele>453.5</ele>
        <time>2020-10-27T09:15:31Z</time>
      </trkpt>
      <trkpt lat="43.60459" lon="6.17347">
        <ele>453.54</ele>
        <time>2020-10-27T09:15:36Z</time>
      </trkpt>
      <trkpt lat="43.60451" lon="6.17335">
        <ele>453.96</ele>
        <time>2020-10-27T09:15:50Z</time>
      </trkpt>
      <trkpt lat="43.60444" lon="6.17328">
        <ele>454.17</ele>
        <time>2020-10-27T09:16:01Z</time>
      </trkpt>
      <trkpt lat="43.60434" lon="6.17317">
        <ele>455.65</ele>
        <time>2020-10-27T09:16:15Z</time>
      </trkpt>
      <trkpt lat="43.60424" lon="6.17312">
        <ele>455.87</ele>
        <time>2020-10-27T09:16:25Z</time>
      </trkpt>
      <trkpt lat="43.60413" lon="6.17307">
        <ele>457.81</ele>
        <time>2020-10-27T09:16:37Z</time>
      </trkpt>
      <trkpt lat="43.60403" lon="6.17294">
        <ele>459.23</ele>
        <time>2020-10-27T09:16:54Z</time>
      </trkpt>
      <trkpt lat="43.60397" lon="6.17285">
        <ele>459.85</ele>
        <time>2020-10-27T09:17:03Z</time>
      </trkpt>
      <trkpt lat="43.60391" lon="6.17272">
        <ele>460.49</ele>
        <time>2020-10-27T09:17:16Z</time>
      </trkpt>
      <trkpt lat="43.60384" lon="6.17258">
        <ele>462.32</ele>
        <time>2020-10-27T09:17:30Z</time>
      </trkpt>
      <trkpt lat="43.60378" lon="6.17251">
        <ele>463.3</ele>
        <time>2020-10-27T09:17:40Z</time>
      </trkpt>
      <trkpt lat="43.60372" lon="6.17244">
        <ele>463.67</ele>
        <time>2020-10-27T09:17:53Z</time>
      </trkpt>
      <trkpt lat="43.60366" lon="6.17234">
        <ele>463.27</ele>
        <time>2020-10-27T09:18:08Z</time>
      </trkpt>
      <trkpt lat="43.60363" lon="6.17232">
        <ele>463.31</ele>
        <time>2020-10-27T09:18:26Z</time>
      </trkpt>
      <trkpt lat="43.60358" lon="6.17222">
        <ele>462.21</ele>
        <time>2020-10-27T09:18:39Z</time>
      </trkpt>
      <trkpt lat="43.60349" lon="6.17208">
        <ele>461.06</ele>
        <time>2020-10-27T09:18:59Z</time>
      </trkpt>
      <trkpt lat="43.6034" lon="6.17189">
        <ele>460.1</ele>
        <time>2020-10-27T09:19:17Z</time>
      </trkpt>
      <trkpt lat="43.6033" lon="6.17171">
        <ele>460.18</ele>
        <time>2020-10-27T09:19:38Z</time>
      </trkpt>
      <trkpt lat="43.60327" lon="6.17153">
        <ele>459.53</ele>
        <time>2020-10-27T09:19:51Z</time>
      </trkpt>
      <trkpt lat="43.60317" lon="6.17136">
        <ele>460.81</ele>
        <time>2020-10-27T09:20:09Z</time>
      </trkpt>
      <trkpt lat="43.60315" lon="6.17127">
        <ele>461.68</ele>
        <time>2020-10-27T09:20:21Z</time>
      </trkpt>
      <trkpt lat="43.60302" lon="6.17117">
        <ele>461.3</ele>
        <time>2020-10-27T09:20:36Z</time>
      </trkpt>
      <trkpt lat="43.60291" lon="6.17104">
        <ele>461.07</ele>
        <time>2020-10-27T09:20:52Z</time>
      </trkpt>
      <trkpt lat="43.60286" lon="6.17086">
        <ele>459.66</ele>
        <time>2020-10-27T09:21:08Z</time>
      </trkpt>
      <trkpt lat="43.60281" lon="6.17074">
        <ele>458.26</ele>
        <time>2020-10-27T09:21:25Z</time>
      </trkpt>
      <trkpt lat="43.60273" lon="6.17063">
        <ele>457.34</ele>
        <time>2020-10-27T09:21:41Z</time>
      </trkpt>
      <trkpt lat="43.60265" lon="6.17048">
        <ele>456.53</ele>
        <time>2020-10-27T09:21:59Z</time>
      </trkpt>
      <trkpt lat="43.6026" lon="6.17032">
        <ele>455.72</ele>
        <time>2020-10-27T09:22:17Z</time>
      </trkpt>
      <trkpt lat="43.60248" lon="6.17013">
        <ele>455.2</ele>
        <time>2020-10-27T09:22:34Z</time>
      </trkpt>
      <trkpt lat="43.60244" lon="6.16995">
        <ele>454.49</ele>
        <time>2020-10-27T09:22:50Z</time>
      </trkpt>
      <trkpt lat="43.60241" lon="6.16982">
        <ele>454.34</ele>
        <time>2020-10-27T09:23:05Z</time>
      </trkpt>
      <trkpt lat="43.60232" lon="6.16975">
        <ele>453.8</ele>
        <time>2020-10-27T09:23:18Z</time>
      </trkpt>
      <trkpt lat="43.6022" lon="6.16968">
        <ele>453.02</ele>
        <time>2020-10-27T09:23:35Z</time>
      </trkpt>
      <trkpt lat="43.6021" lon="6.16959">
        <ele>452.26</ele>
        <time>2020-10-27T09:23:49Z</time>
      </trkpt>
      <trkpt lat="43.60202" lon="6.16952">
        <ele>451.39</ele>
        <time>2020-10-27T09:24:04Z</time>
      </trkpt>
      <trkpt lat="43.60196" lon="6.16952">
        <ele>450.56</ele>
        <time>2020-10-27T09:24:11Z</time>
      </trkpt>
      <trkpt lat="43.60187" lon="6.16947">
        <ele>449.69</ele>
        <time>2020-10-27T09:24:23Z</time>
      </trkpt>
      <trkpt lat="43.60179" lon="6.16943">
        <ele>448.76</ele>
        <time>2020-10-27T09:24:34Z</time>
      </trkpt>
      <trkpt lat="43.60173" lon="6.16928">
        <ele>448.29</ele>
        <time>2020-10-27T09:24:48Z</time>
      </trkpt>
      <trkpt lat="43.60161" lon="6.16921">
        <ele>447.25</ele>
        <time>2020-10-27T09:25:04Z</time>
      </trkpt>
      <trkpt lat="43.60151" lon="6.16915">
        <ele>445.78</ele>
        <time>2020-10-27T09:25:20Z</time>
      </trkpt>
      <trkpt lat="43.60141" lon="6.16909">
        <ele>444.01</ele>
        <time>2020-10-27T09:25:35Z</time>
      </trkpt>
      <trkpt lat="43.60143" lon="6.16896">
        <ele>442.78</ele>
        <time>2020-10-27T09:25:48Z</time>
      </trkpt>
      <trkpt lat="43.60148" lon="6.16882">
        <ele>440.63</ele>
        <time>2020-10-27T09:26:06Z</time>
      </trkpt>
      <trkpt lat="43.60145" lon="6.16872">
        <ele>439.32</ele>
        <time>2020-10-27T09:26:21Z</time>
      </trkpt>
      <trkpt lat="43.60145" lon="6.16868">
        <ele>438.88</ele>
        <time>2020-10-27T09:26:44Z</time>
      </trkpt>
      <trkpt lat="43.60141" lon="6.16863">
        <ele>438.24</ele>
        <time>2020-10-27T09:27:02Z</time>
      </trkpt>
      <trkpt lat="43.60135" lon="6.16854">
        <ele>437.72</ele>
        <time>2020-10-27T09:27:17Z</time>
      </trkpt>
      <trkpt lat="43.60124" lon="6.16839">
        <ele>436.5</ele>
        <time>2020-10-27T09:27:35Z</time>
      </trkpt>
      <trkpt lat="43.60118" lon="6.16822">
        <ele>435.66</ele>
        <time>2020-10-27T09:27:54Z</time>
      </trkpt>
      <trkpt lat="43.60111" lon="6.1681">
        <ele>434.2</ele>
        <time>2020-10-27T09:28:11Z</time>
      </trkpt>
      <trkpt lat="43.60103" lon="6.16794">
        <ele>432.88</ele>
        <time>2020-10-27T09:28:27Z</time>
      </trkpt>
      <trkpt lat="43.60098" lon="6.16779">
        <ele>431.38</ele>
        <time>2020-10-27T09:28:44Z</time>
      </trkpt>
      <trkpt lat="43.60093" lon="6.16766">
        <ele>430.21</ele>
        <time>2020-10-27T09:28:58Z</time>
      </trkpt>
      <trkpt lat="43.60091" lon="6.16752">
        <ele>428.82</ele>
        <time>2020-10-27T09:29:15Z</time>
      </trkpt>
      <trkpt lat="43.60086" lon="6.16738">
        <ele>427.81</ele>
        <time>2020-10-27T09:29:30Z</time>
      </trkpt>
      <trkpt lat="43.60082" lon="6.16721">
        <ele>425.43</ele>
        <time>2020-10-27T09:29:49Z</time>
      </trkpt>
      <trkpt lat="43.6008" lon="6.16708">
        <ele>424.24</ele>
        <time>2020-10-27T09:30:03Z</time>
      </trkpt>
      <trkpt lat="43.60076" lon="6.16701">
        <ele>422.4</ele>
        <time>2020-10-27T09:30:17Z</time>
      </trkpt>
      <trkpt lat="43.60064" lon="6.16701">
        <ele>420.88</ele>
        <time>2020-10-27T09:30:32Z</time>
      </trkpt>
      <trkpt lat="43.60057" lon="6.16694">
        <ele>418.64</ele>
        <time>2020-10-27T09:30:46Z</time>
      </trkpt>
      <trkpt lat="43.60046" lon="6.16679">
        <ele>416.55</ele>
        <time>2020-10-27T09:31:02Z</time>
      </trkpt>
      <trkpt lat="43.60046" lon="6.16676">
        <ele>415.39</ele>
        <time>2020-10-27T09:31:13Z</time>
      </trkpt>
      <trkpt lat="43.60045" lon="6.16675">
        <ele>415.9</ele>
        <time>2020-10-27T09:31:34Z</time>
      </trkpt>
      <trkpt lat="43.60042" lon="6.16673">
        <ele>415.35</ele>
        <time>2020-10-27T09:32:04Z</time>
      </trkpt>
      <trkpt lat="43.60041" lon="6.16675">
        <ele>415.23</ele>
        <time>2020-10-27T09:32:23Z</time>
      </trkpt>
      <trkpt lat="43.60043" lon="6.16675">
        <ele>415.23</ele>
        <time>2020-10-27T09:32:46Z</time>
      </trkpt>
      <trkpt lat="43.60044" lon="6.16675">
        <ele>415.23</ele>
        <time>2020-10-27T09:33:06Z</time>
      </trkpt>
      <trkpt lat="43.60045" lon="6.16673">
        <ele>415.23</ele>
        <time>2020-10-27T09:33:27Z</time>
      </trkpt>
      <trkpt lat="43.60046" lon="6.16673">
        <ele>415.23</ele>
        <time>2020-10-27T09:33:53Z</time>
      </trkpt>
      <trkpt lat="43.60047" lon="6.16675">
        <ele>415.23</ele>
        <time>2020-10-27T09:34:09Z</time>
      </trkpt>
      <trkpt lat="43.60045" lon="6.16674">
        <ele>415.23</ele>
        <time>2020-10-27T09:34:30Z</time>
      </trkpt>
      <trkpt lat="43.60046" lon="6.16673">
        <ele>415.23</ele>
        <time>2020-10-27T09:34:55Z</time>
      </trkpt>
      <trkpt lat="43.60046" lon="6.16673">
        <ele>415.23</ele>
        <time>2020-10-27T09:35:11Z</time>
      </trkpt>
      <trkpt lat="43.60044" lon="6.16677">
        <ele>415.23</ele>
        <time>2020-10-27T09:35:32Z</time>
      </trkpt>
      <trkpt lat="43.60043" lon="6.16675">
        <ele>415.23</ele>
        <time>2020-10-27T09:35:58Z</time>
      </trkpt>
      <trkpt lat="43.60045" lon="6.16678">
        <ele>415.23</ele>
        <time>2020-10-27T09:36:21Z</time>
      </trkpt>
      <trkpt lat="43.60044" lon="6.16679">
        <ele>415.23</ele>
        <time>2020-10-27T09:36:38Z</time>
      </trkpt>
      <trkpt lat="43.60046" lon="6.1668">
        <ele>415.23</ele>
        <time>2020-10-27T09:36:53Z</time>
      </trkpt>
      <trkpt lat="43.60046" lon="6.16681">
        <ele>415.23</ele>
        <time>2020-10-27T09:37:13Z</time>
      </trkpt>
      <trkpt lat="43.60047" lon="6.16677">
        <ele>415.23</ele>
        <time>2020-10-27T09:37:38Z</time>
      </trkpt>
      <trkpt lat="43.60047" lon="6.16677">
        <ele>415.23</ele>
        <time>2020-10-27T09:38:05Z</time>
      </trkpt>
      <trkpt lat="43.60047" lon="6.16677">
        <ele>415.23</ele>
        <time>2020-10-27T09:38:26Z</time>
      </trkpt>
      <trkpt lat="43.60045" lon="6.16679">
        <ele>415.23</ele>
        <time>2020-10-27T09:38:51Z</time>
      </trkpt>
      <trkpt lat="43.60047" lon="6.1668">
        <ele>415.23</ele>
        <time>2020-10-27T09:39:21Z</time>
      </trkpt>
      <trkpt lat="43.60047" lon="6.16678">
        <ele>415.23</ele>
        <time>2020-10-27T09:39:45Z</time>
      </trkpt>
      <trkpt lat="43.60046" lon="6.16676">
        <ele>415.23</ele>
        <time>2020-10-27T09:40:12Z</time>
      </trkpt>
      <trkpt lat="43.60048" lon="6.1668">
        <ele>415.23</ele>
        <time>2020-10-27T09:40:33Z</time>
      </trkpt>
      <trkpt lat="43.60047" lon="6.16677">
        <ele>415.23</ele>
        <time>2020-10-27T09:40:58Z</time>
      </trkpt>
      <trkpt lat="43.60046" lon="6.16676">
        <ele>415.23</ele>
        <time>2020-10-27T09:41:24Z</time>
      </trkpt>
      <trkpt lat="43.60047" lon="6.16676">
        <ele>415.23</ele>
        <time>2020-10-27T09:41:47Z</time>
      </trkpt>
      <trkpt lat="43.60046" lon="6.1668">
        <ele>415.23</ele>
        <time>2020-10-27T09:42:09Z</time>
      </trkpt>
      <trkpt lat="43.60046" lon="6.16681">
        <ele>415.23</ele>
        <time>2020-10-27T09:42:37Z</time>
      </trkpt>
      <trkpt lat="43.60044" lon="6.16679">
        <ele>415.23</ele>
        <time>2020-10-27T09:43:05Z</time>
      </trkpt>
      <trkpt lat="43.60045" lon="6.16678">
        <ele>415.23</ele>
        <time>2020-10-27T09:43:25Z</time>
      </trkpt>
      <trkpt lat="43.60046" lon="6.16673">
        <ele>415.23</ele>
        <time>2020-10-27T09:43:43Z</time>
      </trkpt>
      <trkpt lat="43.60051" lon="6.16664">
        <ele>415.27</ele>
        <time>2020-10-27T09:43:54Z</time>
      </trkpt>
      <trkpt lat="43.60061" lon="6.16655">
        <ele>414.59</ele>
        <time>2020-10-27T09:44:06Z</time>
      </trkpt>
      <trkpt lat="43.60069" lon="6.16642">
        <ele>414.1</ele>
        <time>2020-10-27T09:44:18Z</time>
      </trkpt>
      <trkpt lat="43.6007" lon="6.16631">
        <ele>413.63</ele>
        <time>2020-10-27T09:44:27Z</time>
      </trkpt>
      <trkpt lat="43.60072" lon="6.16623">
        <ele>414.04</ele>
        <time>2020-10-27T09:44:33Z</time>
      </trkpt>
      <trkpt lat="43.60072" lon="6.16613">
        <ele>413.8</ele>
        <time>2020-10-27T09:44:39Z</time>
      </trkpt>
      <trkpt lat="43.60076" lon="6.166">
        <ele>413.34</ele>
        <time>2020-10-27T09:44:49Z</time>
      </trkpt>
      <trkpt lat="43.60087" lon="6.16585">
        <ele>413.47</ele>
        <time>2020-10-27T09:45:03Z</time>
      </trkpt>
      <trkpt lat="43.60097" lon="6.16573">
        <ele>414.16</ele>
        <time>2020-10-27T09:45:16Z</time>
      </trkpt>
      <trkpt lat="43.60102" lon="6.16555">
        <ele>414.34</ele>
        <time>2020-10-27T09:45:29Z</time>
      </trkpt>
      <trkpt lat="43.60103" lon="6.16535">
        <ele>413.03</ele>
        <time>2020-10-27T09:45:44Z</time>
      </trkpt>
      <trkpt lat="43.60102" lon="6.16522">
        <ele>412.72</ele>
        <time>2020-10-27T09:45:54Z</time>
      </trkpt>
      <trkpt lat="43.60099" lon="6.16504">
        <ele>412.9</ele>
        <time>2020-10-27T09:46:07Z</time>
      </trkpt>
      <trkpt lat="43.60098" lon="6.16502">
        <ele>412.99</ele>
        <time>2020-10-27T09:46:09Z</time>
      </trkpt>
      <trkpt lat="43.60096" lon="6.16487">
        <ele>413.13</ele>
        <time>2020-10-27T09:46:19Z</time>
      </trkpt>
      <trkpt lat="43.60095" lon="6.16479">
        <ele>413.11</ele>
        <time>2020-10-27T09:46:24Z</time>
      </trkpt>
      <trkpt lat="43.60091" lon="6.1646">
        <ele>412.78</ele>
        <time>2020-10-27T09:46:37Z</time>
      </trkpt>
      <trkpt lat="43.60087" lon="6.1644">
        <ele>410.6</ele>
        <time>2020-10-27T09:46:52Z</time>
      </trkpt>
      <trkpt lat="43.60087" lon="6.16434">
        <ele>410.1</ele>
        <time>2020-10-27T09:46:56Z</time>
      </trkpt>
      <trkpt lat="43.60085" lon="6.16423">
        <ele>409.7</ele>
        <time>2020-10-27T09:47:03Z</time>
      </trkpt>
      <trkpt lat="43.60084" lon="6.1642">
        <ele>409.67</ele>
        <time>2020-10-27T09:47:05Z</time>
      </trkpt>
      <trkpt lat="43.60081" lon="6.16405">
        <ele>409.26</ele>
        <time>2020-10-27T09:47:17Z</time>
      </trkpt>
      <trkpt lat="43.60077" lon="6.16387">
        <ele>408.58</ele>
        <time>2020-10-27T09:47:30Z</time>
      </trkpt>
      <trkpt lat="43.60075" lon="6.16365">
        <ele>407.35</ele>
        <time>2020-10-27T09:47:46Z</time>
      </trkpt>
      <trkpt lat="43.60073" lon="6.16343">
        <ele>407.22</ele>
        <time>2020-10-27T09:48:01Z</time>
      </trkpt>
      <trkpt lat="43.6007" lon="6.16319">
        <ele>406.96</ele>
        <time>2020-10-27T09:48:18Z</time>
      </trkpt>
      <trkpt lat="43.60065" lon="6.16293">
        <ele>407.24</ele>
        <time>2020-10-27T09:48:36Z</time>
      </trkpt>
      <trkpt lat="43.60061" lon="6.16268">
        <ele>406.93</ele>
        <time>2020-10-27T09:48:53Z</time>
      </trkpt>
      <trkpt lat="43.60056" lon="6.16249">
        <ele>406.66</ele>
        <time>2020-10-27T09:49:06Z</time>
      </trkpt>
      <trkpt lat="43.60051" lon="6.16235">
        <ele>406.61</ele>
        <time>2020-10-27T09:49:18Z</time>
      </trkpt>
      <trkpt lat="43.60046" lon="6.16224">
        <ele>406.35</ele>
        <time>2020-10-27T09:49:29Z</time>
      </trkpt>
      <trkpt lat="43.60038" lon="6.1621">
        <ele>406.21</ele>
        <time>2020-10-27T09:49:42Z</time>
      </trkpt>
      <trkpt lat="43.60024" lon="6.16198">
        <ele>405.92</ele>
        <time>2020-10-27T09:49:56Z</time>
      </trkpt>
      <trkpt lat="43.6002" lon="6.16193">
        <ele>405.79</ele>
        <time>2020-10-27T09:50:01Z</time>
      </trkpt>
      <trkpt lat="43.60015" lon="6.16185">
        <ele>405.65</ele>
        <time>2020-10-27T09:50:07Z</time>
      </trkpt>
      <trkpt lat="43.60009" lon="6.1617">
        <ele>405.36</ele>
        <time>2020-10-27T09:50:19Z</time>
      </trkpt>
      <trkpt lat="43.60007" lon="6.16168">
        <ele>405.34</ele>
        <time>2020-10-27T09:50:21Z</time>
      </trkpt>
      <trkpt lat="43.60005" lon="6.16148">
        <ele>404.48</ele>
        <time>2020-10-27T09:50:34Z</time>
      </trkpt>
      <trkpt lat="43.60006" lon="6.16134">
        <ele>402.94</ele>
        <time>2020-10-27T09:50:47Z</time>
      </trkpt>
      <trkpt lat="43.60004" lon="6.16121">
        <ele>401.61</ele>
        <time>2020-10-27T09:51:00Z</time>
      </trkpt>
      <trkpt lat="43.59998" lon="6.1611">
        <ele>400.38</ele>
        <time>2020-10-27T09:51:11Z</time>
      </trkpt>
      <trkpt lat="43.59997" lon="6.16108">
        <ele>400.13</ele>
        <time>2020-10-27T09:51:13Z</time>
      </trkpt>
      <trkpt lat="43.59987" lon="6.16095">
        <ele>398.86</ele>
        <time>2020-10-27T09:51:28Z</time>
      </trkpt>
      <trkpt lat="43.59979" lon="6.16085">
        <ele>398.42</ele>
        <time>2020-10-27T09:51:40Z</time>
      </trkpt>
      <trkpt lat="43.59977" lon="6.16082">
        <ele>398.24</ele>
        <time>2020-10-27T09:51:43Z</time>
      </trkpt>
      <trkpt lat="43.59972" lon="6.16076">
        <ele>397.89</ele>
        <time>2020-10-27T09:51:49Z</time>
      </trkpt>
      <trkpt lat="43.5996" lon="6.16067">
        <ele>397.46</ele>
        <time>2020-10-27T09:52:01Z</time>
      </trkpt>
      <trkpt lat="43.59958" lon="6.16061">
        <ele>397.41</ele>
        <time>2020-10-27T09:52:06Z</time>
      </trkpt>
      <trkpt lat="43.59952" lon="6.16046">
        <ele>397.14</ele>
        <time>2020-10-27T09:52:18Z</time>
      </trkpt>
      <trkpt lat="43.59949" lon="6.16029">
        <ele>397.17</ele>
        <time>2020-10-27T09:52:29Z</time>
      </trkpt>
      <trkpt lat="43.59944" lon="6.16007">
        <ele>396.75</ele>
        <time>2020-10-27T09:52:42Z</time>
      </trkpt>
      <trkpt lat="43.59938" lon="6.15993">
        <ele>396.72</ele>
        <time>2020-10-27T09:52:55Z</time>
      </trkpt>
      <trkpt lat="43.59935" lon="6.15989">
        <ele>396.87</ele>
        <time>2020-10-27T09:52:59Z</time>
      </trkpt>
      <trkpt lat="43.59936" lon="6.15972">
        <ele>396.63</ele>
        <time>2020-10-27T09:53:12Z</time>
      </trkpt>
      <trkpt lat="43.59938" lon="6.15956">
        <ele>397.31</ele>
        <time>2020-10-27T09:53:25Z</time>
      </trkpt>
      <trkpt lat="43.59939" lon="6.15948">
        <ele>397.56</ele>
        <time>2020-10-27T09:53:33Z</time>
      </trkpt>
      <trkpt lat="43.59943" lon="6.15932">
        <ele>398.27</ele>
        <time>2020-10-27T09:53:45Z</time>
      </trkpt>
      <trkpt lat="43.59945" lon="6.15918">
        <ele>398.75</ele>
        <time>2020-10-27T09:53:55Z</time>
      </trkpt>
      <trkpt lat="43.59948" lon="6.15905">
        <ele>399.25</ele>
        <time>2020-10-27T09:54:07Z</time>
      </trkpt>
      <trkpt lat="43.59947" lon="6.15901">
        <ele>398.83</ele>
        <time>2020-10-27T09:54:19Z</time>
      </trkpt>
      <trkpt lat="43.59949" lon="6.159">
        <ele>398.73</ele>
        <time>2020-10-27T09:54:41Z</time>
      </trkpt>
      <trkpt lat="43.59948" lon="6.15907">
        <ele>398.3</ele>
        <time>2020-10-27T09:55:00Z</time>
      </trkpt>
      <trkpt lat="43.59947" lon="6.1591">
        <ele>398.02</ele>
        <time>2020-10-27T09:55:03Z</time>
      </trkpt>
      <trkpt lat="43.59946" lon="6.1592">
        <ele>398.62</ele>
        <time>2020-10-27T09:55:15Z</time>
      </trkpt>
      <trkpt lat="43.59946" lon="6.15923">
        <ele>398.45</ele>
        <time>2020-10-27T09:55:32Z</time>
      </trkpt>
      <trkpt lat="43.59945" lon="6.15922">
        <ele>398.45</ele>
        <time>2020-10-27T09:55:49Z</time>
      </trkpt>
      <trkpt lat="43.59943" lon="6.1592">
        <ele>398.45</ele>
        <time>2020-10-27T09:56:02Z</time>
      </trkpt>
      <trkpt lat="43.59943" lon="6.1592">
        <ele>398.45</ele>
        <time>2020-10-27T09:56:21Z</time>
      </trkpt>
      <trkpt lat="43.59943" lon="6.15918">
        <ele>398.45</ele>
        <time>2020-10-27T09:56:39Z</time>
      </trkpt>
      <trkpt lat="43.59943" lon="6.15917">
        <ele>398.45</ele>
        <time>2020-10-27T09:57:12Z</time>
      </trkpt>
      <trkpt lat="43.59943" lon="6.15915">
        <ele>398.45</ele>
        <time>2020-10-27T09:57:27Z</time>
      </trkpt>
      <trkpt lat="43.59946" lon="6.1591">
        <ele>398.45</ele>
        <time>2020-10-27T09:57:32Z</time>
      </trkpt>
      <trkpt lat="43.59947" lon="6.15905">
        <ele>398.43</ele>
        <time>2020-10-27T09:57:37Z</time>
      </trkpt>
      <trkpt lat="43.59947" lon="6.15898">
        <ele>398.69</ele>
        <time>2020-10-27T09:57:43Z</time>
      </trkpt>
      <trkpt lat="43.59945" lon="6.1588">
        <ele>399.03</ele>
        <time>2020-10-27T09:57:56Z</time>
      </trkpt>
      <trkpt lat="43.59945" lon="6.15878">
        <ele>399.08</ele>
        <time>2020-10-27T09:57:58Z</time>
      </trkpt>
      <trkpt lat="43.59939" lon="6.15858">
        <ele>399.63</ele>
        <time>2020-10-27T09:58:13Z</time>
      </trkpt>
      <trkpt lat="43.59932" lon="6.15837">
        <ele>399.56</ele>
        <time>2020-10-27T09:58:27Z</time>
      </trkpt>
      <trkpt lat="43.5993" lon="6.15815">
        <ele>400.37</ele>
        <time>2020-10-27T09:58:41Z</time>
      </trkpt>
      <trkpt lat="43.59927" lon="6.15798">
        <ele>399.87</ele>
        <time>2020-10-27T09:58:54Z</time>
      </trkpt>
      <trkpt lat="43.59925" lon="6.15788">
        <ele>399.82</ele>
        <time>2020-10-27T09:59:01Z</time>
      </trkpt>
      <trkpt lat="43.59922" lon="6.15771">
        <ele>399.81</ele>
        <time>2020-10-27T09:59:13Z</time>
      </trkpt>
      <trkpt lat="43.59921" lon="6.15769">
        <ele>399.81</ele>
        <time>2020-10-27T09:59:15Z</time>
      </trkpt>
      <trkpt lat="43.59917" lon="6.15751">
        <ele>400.11</ele>
        <time>2020-10-27T09:59:28Z</time>
      </trkpt>
      <trkpt lat="43.59915" lon="6.15733">
        <ele>399.88</ele>
        <time>2020-10-27T09:59:40Z</time>
      </trkpt>
      <trkpt lat="43.59912" lon="6.15713">
        <ele>399.38</ele>
        <time>2020-10-27T09:59:52Z</time>
      </trkpt>
      <trkpt lat="43.59912" lon="6.15708">
        <ele>399.12</ele>
        <time>2020-10-27T09:59:56Z</time>
      </trkpt>
      <trkpt lat="43.5991" lon="6.15699">
        <ele>398.51</ele>
        <time>2020-10-27T10:00:02Z</time>
      </trkpt>
      <trkpt lat="43.59904" lon="6.15683">
        <ele>399.25</ele>
        <time>2020-10-27T10:00:14Z</time>
      </trkpt>
      <trkpt lat="43.59899" lon="6.15673">
        <ele>399.29</ele>
        <time>2020-10-27T10:00:25Z</time>
      </trkpt>
      <trkpt lat="43.59899" lon="6.15672">
        <ele>399.26</ele>
        <time>2020-10-27T10:00:26Z</time>
      </trkpt>
      <trkpt lat="43.59896" lon="6.15658">
        <ele>398.98</ele>
        <time>2020-10-27T10:00:36Z</time>
      </trkpt>
      <trkpt lat="43.59892" lon="6.15642">
        <ele>399.28</ele>
        <time>2020-10-27T10:00:47Z</time>
      </trkpt>
      <trkpt lat="43.59891" lon="6.15628">
        <ele>399.91</ele>
        <time>2020-10-27T10:00:58Z</time>
      </trkpt>
      <trkpt lat="43.59892" lon="6.15608">
        <ele>401.31</ele>
        <time>2020-10-27T10:01:12Z</time>
      </trkpt>
      <trkpt lat="43.59893" lon="6.15592">
        <ele>402.48</ele>
        <time>2020-10-27T10:01:25Z</time>
      </trkpt>
      <trkpt lat="43.59896" lon="6.15573">
        <ele>402.29</ele>
        <time>2020-10-27T10:01:39Z</time>
      </trkpt>
      <trkpt lat="43.59897" lon="6.15571">
        <ele>402.33</ele>
        <time>2020-10-27T10:01:41Z</time>
      </trkpt>
      <trkpt lat="43.59897" lon="6.15567">
        <ele>402.33</ele>
        <time>2020-10-27T10:01:43Z</time>
      </trkpt>
      <trkpt lat="43.59904" lon="6.15551">
        <ele>401.7</ele>
        <time>2020-10-27T10:01:56Z</time>
      </trkpt>
      <trkpt lat="43.59911" lon="6.1554">
        <ele>400.26</ele>
        <time>2020-10-27T10:02:08Z</time>
      </trkpt>
      <trkpt lat="43.59918" lon="6.1553">
        <ele>399.14</ele>
        <time>2020-10-27T10:02:18Z</time>
      </trkpt>
      <trkpt lat="43.59921" lon="6.15525">
        <ele>398.93</ele>
        <time>2020-10-27T10:02:22Z</time>
      </trkpt>
      <trkpt lat="43.59924" lon="6.15517">
        <ele>398.59</ele>
        <time>2020-10-27T10:02:28Z</time>
      </trkpt>
      <trkpt lat="43.59923" lon="6.15507">
        <ele>398.33</ele>
        <time>2020-10-27T10:02:37Z</time>
      </trkpt>
      <trkpt lat="43.59929" lon="6.15491">
        <ele>398.33</ele>
        <time>2020-10-27T10:02:49Z</time>
      </trkpt>
      <trkpt lat="43.59929" lon="6.15474">
        <ele>399.19</ele>
        <time>2020-10-27T10:03:01Z</time>
      </trkpt>
      <trkpt lat="43.59928" lon="6.15457">
        <ele>399.25</ele>
        <time>2020-10-27T10:03:15Z</time>
      </trkpt>
      <trkpt lat="43.59928" lon="6.15455">
        <ele>398.98</ele>
        <time>2020-10-27T10:03:17Z</time>
      </trkpt>
      <trkpt lat="43.59926" lon="6.15446">
        <ele>398.56</ele>
        <time>2020-10-27T10:03:23Z</time>
      </trkpt>
      <trkpt lat="43.5992" lon="6.15429">
        <ele>397.82</ele>
        <time>2020-10-27T10:03:37Z</time>
      </trkpt>
      <trkpt lat="43.59917" lon="6.15424">
        <ele>397.61</ele>
        <time>2020-10-27T10:03:41Z</time>
      </trkpt>
      <trkpt lat="43.59915" lon="6.15406">
        <ele>397.09</ele>
        <time>2020-10-27T10:03:55Z</time>
      </trkpt>
      <trkpt lat="43.5991" lon="6.1539">
        <ele>396.61</ele>
        <time>2020-10-27T10:04:08Z</time>
      </trkpt>
      <trkpt lat="43.59907" lon="6.15384">
        <ele>396.36</ele>
        <time>2020-10-27T10:04:14Z</time>
      </trkpt>
      <trkpt lat="43.59901" lon="6.15375">
        <ele>396.33</ele>
        <time>2020-10-27T10:04:20Z</time>
      </trkpt>
      <trkpt lat="43.59897" lon="6.15363">
        <ele>396.05</ele>
        <time>2020-10-27T10:04:28Z</time>
      </trkpt>
      <trkpt lat="43.59896" lon="6.15358">
        <ele>396.02</ele>
        <time>2020-10-27T10:04:31Z</time>
      </trkpt>
      <trkpt lat="43.59895" lon="6.15353">
        <ele>395.98</ele>
        <time>2020-10-27T10:04:35Z</time>
      </trkpt>
      <trkpt lat="43.59893" lon="6.15336">
        <ele>395.99</ele>
        <time>2020-10-27T10:04:46Z</time>
      </trkpt>
      <trkpt lat="43.5989" lon="6.1532">
        <ele>395.94</ele>
        <time>2020-10-27T10:04:57Z</time>
      </trkpt>
      <trkpt lat="43.59882" lon="6.15305">
        <ele>395.22</ele>
        <time>2020-10-27T10:05:10Z</time>
      </trkpt>
      <trkpt lat="43.59877" lon="6.15289">
        <ele>395.22</ele>
        <time>2020-10-27T10:05:21Z</time>
      </trkpt>
      <trkpt lat="43.59872" lon="6.15279">
        <ele>394.85</ele>
        <time>2020-10-27T10:05:30Z</time>
      </trkpt>
      <trkpt lat="43.59867" lon="6.15263">
        <ele>394.52</ele>
        <time>2020-10-27T10:05:42Z</time>
      </trkpt>
      <trkpt lat="43.5986" lon="6.15248">
        <ele>393.43</ele>
        <time>2020-10-27T10:05:55Z</time>
      </trkpt>
      <trkpt lat="43.59856" lon="6.15234">
        <ele>392.19</ele>
        <time>2020-10-27T10:06:08Z</time>
      </trkpt>
      <trkpt lat="43.59852" lon="6.15217">
        <ele>391.11</ele>
        <time>2020-10-27T10:06:22Z</time>
      </trkpt>
      <trkpt lat="43.59849" lon="6.15196">
        <ele>391.07</ele>
        <time>2020-10-27T10:06:38Z</time>
      </trkpt>
      <trkpt lat="43.59852" lon="6.15179">
        <ele>390.37</ele>
        <time>2020-10-27T10:06:49Z</time>
      </trkpt>
      <trkpt lat="43.59853" lon="6.1517">
        <ele>390.13</ele>
        <time>2020-10-27T10:06:54Z</time>
      </trkpt>
      <trkpt lat="43.59855" lon="6.15156">
        <ele>390.09</ele>
        <time>2020-10-27T10:07:04Z</time>
      </trkpt>
      <trkpt lat="43.5986" lon="6.15145">
        <ele>389.83</ele>
        <time>2020-10-27T10:07:13Z</time>
      </trkpt>
      <trkpt lat="43.59863" lon="6.15127">
        <ele>389.36</ele>
        <time>2020-10-27T10:07:25Z</time>
      </trkpt>
      <trkpt lat="43.59864" lon="6.15112">
        <ele>388.88</ele>
        <time>2020-10-27T10:07:36Z</time>
      </trkpt>
      <trkpt lat="43.59865" lon="6.15108">
        <ele>388.8</ele>
        <time>2020-10-27T10:07:40Z</time>
      </trkpt>
      <trkpt lat="43.59865" lon="6.15088">
        <ele>388.84</ele>
        <time>2020-10-27T10:07:54Z</time>
      </trkpt>
      <trkpt lat="43.59867" lon="6.1507">
        <ele>388.97</ele>
        <time>2020-10-27T10:08:05Z</time>
      </trkpt>
      <trkpt lat="43.5987" lon="6.15055">
        <ele>388.99</ele>
        <time>2020-10-27T10:08:16Z</time>
      </trkpt>
      <trkpt lat="43.5987" lon="6.15052">
        <ele>388.81</ele>
        <time>2020-10-27T10:08:18Z</time>
      </trkpt>
      <trkpt lat="43.59874" lon="6.15036">
        <ele>389.29</ele>
        <time>2020-10-27T10:08:31Z</time>
      </trkpt>
      <trkpt lat="43.59877" lon="6.15027">
        <ele>389.31</ele>
        <time>2020-10-27T10:08:38Z</time>
      </trkpt>
      <trkpt lat="43.59877" lon="6.15022">
        <ele>389.31</ele>
        <time>2020-10-27T10:08:41Z</time>
      </trkpt>
      <trkpt lat="43.59882" lon="6.15006">
        <ele>390.57</ele>
        <time>2020-10-27T10:08:54Z</time>
      </trkpt>
      <trkpt lat="43.59883" lon="6.15002">
        <ele>390.76</ele>
        <time>2020-10-27T10:08:58Z</time>
      </trkpt>
      <trkpt lat="43.59885" lon="6.14987">
        <ele>391.38</ele>
        <time>2020-10-27T10:09:11Z</time>
      </trkpt>
      <trkpt lat="43.59892" lon="6.14968">
        <ele>391.97</ele>
        <time>2020-10-27T10:09:25Z</time>
      </trkpt>
      <trkpt lat="43.59894" lon="6.14953">
        <ele>392.33</ele>
        <time>2020-10-27T10:09:36Z</time>
      </trkpt>
      <trkpt lat="43.59894" lon="6.14952">
        <ele>392.36</ele>
        <time>2020-10-27T10:09:37Z</time>
      </trkpt>
      <trkpt lat="43.59899" lon="6.14937">
        <ele>391.67</ele>
        <time>2020-10-27T10:09:49Z</time>
      </trkpt>
      <trkpt lat="43.59901" lon="6.14927">
        <ele>393.14</ele>
        <time>2020-10-27T10:10:00Z</time>
      </trkpt>
      <trkpt lat="43.59902" lon="6.14922">
        <ele>393.28</ele>
        <time>2020-10-27T10:10:04Z</time>
      </trkpt>
      <trkpt lat="43.59903" lon="6.14917">
        <ele>393.23</ele>
        <time>2020-10-27T10:10:08Z</time>
      </trkpt>
      <trkpt lat="43.59903" lon="6.14911">
        <ele>393.17</ele>
        <time>2020-10-27T10:10:11Z</time>
      </trkpt>
      <trkpt lat="43.59904" lon="6.14894">
        <ele>393.31</ele>
        <time>2020-10-27T10:10:23Z</time>
      </trkpt>
      <trkpt lat="43.59908" lon="6.14881">
        <ele>393.43</ele>
        <time>2020-10-27T10:10:32Z</time>
      </trkpt>
      <trkpt lat="43.59911" lon="6.14866">
        <ele>393.67</ele>
        <time>2020-10-27T10:10:42Z</time>
      </trkpt>
      <trkpt lat="43.59912" lon="6.14862">
        <ele>393.94</ele>
        <time>2020-10-27T10:10:46Z</time>
      </trkpt>
      <trkpt lat="43.59917" lon="6.14843">
        <ele>394.29</ele>
        <time>2020-10-27T10:10:59Z</time>
      </trkpt>
      <trkpt lat="43.59924" lon="6.14827">
        <ele>394.47</ele>
        <time>2020-10-27T10:11:11Z</time>
      </trkpt>
      <trkpt lat="43.59928" lon="6.14812">
        <ele>394.54</ele>
        <time>2020-10-27T10:11:22Z</time>
      </trkpt>
      <trkpt lat="43.59936" lon="6.14799">
        <ele>394.66</ele>
        <time>2020-10-27T10:11:34Z</time>
      </trkpt>
      <trkpt lat="43.59938" lon="6.14797">
        <ele>394.71</ele>
        <time>2020-10-27T10:11:37Z</time>
      </trkpt>
      <trkpt lat="43.59944" lon="6.14784">
        <ele>395.02</ele>
        <time>2020-10-27T10:11:48Z</time>
      </trkpt>
      <trkpt lat="43.59947" lon="6.14775">
        <ele>395.18</ele>
        <time>2020-10-27T10:11:54Z</time>
      </trkpt>
      <trkpt lat="43.59952" lon="6.1476">
        <ele>394.75</ele>
        <time>2020-10-27T10:12:05Z</time>
      </trkpt>
      <trkpt lat="43.59955" lon="6.14743">
        <ele>395.78</ele>
        <time>2020-10-27T10:12:18Z</time>
      </trkpt>
      <trkpt lat="43.5996" lon="6.14729">
        <ele>396.15</ele>
        <time>2020-10-27T10:12:29Z</time>
      </trkpt>
      <trkpt lat="43.59966" lon="6.14709">
        <ele>396.42</ele>
        <time>2020-10-27T10:12:43Z</time>
      </trkpt>
      <trkpt lat="43.59969" lon="6.14695">
        <ele>397.74</ele>
        <time>2020-10-27T10:12:54Z</time>
      </trkpt>
      <trkpt lat="43.59969" lon="6.14683">
        <ele>398.13</ele>
        <time>2020-10-27T10:13:03Z</time>
      </trkpt>
      <trkpt lat="43.59971" lon="6.14669">
        <ele>398.24</ele>
        <time>2020-10-27T10:13:14Z</time>
      </trkpt>
      <trkpt lat="43.59971" lon="6.14664">
        <ele>398.45</ele>
        <time>2020-10-27T10:13:18Z</time>
      </trkpt>
      <trkpt lat="43.5997" lon="6.14658">
        <ele>398.51</ele>
        <time>2020-10-27T10:13:22Z</time>
      </trkpt>
      <trkpt lat="43.59969" lon="6.14639">
        <ele>398.03</ele>
        <time>2020-10-27T10:13:35Z</time>
      </trkpt>
      <trkpt lat="43.59969" lon="6.14637">
        <ele>397.99</ele>
        <time>2020-10-27T10:13:38Z</time>
      </trkpt>
      <trkpt lat="43.59968" lon="6.14632">
        <ele>398.09</ele>
        <time>2020-10-27T10:13:41Z</time>
      </trkpt>
      <trkpt lat="43.59971" lon="6.14617">
        <ele>398.48</ele>
        <time>2020-10-27T10:13:53Z</time>
      </trkpt>
      <trkpt lat="43.59972" lon="6.14609">
        <ele>398.55</ele>
        <time>2020-10-27T10:14:06Z</time>
      </trkpt>
      <trkpt lat="43.59971" lon="6.14607">
        <ele>398.35</ele>
        <time>2020-10-27T10:14:29Z</time>
      </trkpt>
      <trkpt lat="43.59972" lon="6.14598">
        <ele>398.7</ele>
        <time>2020-10-27T10:14:45Z</time>
      </trkpt>
      <trkpt lat="43.5998" lon="6.1459">
        <ele>399.12</ele>
        <time>2020-10-27T10:14:56Z</time>
      </trkpt>
      <trkpt lat="43.59986" lon="6.14589">
        <ele>399.65</ele>
        <time>2020-10-27T10:15:11Z</time>
      </trkpt>
      <trkpt lat="43.59988" lon="6.14587">
        <ele>400.36</ele>
        <time>2020-10-27T10:15:29Z</time>
      </trkpt>
      <trkpt lat="43.59987" lon="6.14592">
        <ele>400.24</ele>
        <time>2020-10-27T10:15:55Z</time>
      </trkpt>
      <trkpt lat="43.59987" lon="6.14594">
        <ele>399.92</ele>
        <time>2020-10-27T10:16:21Z</time>
      </trkpt>
      <trkpt lat="43.59988" lon="6.14594">
        <ele>399.92</ele>
        <time>2020-10-27T10:16:44Z</time>
      </trkpt>
      <trkpt lat="43.59987" lon="6.14593">
        <ele>399.92</ele>
        <time>2020-10-27T10:17:08Z</time>
      </trkpt>
      <trkpt lat="43.59989" lon="6.1459">
        <ele>399.92</ele>
        <time>2020-10-27T10:17:28Z</time>
      </trkpt>
      <trkpt lat="43.59988" lon="6.14587">
        <ele>399.92</ele>
        <time>2020-10-27T10:17:55Z</time>
      </trkpt>
      <trkpt lat="43.59986" lon="6.14586">
        <ele>399.92</ele>
        <time>2020-10-27T10:18:13Z</time>
      </trkpt>
      <trkpt lat="43.59983" lon="6.14588">
        <ele>399.92</ele>
        <time>2020-10-27T10:18:33Z</time>
      </trkpt>
      <trkpt lat="43.59982" lon="6.14589">
        <ele>399.92</ele>
        <time>2020-10-27T10:18:51Z</time>
      </trkpt>
      <trkpt lat="43.59982" lon="6.14589">
        <ele>399.92</ele>
        <time>2020-10-27T10:19:08Z</time>
      </trkpt>
      <trkpt lat="43.59982" lon="6.14589">
        <ele>399.92</ele>
        <time>2020-10-27T10:19:29Z</time>
      </trkpt>
      <trkpt lat="43.59986" lon="6.1459">
        <ele>399.92</ele>
        <time>2020-10-27T10:19:43Z</time>
      </trkpt>
      <trkpt lat="43.59988" lon="6.14591">
        <ele>399.92</ele>
        <time>2020-10-27T10:20:06Z</time>
      </trkpt>
      <trkpt lat="43.59999" lon="6.14591">
        <ele>400.06</ele>
        <time>2020-10-27T10:20:21Z</time>
      </trkpt>
      <trkpt lat="43.6001" lon="6.14585">
        <ele>402.61</ele>
        <time>2020-10-27T10:20:35Z</time>
      </trkpt>
      <trkpt lat="43.60013" lon="6.14584">
        <ele>402.9</ele>
        <time>2020-10-27T10:20:38Z</time>
      </trkpt>
      <trkpt lat="43.60019" lon="6.14582">
        <ele>403.63</ele>
        <time>2020-10-27T10:20:44Z</time>
      </trkpt>
      <trkpt lat="43.60029" lon="6.14573">
        <ele>404.64</ele>
        <time>2020-10-27T10:20:55Z</time>
      </trkpt>
      <trkpt lat="43.60031" lon="6.14566">
        <ele>405.4</ele>
        <time>2020-10-27T10:21:00Z</time>
      </trkpt>
      <trkpt lat="43.6003" lon="6.14561">
        <ele>405.73</ele>
        <time>2020-10-27T10:21:04Z</time>
      </trkpt>
      <trkpt lat="43.60029" lon="6.14549">
        <ele>405.82</ele>
        <time>2020-10-27T10:21:13Z</time>
      </trkpt>
      <trkpt lat="43.60028" lon="6.1454">
        <ele>405.72</ele>
        <time>2020-10-27T10:21:19Z</time>
      </trkpt>
      <trkpt lat="43.60031" lon="6.14523">
        <ele>405.2</ele>
        <time>2020-10-27T10:21:32Z</time>
      </trkpt>
      <trkpt lat="43.6004" lon="6.14512">
        <ele>406.42</ele>
        <time>2020-10-27T10:21:46Z</time>
      </trkpt>
      <trkpt lat="43.60049" lon="6.14498">
        <ele>408.03</ele>
        <time>2020-10-27T10:22:00Z</time>
      </trkpt>
      <trkpt lat="43.6005" lon="6.14482">
        <ele>409.56</ele>
        <time>2020-10-27T10:22:13Z</time>
      </trkpt>
      <trkpt lat="43.60053" lon="6.14462">
        <ele>410.72</ele>
        <time>2020-10-27T10:22:27Z</time>
      </trkpt>
      <trkpt lat="43.60054" lon="6.14447">
        <ele>410.98</ele>
        <time>2020-10-27T10:22:39Z</time>
      </trkpt>
      <trkpt lat="43.60054" lon="6.14438">
        <ele>411.43</ele>
        <time>2020-10-27T10:22:45Z</time>
      </trkpt>
      <trkpt lat="43.60056" lon="6.14422">
        <ele>413.33</ele>
        <time>2020-10-27T10:22:57Z</time>
      </trkpt>
      <trkpt lat="43.60053" lon="6.14402">
        <ele>414.8</ele>
        <time>2020-10-27T10:23:10Z</time>
      </trkpt>
      <trkpt lat="43.60054" lon="6.14389">
        <ele>415.76</ele>
        <time>2020-10-27T10:23:20Z</time>
      </trkpt>
      <trkpt lat="43.60054" lon="6.14381">
        <ele>416.27</ele>
        <time>2020-10-27T10:23:25Z</time>
      </trkpt>
      <trkpt lat="43.60051" lon="6.14367">
        <ele>417.07</ele>
        <time>2020-10-27T10:23:36Z</time>
      </trkpt>
      <trkpt lat="43.60051" lon="6.14365">
        <ele>417.28</ele>
        <time>2020-10-27T10:23:38Z</time>
      </trkpt>
      <trkpt lat="43.60053" lon="6.14348">
        <ele>417.94</ele>
        <time>2020-10-27T10:23:49Z</time>
      </trkpt>
      <trkpt lat="43.60053" lon="6.14336">
        <ele>418.38</ele>
        <time>2020-10-27T10:23:57Z</time>
      </trkpt>
      <trkpt lat="43.60053" lon="6.1433">
        <ele>418.67</ele>
        <time>2020-10-27T10:24:02Z</time>
      </trkpt>
      <trkpt lat="43.60051" lon="6.14312">
        <ele>419.4</ele>
        <time>2020-10-27T10:24:14Z</time>
      </trkpt>
      <trkpt lat="43.60048" lon="6.14296">
        <ele>419.81</ele>
        <time>2020-10-27T10:24:24Z</time>
      </trkpt>
      <trkpt lat="43.6005" lon="6.14286">
        <ele>420.69</ele>
        <time>2020-10-27T10:24:32Z</time>
      </trkpt>
      <trkpt lat="43.60051" lon="6.14268">
        <ele>422.93</ele>
        <time>2020-10-27T10:24:45Z</time>
      </trkpt>
      <trkpt lat="43.60052" lon="6.14262">
        <ele>423.02</ele>
        <time>2020-10-27T10:24:50Z</time>
      </trkpt>
      <trkpt lat="43.60055" lon="6.14247">
        <ele>423.71</ele>
        <time>2020-10-27T10:25:01Z</time>
      </trkpt>
      <trkpt lat="43.60056" lon="6.14243">
        <ele>423.87</ele>
        <time>2020-10-27T10:25:04Z</time>
      </trkpt>
      <trkpt lat="43.60057" lon="6.14241">
        <ele>423.96</ele>
        <time>2020-10-27T10:25:06Z</time>
      </trkpt>
      <trkpt lat="43.6006" lon="6.14225">
        <ele>424.5</ele>
        <time>2020-10-27T10:25:18Z</time>
      </trkpt>
      <trkpt lat="43.60064" lon="6.14208">
        <ele>425.08</ele>
        <time>2020-10-27T10:25:29Z</time>
      </trkpt>
      <trkpt lat="43.60063" lon="6.14204">
        <ele>425.23</ele>
        <time>2020-10-27T10:25:32Z</time>
      </trkpt>
      <trkpt lat="43.60071" lon="6.14185">
        <ele>425.38</ele>
        <time>2020-10-27T10:25:46Z</time>
      </trkpt>
      <trkpt lat="43.6007" lon="6.14167">
        <ele>425.48</ele>
        <time>2020-10-27T10:25:58Z</time>
      </trkpt>
      <trkpt lat="43.60068" lon="6.14152">
        <ele>426.93</ele>
        <time>2020-10-27T10:26:09Z</time>
      </trkpt>
      <trkpt lat="43.60067" lon="6.14133">
        <ele>427.77</ele>
        <time>2020-10-27T10:26:22Z</time>
      </trkpt>
      <trkpt lat="43.60069" lon="6.14116">
        <ele>427.96</ele>
        <time>2020-10-27T10:26:33Z</time>
      </trkpt>
      <trkpt lat="43.60069" lon="6.14099">
        <ele>428.95</ele>
        <time>2020-10-27T10:26:46Z</time>
      </trkpt>
      <trkpt lat="43.60067" lon="6.14095">
        <ele>429.38</ele>
        <time>2020-10-27T10:26:50Z</time>
      </trkpt>
      <trkpt lat="43.60066" lon="6.14079">
        <ele>431.1</ele>
        <time>2020-10-27T10:27:01Z</time>
      </trkpt>
      <trkpt lat="43.60065" lon="6.14065">
        <ele>432.04</ele>
        <time>2020-10-27T10:27:11Z</time>
      </trkpt>
      <trkpt lat="43.60065" lon="6.14061">
        <ele>432.11</ele>
        <time>2020-10-27T10:27:14Z</time>
      </trkpt>
      <trkpt lat="43.60064" lon="6.14058">
        <ele>432.18</ele>
        <time>2020-10-27T10:27:17Z</time>
      </trkpt>
      <trkpt lat="43.60065" lon="6.1404">
        <ele>432.96</ele>
        <time>2020-10-27T10:27:29Z</time>
      </trkpt>
      <trkpt lat="43.60067" lon="6.14024">
        <ele>433.47</ele>
        <time>2020-10-27T10:27:41Z</time>
      </trkpt>
      <trkpt lat="43.60069" lon="6.14008">
        <ele>433.89</ele>
        <time>2020-10-27T10:27:51Z</time>
      </trkpt>
      <trkpt lat="43.60074" lon="6.13988">
        <ele>434.1</ele>
        <time>2020-10-27T10:28:04Z</time>
      </trkpt>
      <trkpt lat="43.60078" lon="6.13972">
        <ele>435.34</ele>
        <time>2020-10-27T10:28:16Z</time>
      </trkpt>
      <trkpt lat="43.60083" lon="6.13958">
        <ele>436.35</ele>
        <time>2020-10-27T10:28:28Z</time>
      </trkpt>
      <trkpt lat="43.60086" lon="6.13949">
        <ele>437.02</ele>
        <time>2020-10-27T10:28:35Z</time>
      </trkpt>
      <trkpt lat="43.60089" lon="6.13935">
        <ele>438.1</ele>
        <time>2020-10-27T10:28:47Z</time>
      </trkpt>
      <trkpt lat="43.6009" lon="6.13932">
        <ele>438.27</ele>
        <time>2020-10-27T10:28:50Z</time>
      </trkpt>
      <trkpt lat="43.60094" lon="6.13914">
        <ele>439.2</ele>
        <time>2020-10-27T10:29:02Z</time>
      </trkpt>
      <trkpt lat="43.601" lon="6.13897">
        <ele>439.9</ele>
        <time>2020-10-27T10:29:12Z</time>
      </trkpt>
      <trkpt lat="43.60106" lon="6.13884">
        <ele>440.63</ele>
        <time>2020-10-27T10:29:22Z</time>
      </trkpt>
      <trkpt lat="43.60107" lon="6.13879">
        <ele>441.03</ele>
        <time>2020-10-27T10:29:27Z</time>
      </trkpt>
      <trkpt lat="43.60108" lon="6.13871">
        <ele>441.18</ele>
        <time>2020-10-27T10:29:32Z</time>
      </trkpt>
      <trkpt lat="43.6011" lon="6.13863">
        <ele>440.96</ele>
        <time>2020-10-27T10:29:39Z</time>
      </trkpt>
      <trkpt lat="43.60117" lon="6.13844">
        <ele>439.88</ele>
        <time>2020-10-27T10:29:54Z</time>
      </trkpt>
      <trkpt lat="43.60123" lon="6.13833">
        <ele>438.57</ele>
        <time>2020-10-27T10:30:04Z</time>
      </trkpt>
      <trkpt lat="43.60132" lon="6.13817">
        <ele>437.55</ele>
        <time>2020-10-27T10:30:17Z</time>
      </trkpt>
      <trkpt lat="43.60136" lon="6.13806">
        <ele>436.37</ele>
        <time>2020-10-27T10:30:27Z</time>
      </trkpt>
      <trkpt lat="43.60131" lon="6.13795">
        <ele>435.38</ele>
        <time>2020-10-27T10:30:37Z</time>
      </trkpt>
      <trkpt lat="43.6013" lon="6.13794">
        <ele>435.47</ele>
        <time>2020-10-27T10:30:38Z</time>
      </trkpt>
      <trkpt lat="43.60128" lon="6.13783">
        <ele>435.96</ele>
        <time>2020-10-27T10:30:46Z</time>
      </trkpt>
      <trkpt lat="43.60125" lon="6.13777">
        <ele>436.63</ele>
        <time>2020-10-27T10:30:51Z</time>
      </trkpt>
      <trkpt lat="43.60125" lon="6.13756">
        <ele>437.01</ele>
        <time>2020-10-27T10:31:04Z</time>
      </trkpt>
      <trkpt lat="43.60127" lon="6.13734">
        <ele>437.29</ele>
        <time>2020-10-27T10:31:18Z</time>
      </trkpt>
      <trkpt lat="43.60129" lon="6.13722">
        <ele>436.69</ele>
        <time>2020-10-27T10:31:26Z</time>
      </trkpt>
      <trkpt lat="43.60128" lon="6.13707">
        <ele>435.51</ele>
        <time>2020-10-27T10:31:36Z</time>
      </trkpt>
      <trkpt lat="43.60128" lon="6.13706">
        <ele>435.22</ele>
        <time>2020-10-27T10:31:37Z</time>
      </trkpt>
      <trkpt lat="43.60134" lon="6.13694">
        <ele>434.26</ele>
        <time>2020-10-27T10:31:47Z</time>
      </trkpt>
      <trkpt lat="43.60139" lon="6.13679">
        <ele>432.99</ele>
        <time>2020-10-27T10:31:58Z</time>
      </trkpt>
      <trkpt lat="43.60144" lon="6.13667">
        <ele>431.57</ele>
        <time>2020-10-27T10:32:08Z</time>
      </trkpt>
      <trkpt lat="43.6015" lon="6.1366">
        <ele>430.02</ele>
        <time>2020-10-27T10:32:18Z</time>
      </trkpt>
      <trkpt lat="43.60163" lon="6.13649">
        <ele>427.74</ele>
        <time>2020-10-27T10:32:36Z</time>
      </trkpt>
      <trkpt lat="43.60162" lon="6.13641">
        <ele>425.86</ele>
        <time>2020-10-27T10:32:49Z</time>
      </trkpt>
      <trkpt lat="43.6015" lon="6.13634">
        <ele>423.58</ele>
        <time>2020-10-27T10:33:04Z</time>
      </trkpt>
      <trkpt lat="43.60136" lon="6.1363">
        <ele>421.01</ele>
        <time>2020-10-27T10:33:20Z</time>
      </trkpt>
      <trkpt lat="43.60122" lon="6.13623">
        <ele>418.8</ele>
        <time>2020-10-27T10:33:38Z</time>
      </trkpt>
      <trkpt lat="43.60121" lon="6.13624">
        <ele>418.9</ele>
        <time>2020-10-27T10:33:58Z</time>
      </trkpt>
      <trkpt lat="43.6012" lon="6.13625">
        <ele>418.49</ele>
        <time>2020-10-27T10:34:21Z</time>
      </trkpt>
      <trkpt lat="43.60117" lon="6.13626">
        <ele>418.59</ele>
        <time>2020-10-27T10:34:43Z</time>
      </trkpt>
      <trkpt lat="43.60117" lon="6.13625">
        <ele>418.59</ele>
        <time>2020-10-27T10:35:07Z</time>
      </trkpt>
      <trkpt lat="43.60118" lon="6.13625">
        <ele>418.59</ele>
        <time>2020-10-27T10:35:33Z</time>
      </trkpt>
      <trkpt lat="43.60121" lon="6.13624">
        <ele>418.59</ele>
        <time>2020-10-27T10:36:00Z</time>
      </trkpt>
      <trkpt lat="43.6012" lon="6.13625">
        <ele>418.59</ele>
        <time>2020-10-27T10:36:24Z</time>
      </trkpt>
      <trkpt lat="43.60123" lon="6.13626">
        <ele>418.59</ele>
        <time>2020-10-27T10:36:44Z</time>
      </trkpt>
      <trkpt lat="43.60112" lon="6.13622">
        <ele>418.11</ele>
        <time>2020-10-27T10:37:01Z</time>
      </trkpt>
      <trkpt lat="43.60109" lon="6.13622">
        <ele>417.9</ele>
        <time>2020-10-27T10:37:03Z</time>
      </trkpt>
      <trkpt lat="43.60091" lon="6.13617">
        <ele>417.35</ele>
        <time>2020-10-27T10:37:19Z</time>
      </trkpt>
      <trkpt lat="43.60083" lon="6.13615">
        <ele>416.72</ele>
        <time>2020-10-27T10:37:26Z</time>
      </trkpt>
      <trkpt lat="43.60072" lon="6.13611">
        <ele>417.17</ele>
        <time>2020-10-27T10:37:37Z</time>
      </trkpt>
      <trkpt lat="43.60069" lon="6.1361">
        <ele>417.17</ele>
        <time>2020-10-27T10:37:40Z</time>
      </trkpt>
      <trkpt lat="43.60056" lon="6.13611">
        <ele>416.71</ele>
        <time>2020-10-27T10:37:51Z</time>
      </trkpt>
      <trkpt lat="43.60047" lon="6.13611">
        <ele>416.38</ele>
        <time>2020-10-27T10:38:00Z</time>
      </trkpt>
      <trkpt lat="43.60035" lon="6.13611">
        <ele>415.45</ele>
        <time>2020-10-27T10:38:11Z</time>
      </trkpt>
      <trkpt lat="43.60032" lon="6.13603">
        <ele>414.42</ele>
        <time>2020-10-27T10:38:20Z</time>
      </trkpt>
      <trkpt lat="43.6004" lon="6.13597">
        <ele>413</ele>
        <time>2020-10-27T10:38:28Z</time>
      </trkpt>
      <trkpt lat="43.60048" lon="6.13594">
        <ele>413.4</ele>
        <time>2020-10-27T10:38:35Z</time>
      </trkpt>
      <trkpt lat="43.60055" lon="6.13595">
        <ele>413.81</ele>
        <time>2020-10-27T10:38:41Z</time>
      </trkpt>
      <trkpt lat="43.60067" lon="6.13591">
        <ele>413.4</ele>
        <time>2020-10-27T10:38:53Z</time>
      </trkpt>
      <trkpt lat="43.60082" lon="6.13594">
        <ele>413.48</ele>
        <time>2020-10-27T10:39:08Z</time>
      </trkpt>
      <trkpt lat="43.60095" lon="6.13598">
        <ele>413.23</ele>
        <time>2020-10-27T10:39:19Z</time>
      </trkpt>
      <trkpt lat="43.60099" lon="6.13599">
        <ele>413.13</ele>
        <time>2020-10-27T10:39:23Z</time>
      </trkpt>
      <trkpt lat="43.60114" lon="6.13599">
        <ele>412.21</ele>
        <time>2020-10-27T10:39:36Z</time>
      </trkpt>
      <trkpt lat="43.60128" lon="6.13594">
        <ele>412.45</ele>
        <time>2020-10-27T10:39:47Z</time>
      </trkpt>
      <trkpt lat="43.60139" lon="6.13585">
        <ele>412.85</ele>
        <time>2020-10-27T10:39:59Z</time>
      </trkpt>
      <trkpt lat="43.60144" lon="6.1358">
        <ele>413.18</ele>
        <time>2020-10-27T10:40:04Z</time>
      </trkpt>
      <trkpt lat="43.60152" lon="6.13565">
        <ele>414.28</ele>
        <time>2020-10-27T10:40:16Z</time>
      </trkpt>
      <trkpt lat="43.60154" lon="6.13559">
        <ele>414.75</ele>
        <time>2020-10-27T10:40:22Z</time>
      </trkpt>
      <trkpt lat="43.60155" lon="6.13555">
        <ele>414.76</ele>
        <time>2020-10-27T10:40:25Z</time>
      </trkpt>
      <trkpt lat="43.60158" lon="6.13547">
        <ele>414.77</ele>
        <time>2020-10-27T10:40:31Z</time>
      </trkpt>
      <trkpt lat="43.60166" lon="6.13534">
        <ele>414.87</ele>
        <time>2020-10-27T10:40:41Z</time>
      </trkpt>
      <trkpt lat="43.60174" lon="6.13521">
        <ele>414.89</ele>
        <time>2020-10-27T10:40:53Z</time>
      </trkpt>
      <trkpt lat="43.60183" lon="6.13507">
        <ele>415.08</ele>
        <time>2020-10-27T10:41:05Z</time>
      </trkpt>
      <trkpt lat="43.60177" lon="6.135">
        <ele>415.71</ele>
        <time>2020-10-27T10:41:16Z</time>
      </trkpt>
      <trkpt lat="43.60174" lon="6.13503">
        <ele>416.26</ele>
        <time>2020-10-27T10:41:19Z</time>
      </trkpt>
      <trkpt lat="43.60172" lon="6.13504">
        <ele>416.5</ele>
        <time>2020-10-27T10:41:22Z</time>
      </trkpt>
      <trkpt lat="43.6017" lon="6.13506">
        <ele>416.53</ele>
        <time>2020-10-27T10:41:24Z</time>
      </trkpt>
      <trkpt lat="43.60161" lon="6.13516">
        <ele>416.55</ele>
        <time>2020-10-27T10:41:36Z</time>
      </trkpt>
      <trkpt lat="43.60153" lon="6.13525">
        <ele>417.02</ele>
        <time>2020-10-27T10:41:46Z</time>
      </trkpt>
      <trkpt lat="43.60144" lon="6.13532">
        <ele>417.77</ele>
        <time>2020-10-27T10:41:56Z</time>
      </trkpt>
      <trkpt lat="43.6013" lon="6.13534">
        <ele>418.36</ele>
        <time>2020-10-27T10:42:08Z</time>
      </trkpt>
      <trkpt lat="43.60117" lon="6.13526">
        <ele>419.71</ele>
        <time>2020-10-27T10:42:21Z</time>
      </trkpt>
      <trkpt lat="43.60104" lon="6.13518">
        <ele>420.11</ele>
        <time>2020-10-27T10:42:35Z</time>
      </trkpt>
      <trkpt lat="43.60094" lon="6.1351">
        <ele>421.01</ele>
        <time>2020-10-27T10:42:45Z</time>
      </trkpt>
      <trkpt lat="43.60085" lon="6.13498">
        <ele>421.94</ele>
        <time>2020-10-27T10:42:57Z</time>
      </trkpt>
      <trkpt lat="43.60075" lon="6.13484">
        <ele>422.48</ele>
        <time>2020-10-27T10:43:09Z</time>
      </trkpt>
      <trkpt lat="43.60073" lon="6.13468">
        <ele>423.57</ele>
        <time>2020-10-27T10:43:20Z</time>
      </trkpt>
      <trkpt lat="43.60078" lon="6.13452">
        <ele>424.11</ele>
        <time>2020-10-27T10:43:31Z</time>
      </trkpt>
      <trkpt lat="43.60084" lon="6.13437">
        <ele>424.26</ele>
        <time>2020-10-27T10:43:42Z</time>
      </trkpt>
      <trkpt lat="43.60089" lon="6.13428">
        <ele>424.54</ele>
        <time>2020-10-27T10:43:50Z</time>
      </trkpt>
      <trkpt lat="43.60097" lon="6.13411">
        <ele>424.99</ele>
        <time>2020-10-27T10:44:03Z</time>
      </trkpt>
      <trkpt lat="43.60107" lon="6.13397">
        <ele>426.34</ele>
        <time>2020-10-27T10:44:15Z</time>
      </trkpt>
      <trkpt lat="43.60113" lon="6.13386">
        <ele>426.84</ele>
        <time>2020-10-27T10:44:25Z</time>
      </trkpt>
      <trkpt lat="43.60114" lon="6.13385">
        <ele>427.08</ele>
        <time>2020-10-27T10:44:27Z</time>
      </trkpt>
      <trkpt lat="43.60123" lon="6.13377">
        <ele>427.72</ele>
        <time>2020-10-27T10:44:37Z</time>
      </trkpt>
      <trkpt lat="43.60128" lon="6.13379">
        <ele>428.06</ele>
        <time>2020-10-27T10:44:42Z</time>
      </trkpt>
      <trkpt lat="43.60131" lon="6.1339">
        <ele>429.04</ele>
        <time>2020-10-27T10:44:51Z</time>
      </trkpt>
      <trkpt lat="43.60131" lon="6.13392">
        <ele>429.3</ele>
        <time>2020-10-27T10:44:53Z</time>
      </trkpt>
      <trkpt lat="43.60135" lon="6.13407">
        <ele>430.32</ele>
        <time>2020-10-27T10:45:04Z</time>
      </trkpt>
      <trkpt lat="43.60137" lon="6.13412">
        <ele>431</ele>
        <time>2020-10-27T10:45:08Z</time>
      </trkpt>
      <trkpt lat="43.60143" lon="6.1342">
        <ele>431.31</ele>
        <time>2020-10-27T10:45:16Z</time>
      </trkpt>
      <trkpt lat="43.60153" lon="6.13428">
        <ele>431.77</ele>
        <time>2020-10-27T10:45:27Z</time>
      </trkpt>
      <trkpt lat="43.60165" lon="6.13427">
        <ele>432.09</ele>
        <time>2020-10-27T10:45:39Z</time>
      </trkpt>
      <trkpt lat="43.6017" lon="6.13423">
        <ele>432.44</ele>
        <time>2020-10-27T10:45:45Z</time>
      </trkpt>
      <trkpt lat="43.60173" lon="6.13418">
        <ele>432.66</ele>
        <time>2020-10-27T10:45:49Z</time>
      </trkpt>
      <trkpt lat="43.60172" lon="6.13411">
        <ele>433.3</ele>
        <time>2020-10-27T10:45:55Z</time>
      </trkpt>
      <trkpt lat="43.60169" lon="6.13405">
        <ele>434.09</ele>
        <time>2020-10-27T10:46:01Z</time>
      </trkpt>
      <trkpt lat="43.60167" lon="6.13402">
        <ele>434.3</ele>
        <time>2020-10-27T10:46:04Z</time>
      </trkpt>
      <trkpt lat="43.60162" lon="6.13386">
        <ele>435.23</ele>
        <time>2020-10-27T10:46:16Z</time>
      </trkpt>
      <trkpt lat="43.60163" lon="6.13372">
        <ele>435.66</ele>
        <time>2020-10-27T10:46:26Z</time>
      </trkpt>
      <trkpt lat="43.60169" lon="6.13354">
        <ele>437.35</ele>
        <time>2020-10-27T10:46:40Z</time>
      </trkpt>
      <trkpt lat="43.60175" lon="6.1334">
        <ele>437.86</ele>
        <time>2020-10-27T10:46:51Z</time>
      </trkpt>
      <trkpt lat="43.60178" lon="6.13333">
        <ele>438.37</ele>
        <time>2020-10-27T10:46:57Z</time>
      </trkpt>
      <trkpt lat="43.60182" lon="6.13332">
        <ele>439.08</ele>
        <time>2020-10-27T10:47:02Z</time>
      </trkpt>
      <trkpt lat="43.60191" lon="6.13342">
        <ele>440.1</ele>
        <time>2020-10-27T10:47:14Z</time>
      </trkpt>
      <trkpt lat="43.60195" lon="6.13349">
        <ele>440.23</ele>
        <time>2020-10-27T10:47:20Z</time>
      </trkpt>
      <trkpt lat="43.60204" lon="6.13355">
        <ele>440.69</ele>
        <time>2020-10-27T10:47:30Z</time>
      </trkpt>
      <trkpt lat="43.60216" lon="6.13348">
        <ele>441.4</ele>
        <time>2020-10-27T10:47:43Z</time>
      </trkpt>
      <trkpt lat="43.60227" lon="6.13338">
        <ele>441.83</ele>
        <time>2020-10-27T10:47:54Z</time>
      </trkpt>
      <trkpt lat="43.60236" lon="6.13331">
        <ele>441.83</ele>
        <time>2020-10-27T10:48:05Z</time>
      </trkpt>
      <trkpt lat="43.60247" lon="6.13321">
        <ele>443.09</ele>
        <time>2020-10-27T10:48:19Z</time>
      </trkpt>
      <trkpt lat="43.60258" lon="6.13308">
        <ele>443.72</ele>
        <time>2020-10-27T10:48:32Z</time>
      </trkpt>
      <trkpt lat="43.60264" lon="6.13299">
        <ele>443.67</ele>
        <time>2020-10-27T10:48:42Z</time>
      </trkpt>
      <trkpt lat="43.60265" lon="6.13299">
        <ele>443.73</ele>
        <time>2020-10-27T10:48:58Z</time>
      </trkpt>
      <trkpt lat="43.60265" lon="6.13299">
        <ele>443.25</ele>
        <time>2020-10-27T10:49:18Z</time>
      </trkpt>
      <trkpt lat="43.60265" lon="6.13301">
        <ele>443.9</ele>
        <time>2020-10-27T10:49:40Z</time>
      </trkpt>
      <trkpt lat="43.60266" lon="6.13301">
        <ele>443.88</ele>
        <time>2020-10-27T10:50:02Z</time>
      </trkpt>
      <trkpt lat="43.60267" lon="6.133">
        <ele>443.88</ele>
        <time>2020-10-27T10:50:21Z</time>
      </trkpt>
      <trkpt lat="43.60267" lon="6.13302">
        <ele>443.88</ele>
        <time>2020-10-27T10:50:43Z</time>
      </trkpt>
      <trkpt lat="43.60268" lon="6.13303">
        <ele>443.88</ele>
        <time>2020-10-27T10:51:07Z</time>
      </trkpt>
      <trkpt lat="43.60268" lon="6.13301">
        <ele>443.88</ele>
        <time>2020-10-27T10:51:27Z</time>
      </trkpt>
      <trkpt lat="43.60269" lon="6.13297">
        <ele>443.88</ele>
        <time>2020-10-27T10:51:41Z</time>
      </trkpt>
      <trkpt lat="43.60272" lon="6.13294">
        <ele>444</ele>
        <time>2020-10-27T10:51:46Z</time>
      </trkpt>
      <trkpt lat="43.60279" lon="6.13288">
        <ele>444.36</ele>
        <time>2020-10-27T10:51:53Z</time>
      </trkpt>
      <trkpt lat="43.6029" lon="6.13278">
        <ele>444.48</ele>
        <time>2020-10-27T10:52:05Z</time>
      </trkpt>
      <trkpt lat="43.60302" lon="6.13267">
        <ele>444.86</ele>
        <time>2020-10-27T10:52:17Z</time>
      </trkpt>
      <trkpt lat="43.6031" lon="6.13259">
        <ele>445.07</ele>
        <time>2020-10-27T10:52:27Z</time>
      </trkpt>
      <trkpt lat="43.60322" lon="6.13246">
        <ele>445.76</ele>
        <time>2020-10-27T10:52:39Z</time>
      </trkpt>
      <trkpt lat="43.60334" lon="6.13234">
        <ele>446.69</ele>
        <time>2020-10-27T10:52:53Z</time>
      </trkpt>
      <trkpt lat="43.60342" lon="6.13225">
        <ele>447.9</ele>
        <time>2020-10-27T10:53:04Z</time>
      </trkpt>
      <trkpt lat="43.60343" lon="6.13224">
        <ele>448.01</ele>
        <time>2020-10-27T10:53:05Z</time>
      </trkpt>
      <trkpt lat="43.60344" lon="6.13221">
        <ele>448.2</ele>
        <time>2020-10-27T10:53:07Z</time>
      </trkpt>
      <trkpt lat="43.60356" lon="6.13207">
        <ele>449.73</ele>
        <time>2020-10-27T10:53:21Z</time>
      </trkpt>
      <trkpt lat="43.60367" lon="6.13196">
        <ele>450.74</ele>
        <time>2020-10-27T10:53:33Z</time>
      </trkpt>
      <trkpt lat="43.60376" lon="6.13187">
        <ele>451.88</ele>
        <time>2020-10-27T10:53:43Z</time>
      </trkpt>
      <trkpt lat="43.60389" lon="6.1318">
        <ele>452.38</ele>
        <time>2020-10-27T10:53:54Z</time>
      </trkpt>
      <trkpt lat="43.60404" lon="6.13177">
        <ele>453.2</ele>
        <time>2020-10-27T10:54:07Z</time>
      </trkpt>
      <trkpt lat="43.60411" lon="6.13177">
        <ele>453.21</ele>
        <time>2020-10-27T10:54:13Z</time>
      </trkpt>
      <trkpt lat="43.60414" lon="6.13177">
        <ele>453.39</ele>
        <time>2020-10-27T10:54:16Z</time>
      </trkpt>
      <trkpt lat="43.60416" lon="6.13177">
        <ele>453.56</ele>
        <time>2020-10-27T10:54:18Z</time>
      </trkpt>
      <trkpt lat="43.60429" lon="6.13175">
        <ele>454.18</ele>
        <time>2020-10-27T10:54:29Z</time>
      </trkpt>
      <trkpt lat="43.60441" lon="6.13172">
        <ele>454.82</ele>
        <time>2020-10-27T10:54:40Z</time>
      </trkpt>
      <trkpt lat="43.60449" lon="6.13168">
        <ele>455.1</ele>
        <time>2020-10-27T10:54:49Z</time>
      </trkpt>
      <trkpt lat="43.60463" lon="6.13166">
        <ele>456.23</ele>
        <time>2020-10-27T10:55:01Z</time>
      </trkpt>
      <trkpt lat="43.60473" lon="6.13165">
        <ele>457.04</ele>
        <time>2020-10-27T10:55:10Z</time>
      </trkpt>
      <trkpt lat="43.60479" lon="6.13164">
        <ele>457.61</ele>
        <time>2020-10-27T10:55:16Z</time>
      </trkpt>
      <trkpt lat="43.60481" lon="6.13164">
        <ele>457.77</ele>
        <time>2020-10-27T10:55:18Z</time>
      </trkpt>
      <trkpt lat="43.60486" lon="6.13163">
        <ele>458.5</ele>
        <time>2020-10-27T10:55:22Z</time>
      </trkpt>
      <trkpt lat="43.60489" lon="6.13162">
        <ele>458.7</ele>
        <time>2020-10-27T10:55:25Z</time>
      </trkpt>
      <trkpt lat="43.60501" lon="6.13161">
        <ele>459.94</ele>
        <time>2020-10-27T10:55:38Z</time>
      </trkpt>
      <trkpt lat="43.6051" lon="6.13161">
        <ele>460.64</ele>
        <time>2020-10-27T10:55:47Z</time>
      </trkpt>
      <trkpt lat="43.60513" lon="6.13161">
        <ele>460.89</ele>
        <time>2020-10-27T10:55:50Z</time>
      </trkpt>
      <trkpt lat="43.60526" lon="6.1316">
        <ele>462.19</ele>
        <time>2020-10-27T10:56:02Z</time>
      </trkpt>
      <trkpt lat="43.60535" lon="6.13163">
        <ele>462.93</ele>
        <time>2020-10-27T10:56:13Z</time>
      </trkpt>
      <trkpt lat="43.60547" lon="6.1317">
        <ele>464.62</ele>
        <time>2020-10-27T10:56:26Z</time>
      </trkpt>
      <trkpt lat="43.60558" lon="6.13175">
        <ele>465.18</ele>
        <time>2020-10-27T10:56:37Z</time>
      </trkpt>
      <trkpt lat="43.60566" lon="6.13176">
        <ele>466.21</ele>
        <time>2020-10-27T10:56:49Z</time>
      </trkpt>
      <trkpt lat="43.60567" lon="6.13174">
        <ele>466.16</ele>
        <time>2020-10-27T10:57:05Z</time>
      </trkpt>
      <trkpt lat="43.6057" lon="6.13176">
        <ele>466.04</ele>
        <time>2020-10-27T10:57:20Z</time>
      </trkpt>
      <trkpt lat="43.60567" lon="6.13177">
        <ele>466.72</ele>
        <time>2020-10-27T10:57:40Z</time>
      </trkpt>
      <trkpt lat="43.60562" lon="6.13178">
        <ele>466.25</ele>
        <time>2020-10-27T10:58:07Z</time>
      </trkpt>
      <trkpt lat="43.60556" lon="6.13176">
        <ele>465.96</ele>
        <time>2020-10-27T10:58:22Z</time>
      </trkpt>
      <trkpt lat="43.60556" lon="6.13178">
        <ele>465.78</ele>
        <time>2020-10-27T10:58:50Z</time>
      </trkpt>
      <trkpt lat="43.60563" lon="6.13177">
        <ele>466.08</ele>
        <time>2020-10-27T10:59:09Z</time>
      </trkpt>
      <trkpt lat="43.60569" lon="6.1318">
        <ele>466.43</ele>
        <time>2020-10-27T10:59:22Z</time>
      </trkpt>
      <trkpt lat="43.6057" lon="6.13181">
        <ele>466.51</ele>
        <time>2020-10-27T10:59:48Z</time>
      </trkpt>
      <trkpt lat="43.60566" lon="6.13185">
        <ele>466.48</ele>
        <time>2020-10-27T11:00:14Z</time>
      </trkpt>
      <trkpt lat="43.60567" lon="6.13181">
        <ele>466.69</ele>
        <time>2020-10-27T11:00:35Z</time>
      </trkpt>
      <trkpt lat="43.60568" lon="6.13179">
        <ele>466</ele>
        <time>2020-10-27T11:00:55Z</time>
      </trkpt>
      <trkpt lat="43.60568" lon="6.13179">
        <ele>466.37</ele>
        <time>2020-10-27T11:01:18Z</time>
      </trkpt>
      <trkpt lat="43.60569" lon="6.13179">
        <ele>466.03</ele>
        <time>2020-10-27T11:01:40Z</time>
      </trkpt>
      <trkpt lat="43.60568" lon="6.13177">
        <ele>466.08</ele>
        <time>2020-10-27T11:02:03Z</time>
      </trkpt>
      <trkpt lat="43.60568" lon="6.13176">
        <ele>466.08</ele>
        <time>2020-10-27T11:02:23Z</time>
      </trkpt>
      <trkpt lat="43.60568" lon="6.13179">
        <ele>466.08</ele>
        <time>2020-10-27T11:02:52Z</time>
      </trkpt>
      <trkpt lat="43.6057" lon="6.13178">
        <ele>466.08</ele>
        <time>2020-10-27T11:03:15Z</time>
      </trkpt>
      <trkpt lat="43.6057" lon="6.13178">
        <ele>466.08</ele>
        <time>2020-10-27T11:03:43Z</time>
      </trkpt>
      <trkpt lat="43.60569" lon="6.13179">
        <ele>466.08</ele>
        <time>2020-10-27T11:04:11Z</time>
      </trkpt>
      <trkpt lat="43.60569" lon="6.1318">
        <ele>466.08</ele>
        <time>2020-10-27T11:04:38Z</time>
      </trkpt>
      <trkpt lat="43.60569" lon="6.13179">
        <ele>466.08</ele>
        <time>2020-10-27T11:05:04Z</time>
      </trkpt>
      <trkpt lat="43.6057" lon="6.13176">
        <ele>466.08</ele>
        <time>2020-10-27T11:05:30Z</time>
      </trkpt>
      <trkpt lat="43.60569" lon="6.13177">
        <ele>466.08</ele>
        <time>2020-10-27T11:05:55Z</time>
      </trkpt>
      <trkpt lat="43.60569" lon="6.13177">
        <ele>466.08</ele>
        <time>2020-10-27T11:06:23Z</time>
      </trkpt>
      <trkpt lat="43.6057" lon="6.13176">
        <ele>466.08</ele>
        <time>2020-10-27T11:06:54Z</time>
      </trkpt>
      <trkpt lat="43.6057" lon="6.13177">
        <ele>466.08</ele>
        <time>2020-10-27T11:07:22Z</time>
      </trkpt>
      <trkpt lat="43.6057" lon="6.13177">
        <ele>466.08</ele>
        <time>2020-10-27T11:07:45Z</time>
      </trkpt>
      <trkpt lat="43.6057" lon="6.13174">
        <ele>466.08</ele>
        <time>2020-10-27T11:08:13Z</time>
      </trkpt>
      <trkpt lat="43.60572" lon="6.13175">
        <ele>466.08</ele>
        <time>2020-10-27T11:08:35Z</time>
      </trkpt>
      <trkpt lat="43.60572" lon="6.13171">
        <ele>466.08</ele>
        <time>2020-10-27T11:08:59Z</time>
      </trkpt>
      <trkpt lat="43.60568" lon="6.13174">
        <ele>466.08</ele>
        <time>2020-10-27T11:09:24Z</time>
      </trkpt>
      <trkpt lat="43.60567" lon="6.13173">
        <ele>466.08</ele>
        <time>2020-10-27T11:09:49Z</time>
      </trkpt>
      <trkpt lat="43.60567" lon="6.13177">
        <ele>466.08</ele>
        <time>2020-10-27T11:10:13Z</time>
      </trkpt>
      <trkpt lat="43.60569" lon="6.13175">
        <ele>466.08</ele>
        <time>2020-10-27T11:10:37Z</time>
      </trkpt>
      <trkpt lat="43.60566" lon="6.13173">
        <ele>466.08</ele>
        <time>2020-10-27T11:11:03Z</time>
      </trkpt>
      <trkpt lat="43.60568" lon="6.13173">
        <ele>466.08</ele>
        <time>2020-10-27T11:11:28Z</time>
      </trkpt>
      <trkpt lat="43.6057" lon="6.13177">
        <ele>466.08</ele>
        <time>2020-10-27T11:11:55Z</time>
      </trkpt>
      <trkpt lat="43.60567" lon="6.13174">
        <ele>466.08</ele>
        <time>2020-10-27T11:12:19Z</time>
      </trkpt>
      <trkpt lat="43.60576" lon="6.13175">
        <ele>466.08</ele>
        <time>2020-10-27T11:12:44Z</time>
      </trkpt>
      <trkpt lat="43.60569" lon="6.13179">
        <ele>466.08</ele>
        <time>2020-10-27T11:13:05Z</time>
      </trkpt>
      <trkpt lat="43.60574" lon="6.13179">
        <ele>466.08</ele>
        <time>2020-10-27T11:13:37Z</time>
      </trkpt>
      <trkpt lat="43.60573" lon="6.13172">
        <ele>467.56</ele>
        <time>2020-10-27T11:13:49Z</time>
      </trkpt>
      <trkpt lat="43.60574" lon="6.13172">
        <ele>466.95</ele>
        <time>2020-10-27T11:14:10Z</time>
      </trkpt>
      <trkpt lat="43.60571" lon="6.13176">
        <ele>467.89</ele>
        <time>2020-10-27T11:14:41Z</time>
      </trkpt>
      <trkpt lat="43.6057" lon="6.13173">
        <ele>467.71</ele>
        <time>2020-10-27T11:15:07Z</time>
      </trkpt>
      <trkpt lat="43.6057" lon="6.13176">
        <ele>468.03</ele>
        <time>2020-10-27T11:15:41Z</time>
      </trkpt>
      <trkpt lat="43.60573" lon="6.13175">
        <ele>468.23</ele>
        <time>2020-10-27T11:15:58Z</time>
      </trkpt>
      <trkpt lat="43.60572" lon="6.13172">
        <ele>468.07</ele>
        <time>2020-10-27T11:16:22Z</time>
      </trkpt>
      <trkpt lat="43.60572" lon="6.13172">
        <ele>468.16</ele>
        <time>2020-10-27T11:16:43Z</time>
      </trkpt>
      <trkpt lat="43.6057" lon="6.13174">
        <ele>468.26</ele>
        <time>2020-10-27T11:17:09Z</time>
      </trkpt>
      <trkpt lat="43.6057" lon="6.13174">
        <ele>468.15</ele>
        <time>2020-10-27T11:17:32Z</time>
      </trkpt>
      <trkpt lat="43.60567" lon="6.13177">
        <ele>468.24</ele>
        <time>2020-10-27T11:17:49Z</time>
      </trkpt>
      <trkpt lat="43.60567" lon="6.13177">
        <ele>468.13</ele>
        <time>2020-10-27T11:18:14Z</time>
      </trkpt>
      <trkpt lat="43.60563" lon="6.13177">
        <ele>468.13</ele>
        <time>2020-10-27T11:18:30Z</time>
      </trkpt>
      <trkpt lat="43.60565" lon="6.13176">
        <ele>468.13</ele>
        <time>2020-10-27T11:18:49Z</time>
      </trkpt>
      <trkpt lat="43.6057" lon="6.13179">
        <ele>468.13</ele>
        <time>2020-10-27T11:19:07Z</time>
      </trkpt>
      <trkpt lat="43.60578" lon="6.13178">
        <ele>468.13</ele>
        <time>2020-10-27T11:19:23Z</time>
      </trkpt>
      <trkpt lat="43.6058" lon="6.13177">
        <ele>468.13</ele>
        <time>2020-10-27T11:19:46Z</time>
      </trkpt>
      <trkpt lat="43.60583" lon="6.13177">
        <ele>468.13</ele>
        <time>2020-10-27T11:20:11Z</time>
      </trkpt>
      <trkpt lat="43.60584" lon="6.13176">
        <ele>468.13</ele>
        <time>2020-10-27T11:20:33Z</time>
      </trkpt>
      <trkpt lat="43.60582" lon="6.13176">
        <ele>468.13</ele>
        <time>2020-10-27T11:20:59Z</time>
      </trkpt>
      <trkpt lat="43.60583" lon="6.13176">
        <ele>468.13</ele>
        <time>2020-10-27T11:21:19Z</time>
      </trkpt>
      <trkpt lat="43.60583" lon="6.13177">
        <ele>468.13</ele>
        <time>2020-10-27T11:21:43Z</time>
      </trkpt>
      <trkpt lat="43.60582" lon="6.1318">
        <ele>468.13</ele>
        <time>2020-10-27T11:22:07Z</time>
      </trkpt>
      <trkpt lat="43.6057" lon="6.1318">
        <ele>468.87</ele>
        <time>2020-10-27T11:22:22Z</time>
      </trkpt>
      <trkpt lat="43.6057" lon="6.13169">
        <ele>470.14</ele>
        <time>2020-10-27T11:22:37Z</time>
      </trkpt>
      <trkpt lat="43.60572" lon="6.1317">
        <ele>470.32</ele>
        <time>2020-10-27T11:23:01Z</time>
      </trkpt>
      <trkpt lat="43.60576" lon="6.1317">
        <ele>470.14</ele>
        <time>2020-10-27T11:23:23Z</time>
      </trkpt>
      <trkpt lat="43.6057" lon="6.13173">
        <ele>469.94</ele>
        <time>2020-10-27T11:23:39Z</time>
      </trkpt>
      <trkpt lat="43.60569" lon="6.13175">
        <ele>469.94</ele>
        <time>2020-10-27T11:24:00Z</time>
      </trkpt>
      <trkpt lat="43.60569" lon="6.13176">
        <ele>469.94</ele>
        <time>2020-10-27T11:24:25Z</time>
      </trkpt>
      <trkpt lat="43.60572" lon="6.1318">
        <ele>469.94</ele>
        <time>2020-10-27T11:24:39Z</time>
      </trkpt>
      <trkpt lat="43.60572" lon="6.1318">
        <ele>469.94</ele>
        <time>2020-10-27T11:24:50Z</time>
      </trkpt>
      <trkpt lat="43.60562" lon="6.13181">
        <ele>469.5</ele>
        <time>2020-10-27T11:25:02Z</time>
      </trkpt>
      <trkpt lat="43.6056" lon="6.13179">
        <ele>469.22</ele>
        <time>2020-10-27T11:25:30Z</time>
      </trkpt>
      <trkpt lat="43.60557" lon="6.1318">
        <ele>468.94</ele>
        <time>2020-10-27T11:25:39Z</time>
      </trkpt>
      <trkpt lat="43.60558" lon="6.1318">
        <ele>469.15</ele>
        <time>2020-10-27T11:26:03Z</time>
      </trkpt>
      <trkpt lat="43.60554" lon="6.13171">
        <ele>469.15</ele>
        <time>2020-10-27T11:26:15Z</time>
      </trkpt>
      <trkpt lat="43.60556" lon="6.1317">
        <ele>469.15</ele>
        <time>2020-10-27T11:26:27Z</time>
      </trkpt>
      <trkpt lat="43.60558" lon="6.13167">
        <ele>469.15</ele>
        <time>2020-10-27T11:26:48Z</time>
      </trkpt>
      <trkpt lat="43.60559" lon="6.13165">
        <ele>469.15</ele>
        <time>2020-10-27T11:27:07Z</time>
      </trkpt>
      <trkpt lat="43.60552" lon="6.13164">
        <ele>469.15</ele>
        <time>2020-10-27T11:27:26Z</time>
      </trkpt>
      <trkpt lat="43.60553" lon="6.13162">
        <ele>469.15</ele>
        <time>2020-10-27T11:27:44Z</time>
      </trkpt>
      <trkpt lat="43.60554" lon="6.13161">
        <ele>469.15</ele>
        <time>2020-10-27T11:28:08Z</time>
      </trkpt>
      <trkpt lat="43.60547" lon="6.13158">
        <ele>469.15</ele>
        <time>2020-10-27T11:28:25Z</time>
      </trkpt>
      <trkpt lat="43.60545" lon="6.13153">
        <ele>469.15</ele>
        <time>2020-10-27T11:28:43Z</time>
      </trkpt>
      <trkpt lat="43.60543" lon="6.13153">
        <ele>469.15</ele>
        <time>2020-10-27T11:29:00Z</time>
      </trkpt>
      <trkpt lat="43.60539" lon="6.13154">
        <ele>469.15</ele>
        <time>2020-10-27T11:29:17Z</time>
      </trkpt>
      <trkpt lat="43.6054" lon="6.13155">
        <ele>469.15</ele>
        <time>2020-10-27T11:29:30Z</time>
      </trkpt>
      <trkpt lat="43.6054" lon="6.13156">
        <ele>469.15</ele>
        <time>2020-10-27T11:29:54Z</time>
      </trkpt>
      <trkpt lat="43.60542" lon="6.13157">
        <ele>469.15</ele>
        <time>2020-10-27T11:30:18Z</time>
      </trkpt>
      <trkpt lat="43.60543" lon="6.13158">
        <ele>469.15</ele>
        <time>2020-10-27T11:30:44Z</time>
      </trkpt>
      <trkpt lat="43.60544" lon="6.13158">
        <ele>469.15</ele>
        <time>2020-10-27T11:31:06Z</time>
      </trkpt>
      <trkpt lat="43.60545" lon="6.1316">
        <ele>469.15</ele>
        <time>2020-10-27T11:31:24Z</time>
      </trkpt>
      <trkpt lat="43.60546" lon="6.1316">
        <ele>469.15</ele>
        <time>2020-10-27T11:31:55Z</time>
      </trkpt>
      <trkpt lat="43.60545" lon="6.13161">
        <ele>469.15</ele>
        <time>2020-10-27T11:32:22Z</time>
      </trkpt>
      <trkpt lat="43.60547" lon="6.13163">
        <ele>469.15</ele>
        <time>2020-10-27T11:32:41Z</time>
      </trkpt>
      <trkpt lat="43.60546" lon="6.13162">
        <ele>469.15</ele>
        <time>2020-10-27T11:33:03Z</time>
      </trkpt>
      <trkpt lat="43.60544" lon="6.13158">
        <ele>469.15</ele>
        <time>2020-10-27T11:33:39Z</time>
      </trkpt>
      <trkpt lat="43.60543" lon="6.13157">
        <ele>469.15</ele>
        <time>2020-10-27T11:34:00Z</time>
      </trkpt>
      <trkpt lat="43.60543" lon="6.13158">
        <ele>469.15</ele>
        <time>2020-10-27T11:34:28Z</time>
      </trkpt>
      <trkpt lat="43.60544" lon="6.13157">
        <ele>469.15</ele>
        <time>2020-10-27T11:34:56Z</time>
      </trkpt>
      <trkpt lat="43.60543" lon="6.13154">
        <ele>469.15</ele>
        <time>2020-10-27T11:35:27Z</time>
      </trkpt>
      <trkpt lat="43.60543" lon="6.13155">
        <ele>469.15</ele>
        <time>2020-10-27T11:35:50Z</time>
      </trkpt>
      <trkpt lat="43.60545" lon="6.13153">
        <ele>469.15</ele>
        <time>2020-10-27T11:36:13Z</time>
      </trkpt>
      <trkpt lat="43.60546" lon="6.13154">
        <ele>469.15</ele>
        <time>2020-10-27T11:36:40Z</time>
      </trkpt>
      <trkpt lat="43.60549" lon="6.13151">
        <ele>469.15</ele>
        <time>2020-10-27T11:37:00Z</time>
      </trkpt>
      <trkpt lat="43.60544" lon="6.13151">
        <ele>469.15</ele>
        <time>2020-10-27T11:37:25Z</time>
      </trkpt>
      <trkpt lat="43.60542" lon="6.13152">
        <ele>469.15</ele>
        <time>2020-10-27T11:37:47Z</time>
      </trkpt>
      <trkpt lat="43.60546" lon="6.13156">
        <ele>469.15</ele>
        <time>2020-10-27T11:38:08Z</time>
      </trkpt>
      <trkpt lat="43.60557" lon="6.13175">
        <ele>469.12</ele>
        <time>2020-10-27T11:38:22Z</time>
      </trkpt>
      <trkpt lat="43.60565" lon="6.13179">
        <ele>469.69</ele>
        <time>2020-10-27T11:38:36Z</time>
      </trkpt>
      <trkpt lat="43.60566" lon="6.13178">
        <ele>470.03</ele>
        <time>2020-10-27T11:38:53Z</time>
      </trkpt>
      <trkpt lat="43.60567" lon="6.13178">
        <ele>469.62</ele>
        <time>2020-10-27T11:39:12Z</time>
      </trkpt>
      <trkpt lat="43.60568" lon="6.13178">
        <ele>470.02</ele>
        <time>2020-10-27T11:39:35Z</time>
      </trkpt>
      <trkpt lat="43.60569" lon="6.13177">
        <ele>470.02</ele>
        <time>2020-10-27T11:40:06Z</time>
      </trkpt>
      <trkpt lat="43.60569" lon="6.13177">
        <ele>470.02</ele>
        <time>2020-10-27T11:40:25Z</time>
      </trkpt>
      <trkpt lat="43.60567" lon="6.13176">
        <ele>470.02</ele>
        <time>2020-10-27T11:40:49Z</time>
      </trkpt>
      <trkpt lat="43.60566" lon="6.13174">
        <ele>470.02</ele>
        <time>2020-10-27T11:41:09Z</time>
      </trkpt>
      <trkpt lat="43.60565" lon="6.13174">
        <ele>470.02</ele>
        <time>2020-10-27T11:41:33Z</time>
      </trkpt>
      <trkpt lat="43.60566" lon="6.13174">
        <ele>470.02</ele>
        <time>2020-10-27T11:41:55Z</time>
      </trkpt>
      <trkpt lat="43.60566" lon="6.13174">
        <ele>470.02</ele>
        <time>2020-10-27T11:42:21Z</time>
      </trkpt>
      <trkpt lat="43.60565" lon="6.13174">
        <ele>470.02</ele>
        <time>2020-10-27T11:42:47Z</time>
      </trkpt>
      <trkpt lat="43.60567" lon="6.13176">
        <ele>470.02</ele>
        <time>2020-10-27T11:43:11Z</time>
      </trkpt>
      <trkpt lat="43.60567" lon="6.13177">
        <ele>470.02</ele>
        <time>2020-10-27T11:43:35Z</time>
      </trkpt>
      <trkpt lat="43.60567" lon="6.13175">
        <ele>470.02</ele>
        <time>2020-10-27T11:43:57Z</time>
      </trkpt>
      <trkpt lat="43.60565" lon="6.13175">
        <ele>470.02</ele>
        <time>2020-10-27T11:44:22Z</time>
      </trkpt>
      <trkpt lat="43.60566" lon="6.13176">
        <ele>470.02</ele>
        <time>2020-10-27T11:44:35Z</time>
      </trkpt>
      <trkpt lat="43.60567" lon="6.13176">
        <ele>470.02</ele>
        <time>2020-10-27T11:44:55Z</time>
      </trkpt>
      <trkpt lat="43.60568" lon="6.13177">
        <ele>470.02</ele>
        <time>2020-10-27T11:45:18Z</time>
      </trkpt>
      <trkpt lat="43.60568" lon="6.13176">
        <ele>470.02</ele>
        <time>2020-10-27T11:45:39Z</time>
      </trkpt>
      <trkpt lat="43.60564" lon="6.13176">
        <ele>470.02</ele>
        <time>2020-10-27T11:46:00Z</time>
      </trkpt>
      <trkpt lat="43.60563" lon="6.13177">
        <ele>470.02</ele>
        <time>2020-10-27T11:46:21Z</time>
      </trkpt>
      <trkpt lat="43.60565" lon="6.13179">
        <ele>470.02</ele>
        <time>2020-10-27T11:46:48Z</time>
      </trkpt>
      <trkpt lat="43.60563" lon="6.13181">
        <ele>470.02</ele>
        <time>2020-10-27T11:47:18Z</time>
      </trkpt>
      <trkpt lat="43.60562" lon="6.1318">
        <ele>470.02</ele>
        <time>2020-10-27T11:47:40Z</time>
      </trkpt>
      <trkpt lat="43.60563" lon="6.13179">
        <ele>470.02</ele>
        <time>2020-10-27T11:47:55Z</time>
      </trkpt>
      <trkpt lat="43.60559" lon="6.13179">
        <ele>470.02</ele>
        <time>2020-10-27T11:48:12Z</time>
      </trkpt>
      <trkpt lat="43.60546" lon="6.13165">
        <ele>468.96</ele>
        <time>2020-10-27T11:48:26Z</time>
      </trkpt>
      <trkpt lat="43.60542" lon="6.13159">
        <ele>468.16</ele>
        <time>2020-10-27T11:48:40Z</time>
      </trkpt>
      <trkpt lat="43.60546" lon="6.13155">
        <ele>467.85</ele>
        <time>2020-10-27T11:49:06Z</time>
      </trkpt>
      <trkpt lat="43.60547" lon="6.13157">
        <ele>467.83</ele>
        <time>2020-10-27T11:49:31Z</time>
      </trkpt>
      <trkpt lat="43.60544" lon="6.13159">
        <ele>467.85</ele>
        <time>2020-10-27T11:49:56Z</time>
      </trkpt>
      <trkpt lat="43.60545" lon="6.13162">
        <ele>467.85</ele>
        <time>2020-10-27T11:50:30Z</time>
      </trkpt>
      <trkpt lat="43.60544" lon="6.13162">
        <ele>467.85</ele>
        <time>2020-10-27T11:50:57Z</time>
      </trkpt>
      <trkpt lat="43.60546" lon="6.13159">
        <ele>467.85</ele>
        <time>2020-10-27T11:51:24Z</time>
      </trkpt>
      <trkpt lat="43.60548" lon="6.13157">
        <ele>467.85</ele>
        <time>2020-10-27T11:51:49Z</time>
      </trkpt>
      <trkpt lat="43.60547" lon="6.13156">
        <ele>467.85</ele>
        <time>2020-10-27T11:52:13Z</time>
      </trkpt>
      <trkpt lat="43.60547" lon="6.13158">
        <ele>467.85</ele>
        <time>2020-10-27T11:52:43Z</time>
      </trkpt>
      <trkpt lat="43.60546" lon="6.13161">
        <ele>467.85</ele>
        <time>2020-10-27T11:53:07Z</time>
      </trkpt>
      <trkpt lat="43.6055" lon="6.13166">
        <ele>467.96</ele>
        <time>2020-10-27T11:53:17Z</time>
      </trkpt>
      <trkpt lat="43.6056" lon="6.13176">
        <ele>469.05</ele>
        <time>2020-10-27T11:53:31Z</time>
      </trkpt>
      <trkpt lat="43.60574" lon="6.13178">
        <ele>470.13</ele>
        <time>2020-10-27T11:53:47Z</time>
      </trkpt>
      <trkpt lat="43.60572" lon="6.1318">
        <ele>470.51</ele>
        <time>2020-10-27T11:54:00Z</time>
      </trkpt>
      <trkpt lat="43.60568" lon="6.13178">
        <ele>469.93</ele>
        <time>2020-10-27T11:54:18Z</time>
      </trkpt>
      <trkpt lat="43.60564" lon="6.13178">
        <ele>469.44</ele>
        <time>2020-10-27T11:54:38Z</time>
      </trkpt>
      <trkpt lat="43.60566" lon="6.13177">
        <ele>469.94</ele>
        <time>2020-10-27T11:54:58Z</time>
      </trkpt>
      <trkpt lat="43.60571" lon="6.13182">
        <ele>470.25</ele>
        <time>2020-10-27T11:55:24Z</time>
      </trkpt>
      <trkpt lat="43.60568" lon="6.13181">
        <ele>470.08</ele>
        <time>2020-10-27T11:55:50Z</time>
      </trkpt>
      <trkpt lat="43.60569" lon="6.1318">
        <ele>470.07</ele>
        <time>2020-10-27T11:56:18Z</time>
      </trkpt>
      <trkpt lat="43.60567" lon="6.13182">
        <ele>470.07</ele>
        <time>2020-10-27T11:56:44Z</time>
      </trkpt>
      <trkpt lat="43.60564" lon="6.13181">
        <ele>470.07</ele>
        <time>2020-10-27T11:57:10Z</time>
      </trkpt>
      <trkpt lat="43.60564" lon="6.13179">
        <ele>470.07</ele>
        <time>2020-10-27T11:57:38Z</time>
      </trkpt>
      <trkpt lat="43.60564" lon="6.13181">
        <ele>470.07</ele>
        <time>2020-10-27T11:58:08Z</time>
      </trkpt>
      <trkpt lat="43.60563" lon="6.13185">
        <ele>470.07</ele>
        <time>2020-10-27T11:58:44Z</time>
      </trkpt>
      <trkpt lat="43.60561" lon="6.13184">
        <ele>470.07</ele>
        <time>2020-10-27T11:59:14Z</time>
      </trkpt>
      <trkpt lat="43.6056" lon="6.13184">
        <ele>470.07</ele>
        <time>2020-10-27T11:59:40Z</time>
      </trkpt>
      <trkpt lat="43.60561" lon="6.13186">
        <ele>470.07</ele>
        <time>2020-10-27T12:00:07Z</time>
      </trkpt>
      <trkpt lat="43.60564" lon="6.13184">
        <ele>470.07</ele>
        <time>2020-10-27T12:00:33Z</time>
      </trkpt>
      <trkpt lat="43.60566" lon="6.13183">
        <ele>470.07</ele>
        <time>2020-10-27T12:01:01Z</time>
      </trkpt>
      <trkpt lat="43.60563" lon="6.13184">
        <ele>470.07</ele>
        <time>2020-10-27T12:01:27Z</time>
      </trkpt>
      <trkpt lat="43.60565" lon="6.13184">
        <ele>470.07</ele>
        <time>2020-10-27T12:01:57Z</time>
      </trkpt>
      <trkpt lat="43.60564" lon="6.13185">
        <ele>470.07</ele>
        <time>2020-10-27T12:02:21Z</time>
      </trkpt>
      <trkpt lat="43.60564" lon="6.13185">
        <ele>470.07</ele>
        <time>2020-10-27T12:02:48Z</time>
      </trkpt>
      <trkpt lat="43.60564" lon="6.13183">
        <ele>470.07</ele>
        <time>2020-10-27T12:03:03Z</time>
      </trkpt>
      <trkpt lat="43.60565" lon="6.13185">
        <ele>470.07</ele>
        <time>2020-10-27T12:03:28Z</time>
      </trkpt>
      <trkpt lat="43.60566" lon="6.13184">
        <ele>470.07</ele>
        <time>2020-10-27T12:03:49Z</time>
      </trkpt>
      <trkpt lat="43.6057" lon="6.13181">
        <ele>470.07</ele>
        <time>2020-10-27T12:04:01Z</time>
      </trkpt>
      <trkpt lat="43.60575" lon="6.13186">
        <ele>469.99</ele>
        <time>2020-10-27T12:04:15Z</time>
      </trkpt>
      <trkpt lat="43.60576" lon="6.13186">
        <ele>469.71</ele>
        <time>2020-10-27T12:04:34Z</time>
      </trkpt>
      <trkpt lat="43.60576" lon="6.13191">
        <ele>470.23</ele>
        <time>2020-10-27T12:04:47Z</time>
      </trkpt>
      <trkpt lat="43.6058" lon="6.13206">
        <ele>470.02</ele>
        <time>2020-10-27T12:05:00Z</time>
      </trkpt>
      <trkpt lat="43.60583" lon="6.13215">
        <ele>470.08</ele>
        <time>2020-10-27T12:05:08Z</time>
      </trkpt>
      <trkpt lat="43.60588" lon="6.13222">
        <ele>469.87</ele>
        <time>2020-10-27T12:05:14Z</time>
      </trkpt>
      <trkpt lat="43.60594" lon="6.13235">
        <ele>469.7</ele>
        <time>2020-10-27T12:05:25Z</time>
      </trkpt>
      <trkpt lat="43.60601" lon="6.13246">
        <ele>468.92</ele>
        <time>2020-10-27T12:05:39Z</time>
      </trkpt>
      <trkpt lat="43.60609" lon="6.13263">
        <ele>467.86</ele>
        <time>2020-10-27T12:05:58Z</time>
      </trkpt>
      <trkpt lat="43.6062" lon="6.13271">
        <ele>466.3</ele>
        <time>2020-10-27T12:06:11Z</time>
      </trkpt>
      <trkpt lat="43.60631" lon="6.13275">
        <ele>465.39</ele>
        <time>2020-10-27T12:06:20Z</time>
      </trkpt>
      <trkpt lat="43.60639" lon="6.13283">
        <ele>463.41</ele>
        <time>2020-10-27T12:06:31Z</time>
      </trkpt>
      <trkpt lat="43.60656" lon="6.13292">
        <ele>461.16</ele>
        <time>2020-10-27T12:06:49Z</time>
      </trkpt>
      <trkpt lat="43.60664" lon="6.13298">
        <ele>458.62</ele>
        <time>2020-10-27T12:07:04Z</time>
      </trkpt>
      <trkpt lat="43.60673" lon="6.13302">
        <ele>456.73</ele>
        <time>2020-10-27T12:07:17Z</time>
      </trkpt>
      <trkpt lat="43.60684" lon="6.13307">
        <ele>454.02</ele>
        <time>2020-10-27T12:07:32Z</time>
      </trkpt>
      <trkpt lat="43.60696" lon="6.1331">
        <ele>452.24</ele>
        <time>2020-10-27T12:07:45Z</time>
      </trkpt>
      <trkpt lat="43.60701" lon="6.13311">
        <ele>451.57</ele>
        <time>2020-10-27T12:07:50Z</time>
      </trkpt>
      <trkpt lat="43.60704" lon="6.13312">
        <ele>451.34</ele>
        <time>2020-10-27T12:07:52Z</time>
      </trkpt>
      <trkpt lat="43.60714" lon="6.13316">
        <ele>450.27</ele>
        <time>2020-10-27T12:08:01Z</time>
      </trkpt>
      <trkpt lat="43.60721" lon="6.13314">
        <ele>449.82</ele>
        <time>2020-10-27T12:08:12Z</time>
      </trkpt>
      <trkpt lat="43.60722" lon="6.13314">
        <ele>449.76</ele>
        <time>2020-10-27T12:08:13Z</time>
      </trkpt>
      <trkpt lat="43.60734" lon="6.13315">
        <ele>449.07</ele>
        <time>2020-10-27T12:08:26Z</time>
      </trkpt>
      <trkpt lat="43.60744" lon="6.13329">
        <ele>450.14</ele>
        <time>2020-10-27T12:08:42Z</time>
      </trkpt>
      <trkpt lat="43.60747" lon="6.13336">
        <ele>450.63</ele>
        <time>2020-10-27T12:08:48Z</time>
      </trkpt>
      <trkpt lat="43.60754" lon="6.13347">
        <ele>451.91</ele>
        <time>2020-10-27T12:09:02Z</time>
      </trkpt>
      <trkpt lat="43.60764" lon="6.1336">
        <ele>454.32</ele>
        <time>2020-10-27T12:09:21Z</time>
      </trkpt>
      <trkpt lat="43.6077" lon="6.13372">
        <ele>454.98</ele>
        <time>2020-10-27T12:09:33Z</time>
      </trkpt>
      <trkpt lat="43.60775" lon="6.13389">
        <ele>454.15</ele>
        <time>2020-10-27T12:09:50Z</time>
      </trkpt>
      <trkpt lat="43.60773" lon="6.13404">
        <ele>455.89</ele>
        <time>2020-10-27T12:10:07Z</time>
      </trkpt>
      <trkpt lat="43.60766" lon="6.13419">
        <ele>458.58</ele>
        <time>2020-10-27T12:10:23Z</time>
      </trkpt>
      <trkpt lat="43.60771" lon="6.1343">
        <ele>460.94</ele>
        <time>2020-10-27T12:10:39Z</time>
      </trkpt>
      <trkpt lat="43.60772" lon="6.1344">
        <ele>462.12</ele>
        <time>2020-10-27T12:10:57Z</time>
      </trkpt>
      <trkpt lat="43.60771" lon="6.13446">
        <ele>462.46</ele>
        <time>2020-10-27T12:11:13Z</time>
      </trkpt>
      <trkpt lat="43.60771" lon="6.13448">
        <ele>463.31</ele>
        <time>2020-10-27T12:11:30Z</time>
      </trkpt>
      <trkpt lat="43.60773" lon="6.13449">
        <ele>463.61</ele>
        <time>2020-10-27T12:11:50Z</time>
      </trkpt>
      <trkpt lat="43.60775" lon="6.1345">
        <ele>463.44</ele>
        <time>2020-10-27T12:12:13Z</time>
      </trkpt>
      <trkpt lat="43.60774" lon="6.13452">
        <ele>463.5</ele>
        <time>2020-10-27T12:12:16Z</time>
      </trkpt>
      <trkpt lat="43.6077" lon="6.13467">
        <ele>464.39</ele>
        <time>2020-10-27T12:12:35Z</time>
      </trkpt>
      <trkpt lat="43.60769" lon="6.13477">
        <ele>464.97</ele>
        <time>2020-10-27T12:12:51Z</time>
      </trkpt>
      <trkpt lat="43.60773" lon="6.13489">
        <ele>466.09</ele>
        <time>2020-10-27T12:13:08Z</time>
      </trkpt>
      <trkpt lat="43.60777" lon="6.13493">
        <ele>466.65</ele>
        <time>2020-10-27T12:13:23Z</time>
      </trkpt>
      <trkpt lat="43.60776" lon="6.13496">
        <ele>467.01</ele>
        <time>2020-10-27T12:13:47Z</time>
      </trkpt>
      <trkpt lat="43.60777" lon="6.13497">
        <ele>467.13</ele>
        <time>2020-10-27T12:14:09Z</time>
      </trkpt>
      <trkpt lat="43.60778" lon="6.13497">
        <ele>466.99</ele>
        <time>2020-10-27T12:14:31Z</time>
      </trkpt>
      <trkpt lat="43.60776" lon="6.13506">
        <ele>468.16</ele>
        <time>2020-10-27T12:14:49Z</time>
      </trkpt>
      <trkpt lat="43.60785" lon="6.13521">
        <ele>469.56</ele>
        <time>2020-10-27T12:15:06Z</time>
      </trkpt>
      <trkpt lat="43.60794" lon="6.13535">
        <ele>470.91</ele>
        <time>2020-10-27T12:15:22Z</time>
      </trkpt>
      <trkpt lat="43.60798" lon="6.13554">
        <ele>472.7</ele>
        <time>2020-10-27T12:15:40Z</time>
      </trkpt>
      <trkpt lat="43.60798" lon="6.13565">
        <ele>472.97</ele>
        <time>2020-10-27T12:15:50Z</time>
      </trkpt>
      <trkpt lat="43.608" lon="6.13578">
        <ele>472.99</ele>
        <time>2020-10-27T12:16:01Z</time>
      </trkpt>
      <trkpt lat="43.60797" lon="6.13587">
        <ele>474.31</ele>
        <time>2020-10-27T12:16:13Z</time>
      </trkpt>
      <trkpt lat="43.60797" lon="6.13607">
        <ele>473.5</ele>
        <time>2020-10-27T12:16:30Z</time>
      </trkpt>
      <trkpt lat="43.60799" lon="6.13622">
        <ele>473.84</ele>
        <time>2020-10-27T12:16:43Z</time>
      </trkpt>
      <trkpt lat="43.608" lon="6.13625">
        <ele>473.84</ele>
        <time>2020-10-27T12:16:45Z</time>
      </trkpt>
      <trkpt lat="43.60805" lon="6.13639">
        <ele>473.73</ele>
        <time>2020-10-27T12:16:58Z</time>
      </trkpt>
      <trkpt lat="43.60812" lon="6.13651">
        <ele>474.27</ele>
        <time>2020-10-27T12:17:11Z</time>
      </trkpt>
      <trkpt lat="43.60817" lon="6.13666">
        <ele>474.51</ele>
        <time>2020-10-27T12:17:25Z</time>
      </trkpt>
      <trkpt lat="43.60826" lon="6.13681">
        <ele>474.87</ele>
        <time>2020-10-27T12:17:40Z</time>
      </trkpt>
      <trkpt lat="43.60827" lon="6.13683">
        <ele>474.82</ele>
        <time>2020-10-27T12:17:42Z</time>
      </trkpt>
      <trkpt lat="43.60835" lon="6.13692">
        <ele>475.69</ele>
        <time>2020-10-27T12:17:55Z</time>
      </trkpt>
      <trkpt lat="43.60844" lon="6.13702">
        <ele>476.4</ele>
        <time>2020-10-27T12:18:07Z</time>
      </trkpt>
      <trkpt lat="43.60847" lon="6.1371">
        <ele>477.57</ele>
        <time>2020-10-27T12:18:19Z</time>
      </trkpt>
      <trkpt lat="43.60854" lon="6.13725">
        <ele>477.92</ele>
        <time>2020-10-27T12:18:37Z</time>
      </trkpt>
      <trkpt lat="43.60865" lon="6.13737">
        <ele>478.91</ele>
        <time>2020-10-27T12:18:55Z</time>
      </trkpt>
      <trkpt lat="43.60872" lon="6.13753">
        <ele>479.43</ele>
        <time>2020-10-27T12:19:14Z</time>
      </trkpt>
      <trkpt lat="43.60877" lon="6.13764">
        <ele>479.46</ele>
        <time>2020-10-27T12:19:32Z</time>
      </trkpt>
      <trkpt lat="43.60888" lon="6.13768">
        <ele>479.84</ele>
        <time>2020-10-27T12:19:47Z</time>
      </trkpt>
      <trkpt lat="43.60904" lon="6.13771">
        <ele>479.93</ele>
        <time>2020-10-27T12:20:04Z</time>
      </trkpt>
      <trkpt lat="43.60921" lon="6.13774">
        <ele>480.54</ele>
        <time>2020-10-27T12:20:19Z</time>
      </trkpt>
      <trkpt lat="43.60929" lon="6.13776">
        <ele>480.33</ele>
        <time>2020-10-27T12:20:27Z</time>
      </trkpt>
      <trkpt lat="43.60933" lon="6.13775">
        <ele>480.43</ele>
        <time>2020-10-27T12:20:32Z</time>
      </trkpt>
      <trkpt lat="43.60948" lon="6.13777">
        <ele>480.88</ele>
        <time>2020-10-27T12:20:45Z</time>
      </trkpt>
      <trkpt lat="43.60957" lon="6.13779">
        <ele>480.73</ele>
        <time>2020-10-27T12:20:55Z</time>
      </trkpt>
      <trkpt lat="43.60969" lon="6.13777">
        <ele>481.2</ele>
        <time>2020-10-27T12:21:08Z</time>
      </trkpt>
      <trkpt lat="43.60984" lon="6.13777">
        <ele>481.6</ele>
        <time>2020-10-27T12:21:22Z</time>
      </trkpt>
      <trkpt lat="43.60996" lon="6.13774">
        <ele>482.3</ele>
        <time>2020-10-27T12:21:33Z</time>
      </trkpt>
      <trkpt lat="43.61008" lon="6.13776">
        <ele>482.46</ele>
        <time>2020-10-27T12:21:45Z</time>
      </trkpt>
      <trkpt lat="43.61018" lon="6.1378">
        <ele>483.28</ele>
        <time>2020-10-27T12:21:56Z</time>
      </trkpt>
      <trkpt lat="43.61024" lon="6.13783">
        <ele>483.46</ele>
        <time>2020-10-27T12:22:03Z</time>
      </trkpt>
      <trkpt lat="43.61027" lon="6.13785">
        <ele>483.85</ele>
        <time>2020-10-27T12:22:07Z</time>
      </trkpt>
      <trkpt lat="43.61033" lon="6.13788">
        <ele>484.25</ele>
        <time>2020-10-27T12:22:14Z</time>
      </trkpt>
      <trkpt lat="43.61041" lon="6.13787">
        <ele>484.11</ele>
        <time>2020-10-27T12:22:21Z</time>
      </trkpt>
      <trkpt lat="43.61054" lon="6.13785">
        <ele>484.27</ele>
        <time>2020-10-27T12:22:33Z</time>
      </trkpt>
      <trkpt lat="43.61067" lon="6.13785">
        <ele>484.68</ele>
        <time>2020-10-27T12:22:46Z</time>
      </trkpt>
      <trkpt lat="43.61073" lon="6.13786">
        <ele>485.02</ele>
        <time>2020-10-27T12:22:52Z</time>
      </trkpt>
      <trkpt lat="43.61082" lon="6.1379">
        <ele>485.06</ele>
        <time>2020-10-27T12:23:00Z</time>
      </trkpt>
      <trkpt lat="43.61088" lon="6.13794">
        <ele>485.05</ele>
        <time>2020-10-27T12:23:06Z</time>
      </trkpt>
      <trkpt lat="43.61099" lon="6.13794">
        <ele>485.66</ele>
        <time>2020-10-27T12:23:18Z</time>
      </trkpt>
      <trkpt lat="43.6111" lon="6.13792">
        <ele>485.25</ele>
        <time>2020-10-27T12:23:33Z</time>
      </trkpt>
      <trkpt lat="43.61113" lon="6.13791">
        <ele>485.35</ele>
        <time>2020-10-27T12:23:38Z</time>
      </trkpt>
      <trkpt lat="43.61116" lon="6.1379">
        <ele>485.32</ele>
        <time>2020-10-27T12:23:42Z</time>
      </trkpt>
      <trkpt lat="43.61126" lon="6.13784">
        <ele>484.81</ele>
        <time>2020-10-27T12:23:54Z</time>
      </trkpt>
      <trkpt lat="43.61136" lon="6.13777">
        <ele>485</ele>
        <time>2020-10-27T12:24:05Z</time>
      </trkpt>
      <trkpt lat="43.61147" lon="6.13768">
        <ele>484.16</ele>
        <time>2020-10-27T12:24:18Z</time>
      </trkpt>
      <trkpt lat="43.61157" lon="6.1376">
        <ele>483.73</ele>
        <time>2020-10-27T12:24:29Z</time>
      </trkpt>
      <trkpt lat="43.6117" lon="6.13751">
        <ele>483.31</ele>
        <time>2020-10-27T12:24:43Z</time>
      </trkpt>
      <trkpt lat="43.61179" lon="6.13743">
        <ele>482.86</ele>
        <time>2020-10-27T12:24:54Z</time>
      </trkpt>
      <trkpt lat="43.6119" lon="6.13736">
        <ele>482.04</ele>
        <time>2020-10-27T12:25:05Z</time>
      </trkpt>
      <trkpt lat="43.61197" lon="6.13732">
        <ele>481.24</ele>
        <time>2020-10-27T12:25:12Z</time>
      </trkpt>
      <trkpt lat="43.61211" lon="6.13722">
        <ele>480.94</ele>
        <time>2020-10-27T12:25:26Z</time>
      </trkpt>
      <trkpt lat="43.61224" lon="6.13717">
        <ele>481.06</ele>
        <time>2020-10-27T12:25:38Z</time>
      </trkpt>
      <trkpt lat="43.61233" lon="6.13708">
        <ele>480.88</ele>
        <time>2020-10-27T12:25:48Z</time>
      </trkpt>
      <trkpt lat="43.61242" lon="6.13696">
        <ele>481.06</ele>
        <time>2020-10-27T12:26:00Z</time>
      </trkpt>
      <trkpt lat="43.61246" lon="6.13689">
        <ele>481.25</ele>
        <time>2020-10-27T12:26:06Z</time>
      </trkpt>
      <trkpt lat="43.6126" lon="6.13679">
        <ele>481.92</ele>
        <time>2020-10-27T12:26:21Z</time>
      </trkpt>
      <trkpt lat="43.61264" lon="6.13676">
        <ele>482.42</ele>
        <time>2020-10-27T12:26:35Z</time>
      </trkpt>
      <trkpt lat="43.61263" lon="6.13679">
        <ele>482.51</ele>
        <time>2020-10-27T12:26:57Z</time>
      </trkpt>
      <trkpt lat="43.61267" lon="6.13684">
        <ele>482.35</ele>
        <time>2020-10-27T12:27:15Z</time>
      </trkpt>
      <trkpt lat="43.61271" lon="6.13688">
        <ele>482.35</ele>
        <time>2020-10-27T12:27:19Z</time>
      </trkpt>
      <trkpt lat="43.61276" lon="6.13695">
        <ele>482.69</ele>
        <time>2020-10-27T12:27:26Z</time>
      </trkpt>
      <trkpt lat="43.61283" lon="6.1371">
        <ele>483.2</ele>
        <time>2020-10-27T12:27:37Z</time>
      </trkpt>
      <trkpt lat="43.61288" lon="6.13725">
        <ele>483.43</ele>
        <time>2020-10-27T12:27:48Z</time>
      </trkpt>
      <trkpt lat="43.61296" lon="6.13741">
        <ele>483.67</ele>
        <time>2020-10-27T12:28:01Z</time>
      </trkpt>
      <trkpt lat="43.61297" lon="6.13744">
        <ele>483.65</ele>
        <time>2020-10-27T12:28:03Z</time>
      </trkpt>
      <trkpt lat="43.61305" lon="6.13762">
        <ele>483.61</ele>
        <time>2020-10-27T12:28:16Z</time>
      </trkpt>
      <trkpt lat="43.61306" lon="6.13781">
        <ele>483.15</ele>
        <time>2020-10-27T12:28:29Z</time>
      </trkpt>
      <trkpt lat="43.61308" lon="6.13788">
        <ele>483.14</ele>
        <time>2020-10-27T12:28:43Z</time>
      </trkpt>
      <trkpt lat="43.61314" lon="6.13781">
        <ele>483.24</ele>
        <time>2020-10-27T12:28:58Z</time>
      </trkpt>
      <trkpt lat="43.61322" lon="6.13786">
        <ele>483.27</ele>
        <time>2020-10-27T12:29:12Z</time>
      </trkpt>
      <trkpt lat="43.61333" lon="6.13793">
        <ele>482.63</ele>
        <time>2020-10-27T12:29:28Z</time>
      </trkpt>
      <trkpt lat="43.61347" lon="6.13793">
        <ele>482.5</ele>
        <time>2020-10-27T12:29:44Z</time>
      </trkpt>
      <trkpt lat="43.6136" lon="6.13793">
        <ele>482.68</ele>
        <time>2020-10-27T12:30:01Z</time>
      </trkpt>
      <trkpt lat="43.61374" lon="6.13794">
        <ele>482.65</ele>
        <time>2020-10-27T12:30:16Z</time>
      </trkpt>
      <trkpt lat="43.61394" lon="6.13799">
        <ele>482.6</ele>
        <time>2020-10-27T12:30:35Z</time>
      </trkpt>
      <trkpt lat="43.61395" lon="6.13799">
        <ele>482.58</ele>
        <time>2020-10-27T12:30:36Z</time>
      </trkpt>
      <trkpt lat="43.61403" lon="6.13811">
        <ele>482.39</ele>
        <time>2020-10-27T12:30:48Z</time>
      </trkpt>
      <trkpt lat="43.61415" lon="6.13817">
        <ele>481.41</ele>
        <time>2020-10-27T12:31:01Z</time>
      </trkpt>
      <trkpt lat="43.61429" lon="6.13822">
        <ele>480.82</ele>
        <time>2020-10-27T12:31:17Z</time>
      </trkpt>
      <trkpt lat="43.61437" lon="6.1383">
        <ele>480.05</ele>
        <time>2020-10-27T12:31:31Z</time>
      </trkpt>
      <trkpt lat="43.61442" lon="6.13839">
        <ele>479.56</ele>
        <time>2020-10-27T12:31:42Z</time>
      </trkpt>
      <trkpt lat="43.61448" lon="6.13845">
        <ele>479.11</ele>
        <time>2020-10-27T12:31:53Z</time>
      </trkpt>
      <trkpt lat="43.61455" lon="6.13851">
        <ele>478</ele>
        <time>2020-10-27T12:32:05Z</time>
      </trkpt>
      <trkpt lat="43.61471" lon="6.13854">
        <ele>477.22</ele>
        <time>2020-10-27T12:32:20Z</time>
      </trkpt>
      <trkpt lat="43.61474" lon="6.13853">
        <ele>477.09</ele>
        <time>2020-10-27T12:32:23Z</time>
      </trkpt>
      <trkpt lat="43.61485" lon="6.13849">
        <ele>475.96</ele>
        <time>2020-10-27T12:32:37Z</time>
      </trkpt>
      <trkpt lat="43.61496" lon="6.13847">
        <ele>475.66</ele>
        <time>2020-10-27T12:32:47Z</time>
      </trkpt>
      <trkpt lat="43.61504" lon="6.13847">
        <ele>475.07</ele>
        <time>2020-10-27T12:32:57Z</time>
      </trkpt>
      <trkpt lat="43.61518" lon="6.13846">
        <ele>474.54</ele>
        <time>2020-10-27T12:33:12Z</time>
      </trkpt>
      <trkpt lat="43.61532" lon="6.1384">
        <ele>473.36</ele>
        <time>2020-10-27T12:33:26Z</time>
      </trkpt>
      <trkpt lat="43.61545" lon="6.13836">
        <ele>473.23</ele>
        <time>2020-10-27T12:33:42Z</time>
      </trkpt>
      <trkpt lat="43.61547" lon="6.13838">
        <ele>473.12</ele>
        <time>2020-10-27T12:34:00Z</time>
      </trkpt>
      <trkpt lat="43.6155" lon="6.13838">
        <ele>473.39</ele>
        <time>2020-10-27T12:34:22Z</time>
      </trkpt>
      <trkpt lat="43.61552" lon="6.13839">
        <ele>473.55</ele>
        <time>2020-10-27T12:34:47Z</time>
      </trkpt>
      <trkpt lat="43.61551" lon="6.13836">
        <ele>473.55</ele>
        <time>2020-10-27T12:35:14Z</time>
      </trkpt>
      <trkpt lat="43.61552" lon="6.13832">
        <ele>473.55</ele>
        <time>2020-10-27T12:35:36Z</time>
      </trkpt>
      <trkpt lat="43.61563" lon="6.13825">
        <ele>473.91</ele>
        <time>2020-10-27T12:35:49Z</time>
      </trkpt>
      <trkpt lat="43.61567" lon="6.13821">
        <ele>473.49</ele>
        <time>2020-10-27T12:35:54Z</time>
      </trkpt>
      <trkpt lat="43.61573" lon="6.13816">
        <ele>473.25</ele>
        <time>2020-10-27T12:36:01Z</time>
      </trkpt>
      <trkpt lat="43.61576" lon="6.13814">
        <ele>473.12</ele>
        <time>2020-10-27T12:36:05Z</time>
      </trkpt>
      <trkpt lat="43.61589" lon="6.1381">
        <ele>473.01</ele>
        <time>2020-10-27T12:36:17Z</time>
      </trkpt>
      <trkpt lat="43.61593" lon="6.13809">
        <ele>472.9</ele>
        <time>2020-10-27T12:36:20Z</time>
      </trkpt>
      <trkpt lat="43.61602" lon="6.13802">
        <ele>472.39</ele>
        <time>2020-10-27T12:36:30Z</time>
      </trkpt>
      <trkpt lat="43.61604" lon="6.13801">
        <ele>472.23</ele>
        <time>2020-10-27T12:36:32Z</time>
      </trkpt>
      <trkpt lat="43.61613" lon="6.13793">
        <ele>471.6</ele>
        <time>2020-10-27T12:36:43Z</time>
      </trkpt>
      <trkpt lat="43.6162" lon="6.13793">
        <ele>471.28</ele>
        <time>2020-10-27T12:36:50Z</time>
      </trkpt>
      <trkpt lat="43.61635" lon="6.13798">
        <ele>471.18</ele>
        <time>2020-10-27T12:37:04Z</time>
      </trkpt>
      <trkpt lat="43.61651" lon="6.13802">
        <ele>471.64</ele>
        <time>2020-10-27T12:37:21Z</time>
      </trkpt>
      <trkpt lat="43.61662" lon="6.13802">
        <ele>472.76</ele>
        <time>2020-10-27T12:37:36Z</time>
      </trkpt>
      <trkpt lat="43.61678" lon="6.13807">
        <ele>473.77</ele>
        <time>2020-10-27T12:37:52Z</time>
      </trkpt>
      <trkpt lat="43.61694" lon="6.13813">
        <ele>474.87</ele>
        <time>2020-10-27T12:38:10Z</time>
      </trkpt>
      <trkpt lat="43.61707" lon="6.13811">
        <ele>475.37</ele>
        <time>2020-10-27T12:38:22Z</time>
      </trkpt>
      <trkpt lat="43.61717" lon="6.13813">
        <ele>475.48</ele>
        <time>2020-10-27T12:38:31Z</time>
      </trkpt>
      <trkpt lat="43.61719" lon="6.13815">
        <ele>475.52</ele>
        <time>2020-10-27T12:38:34Z</time>
      </trkpt>
      <trkpt lat="43.61727" lon="6.13819">
        <ele>476.01</ele>
        <time>2020-10-27T12:38:45Z</time>
      </trkpt>
      <trkpt lat="43.61728" lon="6.13821">
        <ele>476.02</ele>
        <time>2020-10-27T12:38:59Z</time>
      </trkpt>
      <trkpt lat="43.6173" lon="6.13821">
        <ele>475.73</ele>
        <time>2020-10-27T12:39:13Z</time>
      </trkpt>
      <trkpt lat="43.61741" lon="6.13833">
        <ele>476.21</ele>
        <time>2020-10-27T12:39:30Z</time>
      </trkpt>
      <trkpt lat="43.61747" lon="6.13837">
        <ele>476.33</ele>
        <time>2020-10-27T12:39:40Z</time>
      </trkpt>
      <trkpt lat="43.61757" lon="6.13847">
        <ele>476.3</ele>
        <time>2020-10-27T12:39:56Z</time>
      </trkpt>
      <trkpt lat="43.61765" lon="6.1386">
        <ele>476.3</ele>
        <time>2020-10-27T12:40:11Z</time>
      </trkpt>
      <trkpt lat="43.61767" lon="6.13862">
        <ele>476.3</ele>
        <time>2020-10-27T12:40:13Z</time>
      </trkpt>
      <trkpt lat="43.61772" lon="6.13869">
        <ele>475.93</ele>
        <time>2020-10-27T12:40:27Z</time>
      </trkpt>
      <trkpt lat="43.61774" lon="6.13875">
        <ele>475.96</ele>
        <time>2020-10-27T12:40:31Z</time>
      </trkpt>
      <trkpt lat="43.61777" lon="6.13881">
        <ele>476.08</ele>
        <time>2020-10-27T12:40:38Z</time>
      </trkpt>
      <trkpt lat="43.61784" lon="6.1389">
        <ele>475.86</ele>
        <time>2020-10-27T12:40:48Z</time>
      </trkpt>
      <trkpt lat="43.6179" lon="6.139">
        <ele>475.36</ele>
        <time>2020-10-27T12:41:00Z</time>
      </trkpt>
      <trkpt lat="43.61795" lon="6.13909">
        <ele>475.3</ele>
        <time>2020-10-27T12:41:09Z</time>
      </trkpt>
      <trkpt lat="43.618" lon="6.13919">
        <ele>475.07</ele>
        <time>2020-10-27T12:41:18Z</time>
      </trkpt>
      <trkpt lat="43.61809" lon="6.13931">
        <ele>474.61</ele>
        <time>2020-10-27T12:41:28Z</time>
      </trkpt>
      <trkpt lat="43.6182" lon="6.13942">
        <ele>474.18</ele>
        <time>2020-10-27T12:41:39Z</time>
      </trkpt>
      <trkpt lat="43.61834" lon="6.1396">
        <ele>472.75</ele>
        <time>2020-10-27T12:41:56Z</time>
      </trkpt>
      <trkpt lat="43.61839" lon="6.13967">
        <ele>472.43</ele>
        <time>2020-10-27T12:42:02Z</time>
      </trkpt>
      <trkpt lat="43.61842" lon="6.13972">
        <ele>472.33</ele>
        <time>2020-10-27T12:42:07Z</time>
      </trkpt>
      <trkpt lat="43.61852" lon="6.13988">
        <ele>471.4</ele>
        <time>2020-10-27T12:42:20Z</time>
      </trkpt>
      <trkpt lat="43.61854" lon="6.13991">
        <ele>471.21</ele>
        <time>2020-10-27T12:42:23Z</time>
      </trkpt>
      <trkpt lat="43.61857" lon="6.13997">
        <ele>470.88</ele>
        <time>2020-10-27T12:42:28Z</time>
      </trkpt>
      <trkpt lat="43.61861" lon="6.14002">
        <ele>470.41</ele>
        <time>2020-10-27T12:42:33Z</time>
      </trkpt>
      <trkpt lat="43.61867" lon="6.14008">
        <ele>469.85</ele>
        <time>2020-10-27T12:42:40Z</time>
      </trkpt>
      <trkpt lat="43.6188" lon="6.14024">
        <ele>468.65</ele>
        <time>2020-10-27T12:42:57Z</time>
      </trkpt>
      <trkpt lat="43.61886" lon="6.14033">
        <ele>468.04</ele>
        <time>2020-10-27T12:43:05Z</time>
      </trkpt>
      <trkpt lat="43.61893" lon="6.14045">
        <ele>467.8</ele>
        <time>2020-10-27T12:43:15Z</time>
      </trkpt>
      <trkpt lat="43.61904" lon="6.14061">
        <ele>466.97</ele>
        <time>2020-10-27T12:43:28Z</time>
      </trkpt>
      <trkpt lat="43.61912" lon="6.14073">
        <ele>466.27</ele>
        <time>2020-10-27T12:43:39Z</time>
      </trkpt>
      <trkpt lat="43.61918" lon="6.14082">
        <ele>465.73</ele>
        <time>2020-10-27T12:43:49Z</time>
      </trkpt>
      <trkpt lat="43.61929" lon="6.14094">
        <ele>464.73</ele>
        <time>2020-10-27T12:44:02Z</time>
      </trkpt>
      <trkpt lat="43.61933" lon="6.14098">
        <ele>464.43</ele>
        <time>2020-10-27T12:44:06Z</time>
      </trkpt>
      <trkpt lat="43.61942" lon="6.14107">
        <ele>463.85</ele>
        <time>2020-10-27T12:44:16Z</time>
      </trkpt>
      <trkpt lat="43.61947" lon="6.14113">
        <ele>463.3</ele>
        <time>2020-10-27T12:44:21Z</time>
      </trkpt>
      <trkpt lat="43.61957" lon="6.14126">
        <ele>462.64</ele>
        <time>2020-10-27T12:44:35Z</time>
      </trkpt>
      <trkpt lat="43.61964" lon="6.14132">
        <ele>461.96</ele>
        <time>2020-10-27T12:44:44Z</time>
      </trkpt>
      <trkpt lat="43.61975" lon="6.14139">
        <ele>461.67</ele>
        <time>2020-10-27T12:44:55Z</time>
      </trkpt>
      <trkpt lat="43.61981" lon="6.14144">
        <ele>461.3</ele>
        <time>2020-10-27T12:45:03Z</time>
      </trkpt>
      <trkpt lat="43.61997" lon="6.14155">
        <ele>460.78</ele>
        <time>2020-10-27T12:45:20Z</time>
      </trkpt>
      <trkpt lat="43.62007" lon="6.14161">
        <ele>460.14</ele>
        <time>2020-10-27T12:45:30Z</time>
      </trkpt>
      <trkpt lat="43.62018" lon="6.14165">
        <ele>460.16</ele>
        <time>2020-10-27T12:45:40Z</time>
      </trkpt>
      <trkpt lat="43.62033" lon="6.14172">
        <ele>459.81</ele>
        <time>2020-10-27T12:45:59Z</time>
      </trkpt>
      <trkpt lat="43.62041" lon="6.14176">
        <ele>459.64</ele>
        <time>2020-10-27T12:46:07Z</time>
      </trkpt>
      <trkpt lat="43.62051" lon="6.14178">
        <ele>459.32</ele>
        <time>2020-10-27T12:46:17Z</time>
      </trkpt>
      <trkpt lat="43.62054" lon="6.14181">
        <ele>459.29</ele>
        <time>2020-10-27T12:46:33Z</time>
      </trkpt>
      <trkpt lat="43.62054" lon="6.1418">
        <ele>459.11</ele>
        <time>2020-10-27T12:46:55Z</time>
      </trkpt>
      <trkpt lat="43.62053" lon="6.14181">
        <ele>459.4</ele>
        <time>2020-10-27T12:47:23Z</time>
      </trkpt>
      <trkpt lat="43.62052" lon="6.14185">
        <ele>459.13</ele>
        <time>2020-10-27T12:47:52Z</time>
      </trkpt>
      <trkpt lat="43.6205" lon="6.14185">
        <ele>459.02</ele>
        <time>2020-10-27T12:48:20Z</time>
      </trkpt>
      <trkpt lat="43.62051" lon="6.14184">
        <ele>459.02</ele>
        <time>2020-10-27T12:48:43Z</time>
      </trkpt>
      <trkpt lat="43.62061" lon="6.14178">
        <ele>459.02</ele>
        <time>2020-10-27T12:49:01Z</time>
      </trkpt>
      <trkpt lat="43.62077" lon="6.14184">
        <ele>458.98</ele>
        <time>2020-10-27T12:49:16Z</time>
      </trkpt>
      <trkpt lat="43.6209" lon="6.14191">
        <ele>458.76</ele>
        <time>2020-10-27T12:49:32Z</time>
      </trkpt>
      <trkpt lat="43.62102" lon="6.14198">
        <ele>458.39</ele>
        <time>2020-10-27T12:49:44Z</time>
      </trkpt>
      <trkpt lat="43.62104" lon="6.14199">
        <ele>458.33</ele>
        <time>2020-10-27T12:49:46Z</time>
      </trkpt>
      <trkpt lat="43.62114" lon="6.14204">
        <ele>458.11</ele>
        <time>2020-10-27T12:49:58Z</time>
      </trkpt>
      <trkpt lat="43.62125" lon="6.14208">
        <ele>457.65</ele>
        <time>2020-10-27T12:50:11Z</time>
      </trkpt>
      <trkpt lat="43.62139" lon="6.14211">
        <ele>457.7</ele>
        <time>2020-10-27T12:50:25Z</time>
      </trkpt>
      <trkpt lat="43.62149" lon="6.14212">
        <ele>457.54</ele>
        <time>2020-10-27T12:50:34Z</time>
      </trkpt>
      <trkpt lat="43.6215" lon="6.14214">
        <ele>457.44</ele>
        <time>2020-10-27T12:50:36Z</time>
      </trkpt>
      <trkpt lat="43.62165" lon="6.1422">
        <ele>457.33</ele>
        <time>2020-10-27T12:50:50Z</time>
      </trkpt>
      <trkpt lat="43.62181" lon="6.14232">
        <ele>457.5</ele>
        <time>2020-10-27T12:51:05Z</time>
      </trkpt>
      <trkpt lat="43.62194" lon="6.14239">
        <ele>457.89</ele>
        <time>2020-10-27T12:51:16Z</time>
      </trkpt>
      <trkpt lat="43.62204" lon="6.14245">
        <ele>458.36</ele>
        <time>2020-10-27T12:51:28Z</time>
      </trkpt>
      <trkpt lat="43.62205" lon="6.14246">
        <ele>458.38</ele>
        <time>2020-10-27T12:51:29Z</time>
      </trkpt>
      <trkpt lat="43.62214" lon="6.14256">
        <ele>458.94</ele>
        <time>2020-10-27T12:51:38Z</time>
      </trkpt>
      <trkpt lat="43.62214" lon="6.14261">
        <ele>459.97</ele>
        <time>2020-10-27T12:51:49Z</time>
      </trkpt>
      <trkpt lat="43.62214" lon="6.1426">
        <ele>460.07</ele>
        <time>2020-10-27T12:52:14Z</time>
      </trkpt>
      <trkpt lat="43.62214" lon="6.14258">
        <ele>459.52</ele>
        <time>2020-10-27T12:52:36Z</time>
      </trkpt>
      <trkpt lat="43.62213" lon="6.14259">
        <ele>459.74</ele>
        <time>2020-10-27T12:52:58Z</time>
      </trkpt>
      <trkpt lat="43.62213" lon="6.14259">
        <ele>459.68</ele>
        <time>2020-10-27T12:53:24Z</time>
      </trkpt>
      <trkpt lat="43.62211" lon="6.14258">
        <ele>460.1</ele>
        <time>2020-10-27T12:53:47Z</time>
      </trkpt>
      <trkpt lat="43.62216" lon="6.14254">
        <ele>460.42</ele>
        <time>2020-10-27T12:54:00Z</time>
      </trkpt>
      <trkpt lat="43.62211" lon="6.14258">
        <ele>459.49</ele>
        <time>2020-10-27T12:54:12Z</time>
      </trkpt>
      <trkpt lat="43.62211" lon="6.14256">
        <ele>459.96</ele>
        <time>2020-10-27T12:54:31Z</time>
      </trkpt>
      <trkpt lat="43.62211" lon="6.14258">
        <ele>460.14</ele>
        <time>2020-10-27T12:54:51Z</time>
      </trkpt>
      <trkpt lat="43.62213" lon="6.14258">
        <ele>460.14</ele>
        <time>2020-10-27T12:55:15Z</time>
      </trkpt>
      <trkpt lat="43.62213" lon="6.14259">
        <ele>460.14</ele>
        <time>2020-10-27T12:55:43Z</time>
      </trkpt>
      <trkpt lat="43.62211" lon="6.14259">
        <ele>460.14</ele>
        <time>2020-10-27T12:56:09Z</time>
      </trkpt>
      <trkpt lat="43.62211" lon="6.14258">
        <ele>460.14</ele>
        <time>2020-10-27T12:56:31Z</time>
      </trkpt>
      <trkpt lat="43.6221" lon="6.14259">
        <ele>460.14</ele>
        <time>2020-10-27T12:56:56Z</time>
      </trkpt>
      <trkpt lat="43.62208" lon="6.14258">
        <ele>460.14</ele>
        <time>2020-10-27T12:57:21Z</time>
      </trkpt>
      <trkpt lat="43.62209" lon="6.14258">
        <ele>460.14</ele>
        <time>2020-10-27T12:57:37Z</time>
      </trkpt>
      <trkpt lat="43.62208" lon="6.14254">
        <ele>460.14</ele>
        <time>2020-10-27T12:57:52Z</time>
      </trkpt>
      <trkpt lat="43.62208" lon="6.14254">
        <ele>460.14</ele>
        <time>2020-10-27T12:58:09Z</time>
      </trkpt>
      <trkpt lat="43.62209" lon="6.14255">
        <ele>460.14</ele>
        <time>2020-10-27T12:58:32Z</time>
      </trkpt>
      <trkpt lat="43.62208" lon="6.14255">
        <ele>460.14</ele>
        <time>2020-10-27T12:58:49Z</time>
      </trkpt>
      <trkpt lat="43.62208" lon="6.14256">
        <ele>460.14</ele>
        <time>2020-10-27T12:59:12Z</time>
      </trkpt>
      <trkpt lat="43.62208" lon="6.14255">
        <ele>460.14</ele>
        <time>2020-10-27T12:59:35Z</time>
      </trkpt>
      <trkpt lat="43.62207" lon="6.14257">
        <ele>460.14</ele>
        <time>2020-10-27T12:59:58Z</time>
      </trkpt>
      <trkpt lat="43.62209" lon="6.14255">
        <ele>460.14</ele>
        <time>2020-10-27T13:00:24Z</time>
      </trkpt>
      <trkpt lat="43.62208" lon="6.14254">
        <ele>460.14</ele>
        <time>2020-10-27T13:00:51Z</time>
      </trkpt>
      <trkpt lat="43.62206" lon="6.14256">
        <ele>460.14</ele>
        <time>2020-10-27T13:01:11Z</time>
      </trkpt>
      <trkpt lat="43.62209" lon="6.14253">
        <ele>460.14</ele>
        <time>2020-10-27T13:01:36Z</time>
      </trkpt>
      <trkpt lat="43.62209" lon="6.14252">
        <ele>460.14</ele>
        <time>2020-10-27T13:02:00Z</time>
      </trkpt>
      <trkpt lat="43.6221" lon="6.14252">
        <ele>460.14</ele>
        <time>2020-10-27T13:02:23Z</time>
      </trkpt>
      <trkpt lat="43.6221" lon="6.14254">
        <ele>460.14</ele>
        <time>2020-10-27T13:02:44Z</time>
      </trkpt>
      <trkpt lat="43.6221" lon="6.14256">
        <ele>460.14</ele>
        <time>2020-10-27T13:03:07Z</time>
      </trkpt>
      <trkpt lat="43.6221" lon="6.1426">
        <ele>460.14</ele>
        <time>2020-10-27T13:03:29Z</time>
      </trkpt>
      <trkpt lat="43.62211" lon="6.14263">
        <ele>460.14</ele>
        <time>2020-10-27T13:03:32Z</time>
      </trkpt>
      <trkpt lat="43.62209" lon="6.14279">
        <ele>459.97</ele>
        <time>2020-10-27T13:03:43Z</time>
      </trkpt>
      <trkpt lat="43.62208" lon="6.14293">
        <ele>460.14</ele>
        <time>2020-10-27T13:03:53Z</time>
      </trkpt>
      <trkpt lat="43.62208" lon="6.14298">
        <ele>460.15</ele>
        <time>2020-10-27T13:03:56Z</time>
      </trkpt>
      <trkpt lat="43.62206" lon="6.14312">
        <ele>460.35</ele>
        <time>2020-10-27T13:04:05Z</time>
      </trkpt>
      <trkpt lat="43.62205" lon="6.14319">
        <ele>460.42</ele>
        <time>2020-10-27T13:04:09Z</time>
      </trkpt>
      <trkpt lat="43.62202" lon="6.14339">
        <ele>459.74</ele>
        <time>2020-10-27T13:04:21Z</time>
      </trkpt>
      <trkpt lat="43.62196" lon="6.14355">
        <ele>459.55</ele>
        <time>2020-10-27T13:04:33Z</time>
      </trkpt>
      <trkpt lat="43.62189" lon="6.14374">
        <ele>459.62</ele>
        <time>2020-10-27T13:04:45Z</time>
      </trkpt>
      <trkpt lat="43.6218" lon="6.14396">
        <ele>459.33</ele>
        <time>2020-10-27T13:05:00Z</time>
      </trkpt>
      <trkpt lat="43.62176" lon="6.14414">
        <ele>459.18</ele>
        <time>2020-10-27T13:05:12Z</time>
      </trkpt>
      <trkpt lat="43.62174" lon="6.14422">
        <ele>458.94</ele>
        <time>2020-10-27T13:05:18Z</time>
      </trkpt>
      <trkpt lat="43.62172" lon="6.1444">
        <ele>458.91</ele>
        <time>2020-10-27T13:05:30Z</time>
      </trkpt>
      <trkpt lat="43.62171" lon="6.14456">
        <ele>458.9</ele>
        <time>2020-10-27T13:05:40Z</time>
      </trkpt>
      <trkpt lat="43.62169" lon="6.14478">
        <ele>458.21</ele>
        <time>2020-10-27T13:05:54Z</time>
      </trkpt>
      <trkpt lat="43.6217" lon="6.14496">
        <ele>457.83</ele>
        <time>2020-10-27T13:06:06Z</time>
      </trkpt>
      <trkpt lat="43.62168" lon="6.14514">
        <ele>457.82</ele>
        <time>2020-10-27T13:06:17Z</time>
      </trkpt>
      <trkpt lat="43.62165" lon="6.14534">
        <ele>457.63</ele>
        <time>2020-10-27T13:06:30Z</time>
      </trkpt>
      <trkpt lat="43.62166" lon="6.14538">
        <ele>457.53</ele>
        <time>2020-10-27T13:06:32Z</time>
      </trkpt>
      <trkpt lat="43.62162" lon="6.14565">
        <ele>457.03</ele>
        <time>2020-10-27T13:06:47Z</time>
      </trkpt>
      <trkpt lat="43.62159" lon="6.14586">
        <ele>456.98</ele>
        <time>2020-10-27T13:07:00Z</time>
      </trkpt>
      <trkpt lat="43.62158" lon="6.14604">
        <ele>456.52</ele>
        <time>2020-10-27T13:07:11Z</time>
      </trkpt>
      <trkpt lat="43.62158" lon="6.14605">
        <ele>456.49</ele>
        <time>2020-10-27T13:07:12Z</time>
      </trkpt>
      <trkpt lat="43.62153" lon="6.14627">
        <ele>456.12</ele>
        <time>2020-10-27T13:07:26Z</time>
      </trkpt>
      <trkpt lat="43.62151" lon="6.14638">
        <ele>455.98</ele>
        <time>2020-10-27T13:07:33Z</time>
      </trkpt>
      <trkpt lat="43.6215" lon="6.14664">
        <ele>455.34</ele>
        <time>2020-10-27T13:07:48Z</time>
      </trkpt>
      <trkpt lat="43.62146" lon="6.14683">
        <ele>455.33</ele>
        <time>2020-10-27T13:08:01Z</time>
      </trkpt>
      <trkpt lat="43.62146" lon="6.14703">
        <ele>454.83</ele>
        <time>2020-10-27T13:08:14Z</time>
      </trkpt>
      <trkpt lat="43.62146" lon="6.14717">
        <ele>454.47</ele>
        <time>2020-10-27T13:08:22Z</time>
      </trkpt>
      <trkpt lat="43.62144" lon="6.14737">
        <ele>454.24</ele>
        <time>2020-10-27T13:08:34Z</time>
      </trkpt>
      <trkpt lat="43.62144" lon="6.14754">
        <ele>453.97</ele>
        <time>2020-10-27T13:08:44Z</time>
      </trkpt>
      <trkpt lat="43.62144" lon="6.14761">
        <ele>453.76</ele>
        <time>2020-10-27T13:08:48Z</time>
      </trkpt>
      <trkpt lat="43.62149" lon="6.14784">
        <ele>453</ele>
        <time>2020-10-27T13:09:02Z</time>
      </trkpt>
      <trkpt lat="43.62152" lon="6.14804">
        <ele>452.8</ele>
        <time>2020-10-27T13:09:14Z</time>
      </trkpt>
      <trkpt lat="43.62155" lon="6.14822">
        <ele>452.6</ele>
        <time>2020-10-27T13:09:26Z</time>
      </trkpt>
      <trkpt lat="43.62158" lon="6.14839">
        <ele>452.3</ele>
        <time>2020-10-27T13:09:37Z</time>
      </trkpt>
      <trkpt lat="43.62162" lon="6.14858">
        <ele>451.52</ele>
        <time>2020-10-27T13:09:49Z</time>
      </trkpt>
      <trkpt lat="43.62167" lon="6.1488">
        <ele>451.12</ele>
        <time>2020-10-27T13:10:02Z</time>
      </trkpt>
      <trkpt lat="43.62169" lon="6.149">
        <ele>450.76</ele>
        <time>2020-10-27T13:10:13Z</time>
      </trkpt>
      <trkpt lat="43.62173" lon="6.1492">
        <ele>450.74</ele>
        <time>2020-10-27T13:10:25Z</time>
      </trkpt>
      <trkpt lat="43.62175" lon="6.14936">
        <ele>450</ele>
        <time>2020-10-27T13:10:36Z</time>
      </trkpt>
      <trkpt lat="43.62178" lon="6.14952">
        <ele>450</ele>
        <time>2020-10-27T13:10:45Z</time>
      </trkpt>
      <trkpt lat="43.62179" lon="6.14973">
        <ele>450.01</ele>
        <time>2020-10-27T13:10:57Z</time>
      </trkpt>
      <trkpt lat="43.6218" lon="6.14988">
        <ele>449.91</ele>
        <time>2020-10-27T13:11:06Z</time>
      </trkpt>
      <trkpt lat="43.62184" lon="6.15016">
        <ele>449.92</ele>
        <time>2020-10-27T13:11:22Z</time>
      </trkpt>
      <trkpt lat="43.62185" lon="6.15018">
        <ele>449.91</ele>
        <time>2020-10-27T13:11:23Z</time>
      </trkpt>
      <trkpt lat="43.6219" lon="6.15037">
        <ele>449.61</ele>
        <time>2020-10-27T13:11:36Z</time>
      </trkpt>
      <trkpt lat="43.62194" lon="6.15053">
        <ele>449.33</ele>
        <time>2020-10-27T13:11:47Z</time>
      </trkpt>
      <trkpt lat="43.62188" lon="6.15073">
        <ele>448.76</ele>
        <time>2020-10-27T13:11:59Z</time>
      </trkpt>
      <trkpt lat="43.62178" lon="6.15091">
        <ele>447.92</ele>
        <time>2020-10-27T13:12:11Z</time>
      </trkpt>
      <trkpt lat="43.62171" lon="6.15104">
        <ele>447.08</ele>
        <time>2020-10-27T13:12:20Z</time>
      </trkpt>
      <trkpt lat="43.62164" lon="6.15119">
        <ele>446.42</ele>
        <time>2020-10-27T13:12:31Z</time>
      </trkpt>
      <trkpt lat="43.62158" lon="6.15131">
        <ele>445.87</ele>
        <time>2020-10-27T13:12:41Z</time>
      </trkpt>
      <trkpt lat="43.62159" lon="6.15146">
        <ele>445.22</ele>
        <time>2020-10-27T13:12:51Z</time>
      </trkpt>
      <trkpt lat="43.62163" lon="6.15166">
        <ele>444.46</ele>
        <time>2020-10-27T13:13:02Z</time>
      </trkpt>
      <trkpt lat="43.62164" lon="6.15171">
        <ele>444.34</ele>
        <time>2020-10-27T13:13:05Z</time>
      </trkpt>
      <trkpt lat="43.62165" lon="6.15177">
        <ele>444.15</ele>
        <time>2020-10-27T13:13:09Z</time>
      </trkpt>
      <trkpt lat="43.62168" lon="6.15199">
        <ele>443.47</ele>
        <time>2020-10-27T13:13:23Z</time>
      </trkpt>
      <trkpt lat="43.62169" lon="6.15205">
        <ele>443.34</ele>
        <time>2020-10-27T13:13:26Z</time>
      </trkpt>
      <trkpt lat="43.6217" lon="6.15215">
        <ele>443.06</ele>
        <time>2020-10-27T13:13:32Z</time>
      </trkpt>
      <trkpt lat="43.62172" lon="6.15223">
        <ele>442.8</ele>
        <time>2020-10-27T13:13:36Z</time>
      </trkpt>
      <trkpt lat="43.6217" lon="6.15232">
        <ele>442.65</ele>
        <time>2020-10-27T13:13:42Z</time>
      </trkpt>
      <trkpt lat="43.62165" lon="6.15248">
        <ele>442.14</ele>
        <time>2020-10-27T13:13:52Z</time>
      </trkpt>
      <trkpt lat="43.6216" lon="6.15265">
        <ele>441.12</ele>
        <time>2020-10-27T13:14:03Z</time>
      </trkpt>
      <trkpt lat="43.62157" lon="6.15284">
        <ele>440.52</ele>
        <time>2020-10-27T13:14:14Z</time>
      </trkpt>
      <trkpt lat="43.62155" lon="6.15298">
        <ele>439.83</ele>
        <time>2020-10-27T13:14:24Z</time>
      </trkpt>
      <trkpt lat="43.62149" lon="6.15313">
        <ele>439.6</ele>
        <time>2020-10-27T13:14:35Z</time>
      </trkpt>
      <trkpt lat="43.62142" lon="6.15329">
        <ele>439.37</ele>
        <time>2020-10-27T13:14:46Z</time>
      </trkpt>
      <trkpt lat="43.62132" lon="6.15348">
        <ele>438.36</ele>
        <time>2020-10-27T13:15:00Z</time>
      </trkpt>
      <trkpt lat="43.62129" lon="6.15354">
        <ele>437.9</ele>
        <time>2020-10-27T13:15:07Z</time>
      </trkpt>
      <trkpt lat="43.62128" lon="6.15357">
        <ele>437.9</ele>
        <time>2020-10-27T13:15:09Z</time>
      </trkpt>
      <trkpt lat="43.62126" lon="6.15359">
        <ele>437.9</ele>
        <time>2020-10-27T13:15:11Z</time>
      </trkpt>
      <trkpt lat="43.62123" lon="6.15362">
        <ele>437.9</ele>
        <time>2020-10-27T13:15:14Z</time>
      </trkpt>
      <trkpt lat="43.62114" lon="6.15378">
        <ele>437.62</ele>
        <time>2020-10-27T13:15:26Z</time>
      </trkpt>
      <trkpt lat="43.62105" lon="6.15394">
        <ele>437.23</ele>
        <time>2020-10-27T13:15:37Z</time>
      </trkpt>
      <trkpt lat="43.62097" lon="6.15413">
        <ele>436.92</ele>
        <time>2020-10-27T13:15:51Z</time>
      </trkpt>
      <trkpt lat="43.62096" lon="6.15415">
        <ele>436.98</ele>
        <time>2020-10-27T13:15:53Z</time>
      </trkpt>
      <trkpt lat="43.62087" lon="6.15431">
        <ele>437.15</ele>
        <time>2020-10-27T13:16:05Z</time>
      </trkpt>
      <trkpt lat="43.62079" lon="6.15442">
        <ele>437.29</ele>
        <time>2020-10-27T13:16:15Z</time>
      </trkpt>
      <trkpt lat="43.62079" lon="6.15441">
        <ele>437.52</ele>
        <time>2020-10-27T13:16:30Z</time>
      </trkpt>
      <trkpt lat="43.62079" lon="6.1544">
        <ele>437.52</ele>
        <time>2020-10-27T13:16:51Z</time>
      </trkpt>
      <trkpt lat="43.62079" lon="6.1544">
        <ele>437.52</ele>
        <time>2020-10-27T13:17:18Z</time>
      </trkpt>
      <trkpt lat="43.62082" lon="6.1544">
        <ele>437.52</ele>
        <time>2020-10-27T13:17:39Z</time>
      </trkpt>
      <trkpt lat="43.62085" lon="6.15441">
        <ele>437.52</ele>
        <time>2020-10-27T13:18:00Z</time>
      </trkpt>
      <trkpt lat="43.62084" lon="6.15444">
        <ele>437.52</ele>
        <time>2020-10-27T13:18:20Z</time>
      </trkpt>
      <trkpt lat="43.62081" lon="6.15443">
        <ele>437.52</ele>
        <time>2020-10-27T13:18:42Z</time>
      </trkpt>
      <trkpt lat="43.62082" lon="6.15443">
        <ele>437.52</ele>
        <time>2020-10-27T13:19:05Z</time>
      </trkpt>
      <trkpt lat="43.62084" lon="6.15443">
        <ele>437.52</ele>
        <time>2020-10-27T13:19:32Z</time>
      </trkpt>
      <trkpt lat="43.62082" lon="6.15443">
        <ele>437.52</ele>
        <time>2020-10-27T13:20:00Z</time>
      </trkpt>
      <trkpt lat="43.62081" lon="6.15442">
        <ele>437.52</ele>
        <time>2020-10-27T13:20:21Z</time>
      </trkpt>
      <trkpt lat="43.62077" lon="6.15439">
        <ele>437.52</ele>
        <time>2020-10-27T13:20:45Z</time>
      </trkpt>
      <trkpt lat="43.62071" lon="6.15433">
        <ele>437.52</ele>
        <time>2020-10-27T13:20:59Z</time>
      </trkpt>
      <trkpt lat="43.6206" lon="6.15421">
        <ele>437.52</ele>
        <time>2020-10-27T13:21:17Z</time>
      </trkpt>
      <trkpt lat="43.62048" lon="6.15404">
        <ele>437.52</ele>
        <time>2020-10-27T13:21:34Z</time>
      </trkpt>
      <trkpt lat="43.62034" lon="6.15388">
        <ele>437.52</ele>
        <time>2020-10-27T13:21:49Z</time>
      </trkpt>
      <trkpt lat="43.6202" lon="6.15376">
        <ele>437.52</ele>
        <time>2020-10-27T13:22:06Z</time>
      </trkpt>
      <trkpt lat="43.6201" lon="6.15362">
        <ele>440.66</ele>
        <time>2020-10-27T13:22:18Z</time>
      </trkpt>
      <trkpt lat="43.61998" lon="6.15345">
        <ele>441.55</ele>
        <time>2020-10-27T13:22:35Z</time>
      </trkpt>
      <trkpt lat="43.61982" lon="6.15328">
        <ele>442.31</ele>
        <time>2020-10-27T13:22:54Z</time>
      </trkpt>
      <trkpt lat="43.61968" lon="6.15309">
        <ele>443.26</ele>
        <time>2020-10-27T13:23:11Z</time>
      </trkpt>
      <trkpt lat="43.61955" lon="6.15293">
        <ele>444.29</ele>
        <time>2020-10-27T13:23:28Z</time>
      </trkpt>
      <trkpt lat="43.61941" lon="6.15278">
        <ele>444.76</ele>
        <time>2020-10-27T13:23:43Z</time>
      </trkpt>
      <trkpt lat="43.6193" lon="6.15263">
        <ele>445.54</ele>
        <time>2020-10-27T13:23:57Z</time>
      </trkpt>
      <trkpt lat="43.61917" lon="6.15244">
        <ele>447.03</ele>
        <time>2020-10-27T13:24:14Z</time>
      </trkpt>
      <trkpt lat="43.61903" lon="6.15224">
        <ele>448.26</ele>
        <time>2020-10-27T13:24:32Z</time>
      </trkpt>
      <trkpt lat="43.61887" lon="6.15204">
        <ele>449.3</ele>
        <time>2020-10-27T13:24:51Z</time>
      </trkpt>
      <trkpt lat="43.61873" lon="6.15188">
        <ele>450.29</ele>
        <time>2020-10-27T13:25:05Z</time>
      </trkpt>
      <trkpt lat="43.61872" lon="6.15187">
        <ele>450.34</ele>
        <time>2020-10-27T13:25:06Z</time>
      </trkpt>
      <trkpt lat="43.6186" lon="6.1517">
        <ele>451.08</ele>
        <time>2020-10-27T13:25:21Z</time>
      </trkpt>
      <trkpt lat="43.61846" lon="6.15154">
        <ele>451.8</ele>
        <time>2020-10-27T13:25:37Z</time>
      </trkpt>
      <trkpt lat="43.61833" lon="6.15137">
        <ele>452.63</ele>
        <time>2020-10-27T13:25:53Z</time>
      </trkpt>
      <trkpt lat="43.61824" lon="6.15121">
        <ele>453.53</ele>
        <time>2020-10-27T13:26:06Z</time>
      </trkpt>
      <trkpt lat="43.61813" lon="6.1511">
        <ele>454.2</ele>
        <time>2020-10-27T13:26:18Z</time>
      </trkpt>
      <trkpt lat="43.61798" lon="6.15093">
        <ele>455.13</ele>
        <time>2020-10-27T13:26:35Z</time>
      </trkpt>
      <trkpt lat="43.61788" lon="6.15078">
        <ele>455.6</ele>
        <time>2020-10-27T13:26:48Z</time>
      </trkpt>
      <trkpt lat="43.61778" lon="6.15063">
        <ele>456.35</ele>
        <time>2020-10-27T13:27:00Z</time>
      </trkpt>
      <trkpt lat="43.61764" lon="6.15045">
        <ele>457.51</ele>
        <time>2020-10-27T13:27:15Z</time>
      </trkpt>
      <trkpt lat="43.61754" lon="6.15029">
        <ele>458.27</ele>
        <time>2020-10-27T13:27:29Z</time>
      </trkpt>
      <trkpt lat="43.61742" lon="6.15016">
        <ele>458.69</ele>
        <time>2020-10-27T13:27:41Z</time>
      </trkpt>
      <trkpt lat="43.61733" lon="6.15003">
        <ele>459.31</ele>
        <time>2020-10-27T13:27:53Z</time>
      </trkpt>
      <trkpt lat="43.61723" lon="6.14992">
        <ele>459.67</ele>
        <time>2020-10-27T13:28:03Z</time>
      </trkpt>
      <trkpt lat="43.6171" lon="6.14975">
        <ele>460.88</ele>
        <time>2020-10-27T13:28:19Z</time>
      </trkpt>
      <trkpt lat="43.61707" lon="6.1497">
        <ele>460.67</ele>
        <time>2020-10-27T13:28:24Z</time>
      </trkpt>
      <trkpt lat="43.61702" lon="6.14969">
        <ele>461.41</ele>
        <time>2020-10-27T13:28:36Z</time>
      </trkpt>
      <trkpt lat="43.61702" lon="6.14967">
        <ele>461.64</ele>
        <time>2020-10-27T13:28:55Z</time>
      </trkpt>
      <trkpt lat="43.61701" lon="6.14967">
        <ele>461.64</ele>
        <time>2020-10-27T13:29:16Z</time>
      </trkpt>
      <trkpt lat="43.61702" lon="6.14966">
        <ele>462.11</ele>
        <time>2020-10-27T13:29:43Z</time>
      </trkpt>
      <trkpt lat="43.61704" lon="6.14964">
        <ele>461.48</ele>
        <time>2020-10-27T13:30:02Z</time>
      </trkpt>
      <trkpt lat="43.61702" lon="6.14963">
        <ele>461.35</ele>
        <time>2020-10-27T13:30:23Z</time>
      </trkpt>
      <trkpt lat="43.61702" lon="6.14964">
        <ele>461.81</ele>
        <time>2020-10-27T13:30:41Z</time>
      </trkpt>
      <trkpt lat="43.61703" lon="6.14966">
        <ele>461.81</ele>
        <time>2020-10-27T13:31:04Z</time>
      </trkpt>
      <trkpt lat="43.61705" lon="6.1497">
        <ele>461.81</ele>
        <time>2020-10-27T13:31:07Z</time>
      </trkpt>
      <trkpt lat="43.61708" lon="6.1499">
        <ele>461.85</ele>
        <time>2020-10-27T13:31:19Z</time>
      </trkpt>
      <trkpt lat="43.61708" lon="6.15002">
        <ele>461.51</ele>
        <time>2020-10-27T13:31:28Z</time>
      </trkpt>
      <trkpt lat="43.6171" lon="6.15031">
        <ele>460.95</ele>
        <time>2020-10-27T13:31:46Z</time>
      </trkpt>
      <trkpt lat="43.6171" lon="6.15044">
        <ele>460.23</ele>
        <time>2020-10-27T13:31:55Z</time>
      </trkpt>
      <trkpt lat="43.6171" lon="6.15049">
        <ele>460.3</ele>
        <time>2020-10-27T13:31:58Z</time>
      </trkpt>
      <trkpt lat="43.61709" lon="6.15056">
        <ele>460.56</ele>
        <time>2020-10-27T13:32:02Z</time>
      </trkpt>
      <trkpt lat="43.61709" lon="6.15072">
        <ele>460.4</ele>
        <time>2020-10-27T13:32:14Z</time>
      </trkpt>
      <trkpt lat="43.61708" lon="6.15098">
        <ele>459.59</ele>
        <time>2020-10-27T13:32:31Z</time>
      </trkpt>
      <trkpt lat="43.61711" lon="6.1511">
        <ele>459.33</ele>
        <time>2020-10-27T13:32:41Z</time>
      </trkpt>
      <trkpt lat="43.6171" lon="6.15112">
        <ele>459.33</ele>
        <time>2020-10-27T13:32:42Z</time>
      </trkpt>
      <trkpt lat="43.6171" lon="6.15128">
        <ele>459.16</ele>
        <time>2020-10-27T13:32:53Z</time>
      </trkpt>
      <trkpt lat="43.6171" lon="6.15133">
        <ele>459.13</ele>
        <time>2020-10-27T13:32:56Z</time>
      </trkpt>
      <trkpt lat="43.61711" lon="6.15147">
        <ele>458.4</ele>
        <time>2020-10-27T13:33:06Z</time>
      </trkpt>
      <trkpt lat="43.61711" lon="6.15154">
        <ele>458.36</ele>
        <time>2020-10-27T13:33:09Z</time>
      </trkpt>
      <trkpt lat="43.61714" lon="6.15166">
        <ele>458.11</ele>
        <time>2020-10-27T13:33:16Z</time>
      </trkpt>
      <trkpt lat="43.61714" lon="6.1517">
        <ele>458.39</ele>
        <time>2020-10-27T13:33:18Z</time>
      </trkpt>
      <trkpt lat="43.61719" lon="6.15185">
        <ele>458.15</ele>
        <time>2020-10-27T13:33:28Z</time>
      </trkpt>
      <trkpt lat="43.61722" lon="6.152">
        <ele>458</ele>
        <time>2020-10-27T13:33:40Z</time>
      </trkpt>
      <trkpt lat="43.61722" lon="6.152">
        <ele>457.98</ele>
        <time>2020-10-27T13:33:41Z</time>
      </trkpt>
      <trkpt lat="43.61724" lon="6.15202">
        <ele>457.73</ele>
        <time>2020-10-27T13:33:44Z</time>
      </trkpt>
      <trkpt lat="43.61726" lon="6.15224">
        <ele>457.37</ele>
        <time>2020-10-27T13:33:56Z</time>
      </trkpt>
      <trkpt lat="43.61724" lon="6.15246">
        <ele>457.3</ele>
        <time>2020-10-27T13:34:06Z</time>
      </trkpt>
      <trkpt lat="43.61724" lon="6.15262">
        <ele>456.7</ele>
        <time>2020-10-27T13:34:16Z</time>
      </trkpt>
      <trkpt lat="43.61725" lon="6.15269">
        <ele>456.32</ele>
        <time>2020-10-27T13:34:22Z</time>
      </trkpt>
      <trkpt lat="43.61721" lon="6.15288">
        <ele>456.16</ele>
        <time>2020-10-27T13:34:33Z</time>
      </trkpt>
      <trkpt lat="43.61722" lon="6.15294">
        <ele>456</ele>
        <time>2020-10-27T13:34:38Z</time>
      </trkpt>
      <trkpt lat="43.61722" lon="6.15312">
        <ele>455.82</ele>
        <time>2020-10-27T13:34:50Z</time>
      </trkpt>
      <trkpt lat="43.61724" lon="6.15331">
        <ele>455.18</ele>
        <time>2020-10-27T13:35:01Z</time>
      </trkpt>
      <trkpt lat="43.61723" lon="6.15339">
        <ele>455.03</ele>
        <time>2020-10-27T13:35:07Z</time>
      </trkpt>
      <trkpt lat="43.61722" lon="6.15356">
        <ele>454.55</ele>
        <time>2020-10-27T13:35:18Z</time>
      </trkpt>
      <trkpt lat="43.61724" lon="6.15373">
        <ele>454.04</ele>
        <time>2020-10-27T13:35:29Z</time>
      </trkpt>
      <trkpt lat="43.61722" lon="6.15385">
        <ele>453.9</ele>
        <time>2020-10-27T13:35:35Z</time>
      </trkpt>
      <trkpt lat="43.61722" lon="6.15406">
        <ele>453.03</ele>
        <time>2020-10-27T13:35:49Z</time>
      </trkpt>
      <trkpt lat="43.61722" lon="6.15433">
        <ele>452.63</ele>
        <time>2020-10-27T13:36:03Z</time>
      </trkpt>
      <trkpt lat="43.61724" lon="6.15445">
        <ele>452.57</ele>
        <time>2020-10-27T13:36:11Z</time>
      </trkpt>
      <trkpt lat="43.61725" lon="6.15448">
        <ele>452.42</ele>
        <time>2020-10-27T13:36:13Z</time>
      </trkpt>
      <trkpt lat="43.61725" lon="6.15459">
        <ele>452</ele>
        <time>2020-10-27T13:36:18Z</time>
      </trkpt>
      <trkpt lat="43.61728" lon="6.1547">
        <ele>451.48</ele>
        <time>2020-10-27T13:36:26Z</time>
      </trkpt>
      <trkpt lat="43.61731" lon="6.15484">
        <ele>451.02</ele>
        <time>2020-10-27T13:36:34Z</time>
      </trkpt>
      <trkpt lat="43.61733" lon="6.15487">
        <ele>450.95</ele>
        <time>2020-10-27T13:36:36Z</time>
      </trkpt>
      <trkpt lat="43.61735" lon="6.15504">
        <ele>450.22</ele>
        <time>2020-10-27T13:36:48Z</time>
      </trkpt>
      <trkpt lat="43.61736" lon="6.15514">
        <ele>449.92</ele>
        <time>2020-10-27T13:36:53Z</time>
      </trkpt>
      <trkpt lat="43.61736" lon="6.1552">
        <ele>449.89</ele>
        <time>2020-10-27T13:36:56Z</time>
      </trkpt>
      <trkpt lat="43.61739" lon="6.15537">
        <ele>450.06</ele>
        <time>2020-10-27T13:37:07Z</time>
      </trkpt>
      <trkpt lat="43.6174" lon="6.15548">
        <ele>449.5</ele>
        <time>2020-10-27T13:37:14Z</time>
      </trkpt>
      <trkpt lat="43.61741" lon="6.1556">
        <ele>448.97</ele>
        <time>2020-10-27T13:37:21Z</time>
      </trkpt>
      <trkpt lat="43.61741" lon="6.15565">
        <ele>448.79</ele>
        <time>2020-10-27T13:37:24Z</time>
      </trkpt>
      <trkpt lat="43.61745" lon="6.15583">
        <ele>448.08</ele>
        <time>2020-10-27T13:37:35Z</time>
      </trkpt>
      <trkpt lat="43.61745" lon="6.15604">
        <ele>448.05</ele>
        <time>2020-10-27T13:37:47Z</time>
      </trkpt>
      <trkpt lat="43.61745" lon="6.15618">
        <ele>447.31</ele>
        <time>2020-10-27T13:37:56Z</time>
      </trkpt>
      <trkpt lat="43.61746" lon="6.15629">
        <ele>446.71</ele>
        <time>2020-10-27T13:38:03Z</time>
      </trkpt>
      <trkpt lat="43.61749" lon="6.15634">
        <ele>446.53</ele>
        <time>2020-10-27T13:38:07Z</time>
      </trkpt>
      <trkpt lat="43.61751" lon="6.15639">
        <ele>446.4</ele>
        <time>2020-10-27T13:38:11Z</time>
      </trkpt>
      <trkpt lat="43.61751" lon="6.15663">
        <ele>445.54</ele>
        <time>2020-10-27T13:38:23Z</time>
      </trkpt>
      <trkpt lat="43.61751" lon="6.15685">
        <ele>444.91</ele>
        <time>2020-10-27T13:38:34Z</time>
      </trkpt>
      <trkpt lat="43.61751" lon="6.15703">
        <ele>443.69</ele>
        <time>2020-10-27T13:38:45Z</time>
      </trkpt>
      <trkpt lat="43.61752" lon="6.15723">
        <ele>442.96</ele>
        <time>2020-10-27T13:38:57Z</time>
      </trkpt>
      <trkpt lat="43.61754" lon="6.15735">
        <ele>442.94</ele>
        <time>2020-10-27T13:39:04Z</time>
      </trkpt>
      <trkpt lat="43.61758" lon="6.15746">
        <ele>442.53</ele>
        <time>2020-10-27T13:39:13Z</time>
      </trkpt>
      <trkpt lat="43.61763" lon="6.15758">
        <ele>442.23</ele>
        <time>2020-10-27T13:39:23Z</time>
      </trkpt>
      <trkpt lat="43.61766" lon="6.15767">
        <ele>441.88</ele>
        <time>2020-10-27T13:39:28Z</time>
      </trkpt>
      <trkpt lat="43.6177" lon="6.1578">
        <ele>441.81</ele>
        <time>2020-10-27T13:39:36Z</time>
      </trkpt>
      <trkpt lat="43.61777" lon="6.15794">
        <ele>441.72</ele>
        <time>2020-10-27T13:39:47Z</time>
      </trkpt>
      <trkpt lat="43.61778" lon="6.158">
        <ele>441.51</ele>
        <time>2020-10-27T13:39:50Z</time>
      </trkpt>
      <trkpt lat="43.61782" lon="6.15815">
        <ele>440.88</ele>
        <time>2020-10-27T13:39:59Z</time>
      </trkpt>
      <trkpt lat="43.61786" lon="6.1584">
        <ele>440.02</ele>
        <time>2020-10-27T13:40:12Z</time>
      </trkpt>
      <trkpt lat="43.61787" lon="6.15842">
        <ele>439.92</ele>
        <time>2020-10-27T13:40:14Z</time>
      </trkpt>
      <trkpt lat="43.6179" lon="6.1585">
        <ele>439.77</ele>
        <time>2020-10-27T13:40:19Z</time>
      </trkpt>
      <trkpt lat="43.61795" lon="6.15866">
        <ele>439.23</ele>
        <time>2020-10-27T13:40:28Z</time>
      </trkpt>
      <trkpt lat="43.61796" lon="6.15872">
        <ele>439.08</ele>
        <time>2020-10-27T13:40:32Z</time>
      </trkpt>
      <trkpt lat="43.61804" lon="6.15896">
        <ele>438.2</ele>
        <time>2020-10-27T13:40:46Z</time>
      </trkpt>
      <trkpt lat="43.61805" lon="6.15898">
        <ele>438.15</ele>
        <time>2020-10-27T13:40:47Z</time>
      </trkpt>
      <trkpt lat="43.61807" lon="6.15904">
        <ele>437.94</ele>
        <time>2020-10-27T13:40:52Z</time>
      </trkpt>
      <trkpt lat="43.61811" lon="6.15917">
        <ele>437.6</ele>
        <time>2020-10-27T13:41:00Z</time>
      </trkpt>
      <trkpt lat="43.61817" lon="6.15936">
        <ele>437.39</ele>
        <time>2020-10-27T13:41:12Z</time>
      </trkpt>
      <trkpt lat="43.6182" lon="6.15951">
        <ele>437.1</ele>
        <time>2020-10-27T13:41:22Z</time>
      </trkpt>
      <trkpt lat="43.61822" lon="6.15965">
        <ele>437.02</ele>
        <time>2020-10-27T13:41:30Z</time>
      </trkpt>
      <trkpt lat="43.61829" lon="6.15983">
        <ele>436.7</ele>
        <time>2020-10-27T13:41:42Z</time>
      </trkpt>
      <trkpt lat="43.61831" lon="6.15987">
        <ele>436.51</ele>
        <time>2020-10-27T13:41:45Z</time>
      </trkpt>
      <trkpt lat="43.61835" lon="6.16008">
        <ele>436.4</ele>
        <time>2020-10-27T13:41:58Z</time>
      </trkpt>
      <trkpt lat="43.61836" lon="6.16015">
        <ele>436.35</ele>
        <time>2020-10-27T13:42:02Z</time>
      </trkpt>
      <trkpt lat="43.61837" lon="6.1602">
        <ele>436.24</ele>
        <time>2020-10-27T13:42:06Z</time>
      </trkpt>
      <trkpt lat="43.6184" lon="6.1604">
        <ele>435.63</ele>
        <time>2020-10-27T13:42:18Z</time>
      </trkpt>
      <trkpt lat="43.61844" lon="6.16055">
        <ele>435.4</ele>
        <time>2020-10-27T13:42:28Z</time>
      </trkpt>
      <trkpt lat="43.61844" lon="6.16065">
        <ele>435.06</ele>
        <time>2020-10-27T13:42:34Z</time>
      </trkpt>
      <trkpt lat="43.61846" lon="6.16072">
        <ele>434.93</ele>
        <time>2020-10-27T13:42:38Z</time>
      </trkpt>
      <trkpt lat="43.61847" lon="6.16077">
        <ele>434.88</ele>
        <time>2020-10-27T13:42:42Z</time>
      </trkpt>
      <trkpt lat="43.61848" lon="6.16081">
        <ele>434.87</ele>
        <time>2020-10-27T13:42:44Z</time>
      </trkpt>
      <trkpt lat="43.61851" lon="6.16098">
        <ele>434.83</ele>
        <time>2020-10-27T13:42:54Z</time>
      </trkpt>
      <trkpt lat="43.61853" lon="6.16106">
        <ele>434.73</ele>
        <time>2020-10-27T13:43:01Z</time>
      </trkpt>
      <trkpt lat="43.61853" lon="6.16118">
        <ele>434.81</ele>
        <time>2020-10-27T13:43:07Z</time>
      </trkpt>
      <trkpt lat="43.61854" lon="6.16125">
        <ele>434.81</ele>
        <time>2020-10-27T13:43:11Z</time>
      </trkpt>
      <trkpt lat="43.61856" lon="6.16134">
        <ele>434.76</ele>
        <time>2020-10-27T13:43:16Z</time>
      </trkpt>
      <trkpt lat="43.61855" lon="6.16143">
        <ele>434.5</ele>
        <time>2020-10-27T13:43:22Z</time>
      </trkpt>
      <trkpt lat="43.61857" lon="6.1615">
        <ele>434.69</ele>
        <time>2020-10-27T13:43:28Z</time>
      </trkpt>
      <trkpt lat="43.6186" lon="6.1615">
        <ele>434.5</ele>
        <time>2020-10-27T13:43:40Z</time>
      </trkpt>
      <trkpt lat="43.6186" lon="6.16153">
        <ele>434.57</ele>
        <time>2020-10-27T13:44:00Z</time>
      </trkpt>
    </trkseg>
  </trk>
</gpx>